<?xml version="1.0" encoding="UTF-8" standalone="no" ?><gpx xmlns="http://www.topografix.com/GPX/1/1" xmlns:gpxx="http://www.garmin.com/xmlschemas/GpxExtensions/v3" xmlns:wptx1="http://www.garmin.com/xmlschemas/WaypointExtension/v1" xmlns:gpxtpx="http://www.garmin.com/xmlschemas/TrackPointExtension/v1" creator="GuideVTT.com" version="1.1" xmlns:xsi="http://www.w3.org/2001/XMLSchema-instance" xsi:schemaLocation="http://www.topografix.com/GPX/1/1 http://www.topografix.com/GPX/1/1/gpx.xsd http://www.garmin.com/xmlschemas/GpxExtensions/v3 http://www8.garmin.com/xmlschemas/GpxExtensionsv3.xsd http://www.garmin.com/xmlschemas/WaypointExtension/v1 http://www8.garmin.com/xmlschemas/WaypointExtensionv1.xsd http://www.garmin.com/xmlschemas/TrackPointExtension/v1 http://www.garmin.com/xmlschemas/TrackPointExtensionv1.xsd">
<metadata><link href="http://www.garmin.com"><text>Garmin International</text></link><time>2013-06-22T15:13:50Z</time></metadata>
<trk><name>rp2015_35.gpx</name><extensions><gpxx:TrackExtension><gpxx:DisplayColor>Cyan</gpxx:DisplayColor></gpxx:TrackExtension></extensions><trkseg>
<trkpt lat="46.08757" lon="7.51869"><ele></ele><time>2015-11-5T5:55:29Z</time></trkpt>
<trkpt lat="46.08758" lon="7.51872"><ele></ele><time>2015-11-5T5:55:32Z</time></trkpt>
<trkpt lat="46.08742" lon="7.51855"><ele></ele><time>2015-11-5T5:55:35Z</time></trkpt>
<trkpt lat="46.08745" lon="7.51862"><ele></ele><time>2015-11-5T5:55:38Z</time></trkpt>
<trkpt lat="46.08746" lon="7.51864"><ele></ele><time>2015-11-5T5:55:41Z</time></trkpt>
<trkpt lat="46.08752" lon="7.51869"><ele></ele><time>2015-11-5T5:55:44Z</time></trkpt>
<trkpt lat="46.08743" lon="7.51864"><ele></ele><time>2015-11-5T5:55:47Z</time></trkpt>
<trkpt lat="46.08734" lon="7.51843"><ele></ele><time>2015-11-5T5:55:50Z</time></trkpt>
<trkpt lat="46.08735" lon="7.51839"><ele></ele><time>2015-11-5T5:55:53Z</time></trkpt>
<trkpt lat="46.08735" lon="7.51835"><ele></ele><time>2015-11-5T5:55:56Z</time></trkpt>
<trkpt lat="46.08735" lon="7.51831"><ele></ele><time>2015-11-5T5:55:59Z</time></trkpt>
<trkpt lat="46.08727" lon="7.51819"><ele></ele><time>2015-11-5T5:56:2Z</time></trkpt>
<trkpt lat="46.08728" lon="7.51819"><ele></ele><time>2015-11-5T5:56:5Z</time></trkpt>
<trkpt lat="46.08728" lon="7.5182"><ele></ele><time>2015-11-5T5:56:8Z</time></trkpt>
<trkpt lat="46.08728" lon="7.51821"><ele></ele><time>2015-11-5T5:56:11Z</time></trkpt>
<trkpt lat="46.08728" lon="7.51819"><ele></ele><time>2015-11-5T5:56:14Z</time></trkpt>
<trkpt lat="46.08728" lon="7.51819"><ele></ele><time>2015-11-5T5:56:17Z</time></trkpt>
<trkpt lat="46.08728" lon="7.51819"><ele></ele><time>2015-11-5T5:56:20Z</time></trkpt>
<trkpt lat="46.08731" lon="7.51811"><ele></ele><time>2015-11-5T5:56:23Z</time></trkpt>
<trkpt lat="46.08737" lon="7.51821"><ele></ele><time>2015-11-5T5:56:26Z</time></trkpt>
<trkpt lat="46.08739" lon="7.51831"><ele></ele><time>2015-11-5T5:56:29Z</time></trkpt>
<trkpt lat="46.08737" lon="7.5185"><ele></ele><time>2015-11-5T5:56:32Z</time></trkpt>
<trkpt lat="46.08741" lon="7.51857"><ele></ele><time>2015-11-5T5:56:35Z</time></trkpt>
<trkpt lat="46.08746" lon="7.51863"><ele></ele><time>2015-11-5T5:56:38Z</time></trkpt>
<trkpt lat="46.08756" lon="7.51871"><ele></ele><time>2015-11-5T5:56:41Z</time></trkpt>
<trkpt lat="46.08762" lon="7.51884"><ele></ele><time>2015-11-5T5:56:44Z</time></trkpt>
<trkpt lat="46.08764" lon="7.51897"><ele></ele><time>2015-11-5T5:56:47Z</time></trkpt>
<trkpt lat="46.08766" lon="7.5191"><ele></ele><time>2015-11-5T5:56:50Z</time></trkpt>
<trkpt lat="46.08769" lon="7.51935"><ele></ele><time>2015-11-5T5:56:53Z</time></trkpt>
<trkpt lat="46.08769" lon="7.51939"><ele></ele><time>2015-11-5T5:56:56Z</time></trkpt>
<trkpt lat="46.0877" lon="7.51946"><ele></ele><time>2015-11-5T5:56:59Z</time></trkpt>
<trkpt lat="46.08772" lon="7.51955"><ele></ele><time>2015-11-5T5:57:2Z</time></trkpt>
<trkpt lat="46.08775" lon="7.51963"><ele></ele><time>2015-11-5T5:57:5Z</time></trkpt>
<trkpt lat="46.08777" lon="7.51965"><ele></ele><time>2015-11-5T5:57:8Z</time></trkpt>
<trkpt lat="46.08778" lon="7.51969"><ele></ele><time>2015-11-5T5:57:11Z</time></trkpt>
<trkpt lat="46.0878" lon="7.51974"><ele></ele><time>2015-11-5T5:57:14Z</time></trkpt>
<trkpt lat="46.08782" lon="7.51977"><ele></ele><time>2015-11-5T5:57:17Z</time></trkpt>
<trkpt lat="46.08784" lon="7.51981"><ele></ele><time>2015-11-5T5:57:20Z</time></trkpt>
<trkpt lat="46.08798" lon="7.51976"><ele></ele><time>2015-11-5T5:57:23Z</time></trkpt>
<trkpt lat="46.08806" lon="7.51982"><ele></ele><time>2015-11-5T5:57:26Z</time></trkpt>
<trkpt lat="46.0882" lon="7.52"><ele></ele><time>2015-11-5T5:57:29Z</time></trkpt>
<trkpt lat="46.08824" lon="7.52005"><ele></ele><time>2015-11-5T5:57:32Z</time></trkpt>
<trkpt lat="46.08834" lon="7.52007"><ele></ele><time>2015-11-5T5:57:35Z</time></trkpt>
<trkpt lat="46.08837" lon="7.52002"><ele></ele><time>2015-11-5T5:57:38Z</time></trkpt>
<trkpt lat="46.08839" lon="7.51997"><ele></ele><time>2015-11-5T5:57:41Z</time></trkpt>
<trkpt lat="46.08842" lon="7.51992"><ele></ele><time>2015-11-5T5:57:44Z</time></trkpt>
<trkpt lat="46.08856" lon="7.51973"><ele></ele><time>2015-11-5T5:57:47Z</time></trkpt>
<trkpt lat="46.0887" lon="7.51966"><ele></ele><time>2015-11-5T5:57:50Z</time></trkpt>
<trkpt lat="46.08889" lon="7.51968"><ele></ele><time>2015-11-5T5:57:53Z</time></trkpt>
<trkpt lat="46.08894" lon="7.51971"><ele></ele><time>2015-11-5T5:57:56Z</time></trkpt>
<trkpt lat="46.08913" lon="7.51972"><ele></ele><time>2015-11-5T5:57:59Z</time></trkpt>
<trkpt lat="46.0892" lon="7.5197"><ele></ele><time>2015-11-5T5:58:2Z</time></trkpt>
<trkpt lat="46.08939" lon="7.51965"><ele></ele><time>2015-11-5T5:58:5Z</time></trkpt>
<trkpt lat="46.08944" lon="7.51965"><ele></ele><time>2015-11-5T5:58:8Z</time></trkpt>
<trkpt lat="46.08954" lon="7.51966"><ele></ele><time>2015-11-5T5:58:11Z</time></trkpt>
<trkpt lat="46.08972" lon="7.51963"><ele></ele><time>2015-11-5T5:58:14Z</time></trkpt>
<trkpt lat="46.08994" lon="7.51957"><ele></ele><time>2015-11-5T5:58:17Z</time></trkpt>
<trkpt lat="46.09" lon="7.51956"><ele></ele><time>2015-11-5T5:58:20Z</time></trkpt>
<trkpt lat="46.09024" lon="7.51958"><ele></ele><time>2015-11-5T5:58:23Z</time></trkpt>
<trkpt lat="46.09042" lon="7.51968"><ele></ele><time>2015-11-5T5:58:26Z</time></trkpt>
<trkpt lat="46.09049" lon="7.51975"><ele></ele><time>2015-11-5T5:58:29Z</time></trkpt>
<trkpt lat="46.09063" lon="7.51984"><ele></ele><time>2015-11-5T5:58:32Z</time></trkpt>
<trkpt lat="46.09065" lon="7.51985"><ele></ele><time>2015-11-5T5:58:35Z</time></trkpt>
<trkpt lat="46.09082" lon="7.51996"><ele></ele><time>2015-11-5T5:58:38Z</time></trkpt>
<trkpt lat="46.09087" lon="7.51997"><ele></ele><time>2015-11-5T5:58:41Z</time></trkpt>
<trkpt lat="46.09091" lon="7.52001"><ele></ele><time>2015-11-5T5:58:44Z</time></trkpt>
<trkpt lat="46.09093" lon="7.52003"><ele></ele><time>2015-11-5T5:58:47Z</time></trkpt>
<trkpt lat="46.09098" lon="7.52006"><ele></ele><time>2015-11-5T5:58:50Z</time></trkpt>
<trkpt lat="46.091" lon="7.52006"><ele></ele><time>2015-11-5T5:58:53Z</time></trkpt>
<trkpt lat="46.09111" lon="7.5201"><ele></ele><time>2015-11-5T5:58:56Z</time></trkpt>
<trkpt lat="46.09127" lon="7.52011"><ele></ele><time>2015-11-5T5:58:59Z</time></trkpt>
<trkpt lat="46.09129" lon="7.52013"><ele></ele><time>2015-11-5T5:59:2Z</time></trkpt>
<trkpt lat="46.09131" lon="7.52015"><ele></ele><time>2015-11-5T5:59:5Z</time></trkpt>
<trkpt lat="46.09133" lon="7.52018"><ele></ele><time>2015-11-5T5:59:8Z</time></trkpt>
<trkpt lat="46.09133" lon="7.52019"><ele></ele><time>2015-11-5T5:59:11Z</time></trkpt>
<trkpt lat="46.09134" lon="7.5202"><ele></ele><time>2015-11-5T5:59:14Z</time></trkpt>
<trkpt lat="46.0914" lon="7.52023"><ele></ele><time>2015-11-5T5:59:17Z</time></trkpt>
<trkpt lat="46.09149" lon="7.52024"><ele></ele><time>2015-11-5T5:59:20Z</time></trkpt>
<trkpt lat="46.09166" lon="7.52032"><ele></ele><time>2015-11-5T5:59:23Z</time></trkpt>
<trkpt lat="46.09172" lon="7.5203"><ele></ele><time>2015-11-5T5:59:26Z</time></trkpt>
<trkpt lat="46.09185" lon="7.52027"><ele></ele><time>2015-11-5T5:59:29Z</time></trkpt>
<trkpt lat="46.0919" lon="7.52027"><ele></ele><time>2015-11-5T5:59:32Z</time></trkpt>
<trkpt lat="46.09192" lon="7.52027"><ele></ele><time>2015-11-5T5:59:35Z</time></trkpt>
<trkpt lat="46.09196" lon="7.52032"><ele></ele><time>2015-11-5T5:59:38Z</time></trkpt>
<trkpt lat="46.09205" lon="7.5204"><ele></ele><time>2015-11-5T5:59:41Z</time></trkpt>
<trkpt lat="46.09207" lon="7.52062"><ele></ele><time>2015-11-5T5:59:44Z</time></trkpt>
<trkpt lat="46.09206" lon="7.52063"><ele></ele><time>2015-11-5T5:59:47Z</time></trkpt>
<trkpt lat="46.09204" lon="7.52064"><ele></ele><time>2015-11-5T5:59:50Z</time></trkpt>
<trkpt lat="46.09194" lon="7.52064"><ele></ele><time>2015-11-5T5:59:53Z</time></trkpt>
<trkpt lat="46.0919" lon="7.52065"><ele></ele><time>2015-11-5T5:59:56Z</time></trkpt>
<trkpt lat="46.09186" lon="7.52065"><ele></ele><time>2015-11-5T5:59:59Z</time></trkpt>
<trkpt lat="46.09178" lon="7.52067"><ele></ele><time>2015-11-5T6:0:2Z</time></trkpt>
<trkpt lat="46.09177" lon="7.52067"><ele></ele><time>2015-11-5T6:0:5Z</time></trkpt>
<trkpt lat="46.09174" lon="7.52066"><ele></ele><time>2015-11-5T6:0:8Z</time></trkpt>
<trkpt lat="46.0917" lon="7.52067"><ele></ele><time>2015-11-5T6:0:11Z</time></trkpt>
<trkpt lat="46.09162" lon="7.52068"><ele></ele><time>2015-11-5T6:0:14Z</time></trkpt>
<trkpt lat="46.09157" lon="7.52069"><ele></ele><time>2015-11-5T6:0:17Z</time></trkpt>
<trkpt lat="46.09154" lon="7.52069"><ele></ele><time>2015-11-5T6:0:20Z</time></trkpt>
<trkpt lat="46.09135" lon="7.52071"><ele></ele><time>2015-11-5T6:0:23Z</time></trkpt>
<trkpt lat="46.09119" lon="7.52086"><ele></ele><time>2015-11-5T6:0:26Z</time></trkpt>
<trkpt lat="46.09103" lon="7.52101"><ele></ele><time>2015-11-5T6:0:29Z</time></trkpt>
<trkpt lat="46.09087" lon="7.52115"><ele></ele><time>2015-11-5T6:0:32Z</time></trkpt>
<trkpt lat="46.09083" lon="7.52118"><ele></ele><time>2015-11-5T6:0:35Z</time></trkpt>
<trkpt lat="46.0908" lon="7.52121"><ele></ele><time>2015-11-5T6:0:38Z</time></trkpt>
<trkpt lat="46.09065" lon="7.52136"><ele></ele><time>2015-11-5T6:0:41Z</time></trkpt>
<trkpt lat="46.0906" lon="7.52143"><ele></ele><time>2015-11-5T6:0:44Z</time></trkpt>
<trkpt lat="46.09057" lon="7.52145"><ele></ele><time>2015-11-5T6:0:47Z</time></trkpt>
<trkpt lat="46.09054" lon="7.52147"><ele></ele><time>2015-11-5T6:0:50Z</time></trkpt>
<trkpt lat="46.09035" lon="7.52153"><ele></ele><time>2015-11-5T6:0:53Z</time></trkpt>
<trkpt lat="46.09021" lon="7.52169"><ele></ele><time>2015-11-5T6:0:56Z</time></trkpt>
<trkpt lat="46.09018" lon="7.52185"><ele></ele><time>2015-11-5T6:0:59Z</time></trkpt>
<trkpt lat="46.09013" lon="7.52212"><ele></ele><time>2015-11-5T6:1:2Z</time></trkpt>
<trkpt lat="46.09007" lon="7.52229"><ele></ele><time>2015-11-5T6:1:5Z</time></trkpt>
<trkpt lat="46.09" lon="7.52254"><ele></ele><time>2015-11-5T6:1:8Z</time></trkpt>
<trkpt lat="46.08994" lon="7.52274"><ele></ele><time>2015-11-5T6:1:11Z</time></trkpt>
<trkpt lat="46.08984" lon="7.52297"><ele></ele><time>2015-11-5T6:1:14Z</time></trkpt>
<trkpt lat="46.08971" lon="7.52315"><ele></ele><time>2015-11-5T6:1:17Z</time></trkpt>
<trkpt lat="46.08956" lon="7.5233"><ele></ele><time>2015-11-5T6:1:20Z</time></trkpt>
<trkpt lat="46.08942" lon="7.52341"><ele></ele><time>2015-11-5T6:1:23Z</time></trkpt>
<trkpt lat="46.08936" lon="7.52347"><ele></ele><time>2015-11-5T6:1:26Z</time></trkpt>
<trkpt lat="46.08924" lon="7.52368"><ele></ele><time>2015-11-5T6:1:29Z</time></trkpt>
<trkpt lat="46.08907" lon="7.52383"><ele></ele><time>2015-11-5T6:1:32Z</time></trkpt>
<trkpt lat="46.08905" lon="7.52387"><ele></ele><time>2015-11-5T6:1:35Z</time></trkpt>
<trkpt lat="46.08891" lon="7.52403"><ele></ele><time>2015-11-5T6:1:38Z</time></trkpt>
<trkpt lat="46.08877" lon="7.52422"><ele></ele><time>2015-11-5T6:1:41Z</time></trkpt>
<trkpt lat="46.08875" lon="7.52425"><ele></ele><time>2015-11-5T6:1:44Z</time></trkpt>
<trkpt lat="46.08863" lon="7.52445"><ele></ele><time>2015-11-5T6:1:47Z</time></trkpt>
<trkpt lat="46.08853" lon="7.52461"><ele></ele><time>2015-11-5T6:1:50Z</time></trkpt>
<trkpt lat="46.08842" lon="7.5248"><ele></ele><time>2015-11-5T6:1:53Z</time></trkpt>
<trkpt lat="46.08831" lon="7.52503"><ele></ele><time>2015-11-5T6:1:56Z</time></trkpt>
<trkpt lat="46.08819" lon="7.52523"><ele></ele><time>2015-11-5T6:1:59Z</time></trkpt>
<trkpt lat="46.08813" lon="7.52526"><ele></ele><time>2015-11-5T6:2:2Z</time></trkpt>
<trkpt lat="46.088" lon="7.52546"><ele></ele><time>2015-11-5T6:2:5Z</time></trkpt>
<trkpt lat="46.08795" lon="7.52552"><ele></ele><time>2015-11-5T6:2:8Z</time></trkpt>
<trkpt lat="46.08793" lon="7.52558"><ele></ele><time>2015-11-5T6:2:11Z</time></trkpt>
<trkpt lat="46.08786" lon="7.5257"><ele></ele><time>2015-11-5T6:2:14Z</time></trkpt>
<trkpt lat="46.08779" lon="7.52577"><ele></ele><time>2015-11-5T6:2:17Z</time></trkpt>
<trkpt lat="46.08778" lon="7.52579"><ele></ele><time>2015-11-5T6:2:20Z</time></trkpt>
<trkpt lat="46.08776" lon="7.52582"><ele></ele><time>2015-11-5T6:2:23Z</time></trkpt>
<trkpt lat="46.08772" lon="7.52585"><ele></ele><time>2015-11-5T6:2:26Z</time></trkpt>
<trkpt lat="46.0877" lon="7.52587"><ele></ele><time>2015-11-5T6:2:29Z</time></trkpt>
<trkpt lat="46.08764" lon="7.5259"><ele></ele><time>2015-11-5T6:2:32Z</time></trkpt>
<trkpt lat="46.08755" lon="7.52594"><ele></ele><time>2015-11-5T6:2:35Z</time></trkpt>
<trkpt lat="46.08752" lon="7.52596"><ele></ele><time>2015-11-5T6:2:38Z</time></trkpt>
<trkpt lat="46.08748" lon="7.526"><ele></ele><time>2015-11-5T6:2:41Z</time></trkpt>
<trkpt lat="46.08737" lon="7.52607"><ele></ele><time>2015-11-5T6:2:44Z</time></trkpt>
<trkpt lat="46.08735" lon="7.5261"><ele></ele><time>2015-11-5T6:2:47Z</time></trkpt>
<trkpt lat="46.08733" lon="7.52612"><ele></ele><time>2015-11-5T6:2:50Z</time></trkpt>
<trkpt lat="46.08727" lon="7.52618"><ele></ele><time>2015-11-5T6:2:53Z</time></trkpt>
<trkpt lat="46.08727" lon="7.5262"><ele></ele><time>2015-11-5T6:2:56Z</time></trkpt>
<trkpt lat="46.0873" lon="7.52624"><ele></ele><time>2015-11-5T6:2:59Z</time></trkpt>
<trkpt lat="46.08731" lon="7.52623"><ele></ele><time>2015-11-5T6:3:2Z</time></trkpt>
<trkpt lat="46.08731" lon="7.52623"><ele></ele><time>2015-11-5T6:3:5Z</time></trkpt>
<trkpt lat="46.08748" lon="7.52616"><ele></ele><time>2015-11-5T6:3:8Z</time></trkpt>
<trkpt lat="46.08749" lon="7.52615"><ele></ele><time>2015-11-5T6:3:11Z</time></trkpt>
<trkpt lat="46.08751" lon="7.52615"><ele></ele><time>2015-11-5T6:3:14Z</time></trkpt>
<trkpt lat="46.08753" lon="7.52615"><ele></ele><time>2015-11-5T6:3:17Z</time></trkpt>
<trkpt lat="46.08755" lon="7.52614"><ele></ele><time>2015-11-5T6:3:20Z</time></trkpt>
<trkpt lat="46.08765" lon="7.52616"><ele></ele><time>2015-11-5T6:3:23Z</time></trkpt>
<trkpt lat="46.08783" lon="7.5262"><ele></ele><time>2015-11-5T6:3:26Z</time></trkpt>
<trkpt lat="46.08792" lon="7.52617"><ele></ele><time>2015-11-5T6:3:29Z</time></trkpt>
<trkpt lat="46.08802" lon="7.52619"><ele></ele><time>2015-11-5T6:3:32Z</time></trkpt>
<trkpt lat="46.08813" lon="7.52619"><ele></ele><time>2015-11-5T6:3:35Z</time></trkpt>
<trkpt lat="46.08814" lon="7.52618"><ele></ele><time>2015-11-5T6:3:38Z</time></trkpt>
<trkpt lat="46.08832" lon="7.52614"><ele></ele><time>2015-11-5T6:3:41Z</time></trkpt>
<trkpt lat="46.08851" lon="7.52608"><ele></ele><time>2015-11-5T6:3:44Z</time></trkpt>
<trkpt lat="46.08856" lon="7.52607"><ele></ele><time>2015-11-5T6:3:47Z</time></trkpt>
<trkpt lat="46.08866" lon="7.52601"><ele></ele><time>2015-11-5T6:3:50Z</time></trkpt>
<trkpt lat="46.08872" lon="7.52598"><ele></ele><time>2015-11-5T6:3:53Z</time></trkpt>
<trkpt lat="46.08887" lon="7.52591"><ele></ele><time>2015-11-5T6:3:56Z</time></trkpt>
<trkpt lat="46.08903" lon="7.52587"><ele></ele><time>2015-11-5T6:3:59Z</time></trkpt>
<trkpt lat="46.0892" lon="7.52577"><ele></ele><time>2015-11-5T6:4:2Z</time></trkpt>
<trkpt lat="46.08938" lon="7.52569"><ele></ele><time>2015-11-5T6:4:5Z</time></trkpt>
<trkpt lat="46.08957" lon="7.52567"><ele></ele><time>2015-11-5T6:4:8Z</time></trkpt>
<trkpt lat="46.08967" lon="7.52558"><ele></ele><time>2015-11-5T6:4:11Z</time></trkpt>
<trkpt lat="46.08985" lon="7.52551"><ele></ele><time>2015-11-5T6:4:14Z</time></trkpt>
<trkpt lat="46.09004" lon="7.52546"><ele></ele><time>2015-11-5T6:4:17Z</time></trkpt>
<trkpt lat="46.09012" lon="7.52542"><ele></ele><time>2015-11-5T6:4:20Z</time></trkpt>
<trkpt lat="46.09027" lon="7.52528"><ele></ele><time>2015-11-5T6:4:23Z</time></trkpt>
<trkpt lat="46.09038" lon="7.52519"><ele></ele><time>2015-11-5T6:4:26Z</time></trkpt>
<trkpt lat="46.09054" lon="7.52509"><ele></ele><time>2015-11-5T6:4:29Z</time></trkpt>
<trkpt lat="46.09056" lon="7.52508"><ele></ele><time>2015-11-5T6:4:32Z</time></trkpt>
<trkpt lat="46.09057" lon="7.52507"><ele></ele><time>2015-11-5T6:4:35Z</time></trkpt>
<trkpt lat="46.09059" lon="7.52507"><ele></ele><time>2015-11-5T6:4:38Z</time></trkpt>
<trkpt lat="46.09061" lon="7.52507"><ele></ele><time>2015-11-5T6:4:41Z</time></trkpt>
<trkpt lat="46.09064" lon="7.52507"><ele></ele><time>2015-11-5T6:4:44Z</time></trkpt>
<trkpt lat="46.09065" lon="7.52508"><ele></ele><time>2015-11-5T6:4:47Z</time></trkpt>
<trkpt lat="46.09065" lon="7.52509"><ele></ele><time>2015-11-5T6:4:50Z</time></trkpt>
<trkpt lat="46.09065" lon="7.52509"><ele></ele><time>2015-11-5T6:4:53Z</time></trkpt>
<trkpt lat="46.09066" lon="7.52509"><ele></ele><time>2015-11-5T6:4:56Z</time></trkpt>
<trkpt lat="46.09065" lon="7.52509"><ele></ele><time>2015-11-5T6:4:59Z</time></trkpt>
<trkpt lat="46.09064" lon="7.5251"><ele></ele><time>2015-11-5T6:5:2Z</time></trkpt>
<trkpt lat="46.09059" lon="7.52531"><ele></ele><time>2015-11-5T6:5:5Z</time></trkpt>
<trkpt lat="46.09051" lon="7.52544"><ele></ele><time>2015-11-5T6:5:8Z</time></trkpt>
<trkpt lat="46.09048" lon="7.5255"><ele></ele><time>2015-11-5T6:5:11Z</time></trkpt>
<trkpt lat="46.09045" lon="7.52555"><ele></ele><time>2015-11-5T6:5:14Z</time></trkpt>
<trkpt lat="46.09036" lon="7.52566"><ele></ele><time>2015-11-5T6:5:17Z</time></trkpt>
<trkpt lat="46.09025" lon="7.52588"><ele></ele><time>2015-11-5T6:5:20Z</time></trkpt>
<trkpt lat="46.09013" lon="7.5261"><ele></ele><time>2015-11-5T6:5:23Z</time></trkpt>
<trkpt lat="46.09011" lon="7.52611"><ele></ele><time>2015-11-5T6:5:26Z</time></trkpt>
<trkpt lat="46.09005" lon="7.52615"><ele></ele><time>2015-11-5T6:5:29Z</time></trkpt>
<trkpt lat="46.08997" lon="7.52623"><ele></ele><time>2015-11-5T6:5:32Z</time></trkpt>
<trkpt lat="46.08993" lon="7.52626"><ele></ele><time>2015-11-5T6:5:35Z</time></trkpt>
<trkpt lat="46.08983" lon="7.52639"><ele></ele><time>2015-11-5T6:5:38Z</time></trkpt>
<trkpt lat="46.08968" lon="7.52654"><ele></ele><time>2015-11-5T6:5:41Z</time></trkpt>
<trkpt lat="46.08966" lon="7.52655"><ele></ele><time>2015-11-5T6:5:44Z</time></trkpt>
<trkpt lat="46.0896" lon="7.52658"><ele></ele><time>2015-11-5T6:5:47Z</time></trkpt>
<trkpt lat="46.08958" lon="7.5266"><ele></ele><time>2015-11-5T6:5:50Z</time></trkpt>
<trkpt lat="46.0895" lon="7.52664"><ele></ele><time>2015-11-5T6:5:53Z</time></trkpt>
<trkpt lat="46.08936" lon="7.52674"><ele></ele><time>2015-11-5T6:5:56Z</time></trkpt>
<trkpt lat="46.08934" lon="7.52675"><ele></ele><time>2015-11-5T6:5:59Z</time></trkpt>
<trkpt lat="46.08915" lon="7.52677"><ele></ele><time>2015-11-5T6:6:2Z</time></trkpt>
<trkpt lat="46.08907" lon="7.52681"><ele></ele><time>2015-11-5T6:6:5Z</time></trkpt>
<trkpt lat="46.089" lon="7.52685"><ele></ele><time>2015-11-5T6:6:8Z</time></trkpt>
<trkpt lat="46.08887" lon="7.52697"><ele></ele><time>2015-11-5T6:6:11Z</time></trkpt>
<trkpt lat="46.08882" lon="7.52704"><ele></ele><time>2015-11-5T6:6:14Z</time></trkpt>
<trkpt lat="46.08881" lon="7.52705"><ele></ele><time>2015-11-5T6:6:17Z</time></trkpt>
<trkpt lat="46.08873" lon="7.52715"><ele></ele><time>2015-11-5T6:6:20Z</time></trkpt>
<trkpt lat="46.08869" lon="7.52721"><ele></ele><time>2015-11-5T6:6:23Z</time></trkpt>
<trkpt lat="46.08867" lon="7.52723"><ele></ele><time>2015-11-5T6:6:26Z</time></trkpt>
<trkpt lat="46.08854" lon="7.52732"><ele></ele><time>2015-11-5T6:6:29Z</time></trkpt>
<trkpt lat="46.08837" lon="7.52737"><ele></ele><time>2015-11-5T6:6:32Z</time></trkpt>
<trkpt lat="46.0882" lon="7.52752"><ele></ele><time>2015-11-5T6:6:35Z</time></trkpt>
<trkpt lat="46.08812" lon="7.5276"><ele></ele><time>2015-11-5T6:6:38Z</time></trkpt>
<trkpt lat="46.08796" lon="7.52772"><ele></ele><time>2015-11-5T6:6:41Z</time></trkpt>
<trkpt lat="46.08781" lon="7.52785"><ele></ele><time>2015-11-5T6:6:44Z</time></trkpt>
<trkpt lat="46.08772" lon="7.52783"><ele></ele><time>2015-11-5T6:6:47Z</time></trkpt>
<trkpt lat="46.08754" lon="7.52781"><ele></ele><time>2015-11-5T6:6:50Z</time></trkpt>
<trkpt lat="46.08748" lon="7.52779"><ele></ele><time>2015-11-5T6:6:53Z</time></trkpt>
<trkpt lat="46.08735" lon="7.52773"><ele></ele><time>2015-11-5T6:6:56Z</time></trkpt>
<trkpt lat="46.08721" lon="7.52766"><ele></ele><time>2015-11-5T6:6:59Z</time></trkpt>
<trkpt lat="46.08716" lon="7.52765"><ele></ele><time>2015-11-5T6:7:2Z</time></trkpt>
<trkpt lat="46.08712" lon="7.52763"><ele></ele><time>2015-11-5T6:7:5Z</time></trkpt>
<trkpt lat="46.08701" lon="7.52762"><ele></ele><time>2015-11-5T6:7:8Z</time></trkpt>
<trkpt lat="46.08689" lon="7.52764"><ele></ele><time>2015-11-5T6:7:11Z</time></trkpt>
<trkpt lat="46.08675" lon="7.52776"><ele></ele><time>2015-11-5T6:7:14Z</time></trkpt>
<trkpt lat="46.08666" lon="7.52792"><ele></ele><time>2015-11-5T6:7:17Z</time></trkpt>
<trkpt lat="46.08662" lon="7.52802"><ele></ele><time>2015-11-5T6:7:20Z</time></trkpt>
<trkpt lat="46.08658" lon="7.52811"><ele></ele><time>2015-11-5T6:7:23Z</time></trkpt>
<trkpt lat="46.08654" lon="7.52817"><ele></ele><time>2015-11-5T6:7:26Z</time></trkpt>
<trkpt lat="46.08651" lon="7.52822"><ele></ele><time>2015-11-5T6:7:29Z</time></trkpt>
<trkpt lat="46.08643" lon="7.52837"><ele></ele><time>2015-11-5T6:7:32Z</time></trkpt>
<trkpt lat="46.08631" lon="7.52852"><ele></ele><time>2015-11-5T6:7:35Z</time></trkpt>
<trkpt lat="46.08623" lon="7.52856"><ele></ele><time>2015-11-5T6:7:38Z</time></trkpt>
<trkpt lat="46.08616" lon="7.52861"><ele></ele><time>2015-11-5T6:7:41Z</time></trkpt>
<trkpt lat="46.08602" lon="7.52879"><ele></ele><time>2015-11-5T6:7:44Z</time></trkpt>
<trkpt lat="46.08598" lon="7.52888"><ele></ele><time>2015-11-5T6:7:47Z</time></trkpt>
<trkpt lat="46.08597" lon="7.5289"><ele></ele><time>2015-11-5T6:7:50Z</time></trkpt>
<trkpt lat="46.08588" lon="7.52906"><ele></ele><time>2015-11-5T6:7:53Z</time></trkpt>
<trkpt lat="46.08573" lon="7.52921"><ele></ele><time>2015-11-5T6:7:56Z</time></trkpt>
<trkpt lat="46.08563" lon="7.52926"><ele></ele><time>2015-11-5T6:7:59Z</time></trkpt>
<trkpt lat="46.08554" lon="7.52932"><ele></ele><time>2015-11-5T6:8:2Z</time></trkpt>
<trkpt lat="46.08549" lon="7.52933"><ele></ele><time>2015-11-5T6:8:5Z</time></trkpt>
<trkpt lat="46.08535" lon="7.5295"><ele></ele><time>2015-11-5T6:8:8Z</time></trkpt>
<trkpt lat="46.08523" lon="7.52961"><ele></ele><time>2015-11-5T6:8:11Z</time></trkpt>
<trkpt lat="46.08516" lon="7.52969"><ele></ele><time>2015-11-5T6:8:14Z</time></trkpt>
<trkpt lat="46.08512" lon="7.52976"><ele></ele><time>2015-11-5T6:8:17Z</time></trkpt>
<trkpt lat="46.08505" lon="7.52984"><ele></ele><time>2015-11-5T6:8:20Z</time></trkpt>
<trkpt lat="46.08495" lon="7.52992"><ele></ele><time>2015-11-5T6:8:23Z</time></trkpt>
<trkpt lat="46.08494" lon="7.52992"><ele></ele><time>2015-11-5T6:8:26Z</time></trkpt>
<trkpt lat="46.08492" lon="7.52992"><ele></ele><time>2015-11-5T6:8:29Z</time></trkpt>
<trkpt lat="46.08487" lon="7.52995"><ele></ele><time>2015-11-5T6:8:32Z</time></trkpt>
<trkpt lat="46.08486" lon="7.52996"><ele></ele><time>2015-11-5T6:8:35Z</time></trkpt>
<trkpt lat="46.08482" lon="7.52999"><ele></ele><time>2015-11-5T6:8:38Z</time></trkpt>
<trkpt lat="46.08476" lon="7.53003"><ele></ele><time>2015-11-5T6:8:41Z</time></trkpt>
<trkpt lat="46.08464" lon="7.53009"><ele></ele><time>2015-11-5T6:8:44Z</time></trkpt>
<trkpt lat="46.08449" lon="7.53023"><ele></ele><time>2015-11-5T6:8:47Z</time></trkpt>
<trkpt lat="46.0844" lon="7.53035"><ele></ele><time>2015-11-5T6:8:50Z</time></trkpt>
<trkpt lat="46.08438" lon="7.53038"><ele></ele><time>2015-11-5T6:8:53Z</time></trkpt>
<trkpt lat="46.08444" lon="7.53037"><ele></ele><time>2015-11-5T6:8:56Z</time></trkpt>
<trkpt lat="46.0845" lon="7.53032"><ele></ele><time>2015-11-5T6:8:59Z</time></trkpt>
<trkpt lat="46.0848" lon="7.53023"><ele></ele><time>2015-11-5T6:9:2Z</time></trkpt>
<trkpt lat="46.08493" lon="7.5302"><ele></ele><time>2015-11-5T6:9:5Z</time></trkpt>
<trkpt lat="46.08496" lon="7.5302"><ele></ele><time>2015-11-5T6:9:8Z</time></trkpt>
<trkpt lat="46.08497" lon="7.53019"><ele></ele><time>2015-11-5T6:9:11Z</time></trkpt>
<trkpt lat="46.08503" lon="7.53016"><ele></ele><time>2015-11-5T6:9:14Z</time></trkpt>
<trkpt lat="46.08507" lon="7.53014"><ele></ele><time>2015-11-5T6:9:17Z</time></trkpt>
<trkpt lat="46.08512" lon="7.53011"><ele></ele><time>2015-11-5T6:9:20Z</time></trkpt>
<trkpt lat="46.08525" lon="7.5301"><ele></ele><time>2015-11-5T6:9:23Z</time></trkpt>
<trkpt lat="46.08532" lon="7.53009"><ele></ele><time>2015-11-5T6:9:26Z</time></trkpt>
<trkpt lat="46.0855" lon="7.53003"><ele></ele><time>2015-11-5T6:9:29Z</time></trkpt>
<trkpt lat="46.08553" lon="7.53001"><ele></ele><time>2015-11-5T6:9:32Z</time></trkpt>
<trkpt lat="46.08556" lon="7.52998"><ele></ele><time>2015-11-5T6:9:35Z</time></trkpt>
<trkpt lat="46.08561" lon="7.52999"><ele></ele><time>2015-11-5T6:9:38Z</time></trkpt>
<trkpt lat="46.08563" lon="7.52999"><ele></ele><time>2015-11-5T6:9:41Z</time></trkpt>
<trkpt lat="46.08561" lon="7.53006"><ele></ele><time>2015-11-5T6:9:44Z</time></trkpt>
<trkpt lat="46.08557" lon="7.53009"><ele></ele><time>2015-11-5T6:9:47Z</time></trkpt>
<trkpt lat="46.08549" lon="7.53023"><ele></ele><time>2015-11-5T6:9:50Z</time></trkpt>
<trkpt lat="46.08527" lon="7.53041"><ele></ele><time>2015-11-5T6:9:53Z</time></trkpt>
<trkpt lat="46.08511" lon="7.53052"><ele></ele><time>2015-11-5T6:9:56Z</time></trkpt>
<trkpt lat="46.08504" lon="7.53058"><ele></ele><time>2015-11-5T6:9:59Z</time></trkpt>
<trkpt lat="46.08497" lon="7.53065"><ele></ele><time>2015-11-5T6:10:2Z</time></trkpt>
<trkpt lat="46.08486" lon="7.53072"><ele></ele><time>2015-11-5T6:10:5Z</time></trkpt>
<trkpt lat="46.08478" lon="7.53079"><ele></ele><time>2015-11-5T6:10:8Z</time></trkpt>
<trkpt lat="46.08477" lon="7.53081"><ele></ele><time>2015-11-5T6:10:11Z</time></trkpt>
<trkpt lat="46.08465" lon="7.53103"><ele></ele><time>2015-11-5T6:10:14Z</time></trkpt>
<trkpt lat="46.08464" lon="7.53105"><ele></ele><time>2015-11-5T6:10:17Z</time></trkpt>
<trkpt lat="46.08457" lon="7.53119"><ele></ele><time>2015-11-5T6:10:20Z</time></trkpt>
<trkpt lat="46.08449" lon="7.53125"><ele></ele><time>2015-11-5T6:10:23Z</time></trkpt>
<trkpt lat="46.08441" lon="7.53127"><ele></ele><time>2015-11-5T6:10:26Z</time></trkpt>
<trkpt lat="46.08437" lon="7.53131"><ele></ele><time>2015-11-5T6:10:29Z</time></trkpt>
<trkpt lat="46.0842" lon="7.5315"><ele></ele><time>2015-11-5T6:10:32Z</time></trkpt>
<trkpt lat="46.0841" lon="7.53158"><ele></ele><time>2015-11-5T6:10:35Z</time></trkpt>
<trkpt lat="46.08395" lon="7.53181"><ele></ele><time>2015-11-5T6:10:38Z</time></trkpt>
<trkpt lat="46.08377" lon="7.53193"><ele></ele><time>2015-11-5T6:10:41Z</time></trkpt>
<trkpt lat="46.08372" lon="7.532"><ele></ele><time>2015-11-5T6:10:44Z</time></trkpt>
<trkpt lat="46.08367" lon="7.53207"><ele></ele><time>2015-11-5T6:10:47Z</time></trkpt>
<trkpt lat="46.08359" lon="7.53218"><ele></ele><time>2015-11-5T6:10:50Z</time></trkpt>
<trkpt lat="46.08353" lon="7.53239"><ele></ele><time>2015-11-5T6:10:53Z</time></trkpt>
<trkpt lat="46.08348" lon="7.53256"><ele></ele><time>2015-11-5T6:10:56Z</time></trkpt>
<trkpt lat="46.08347" lon="7.53258"><ele></ele><time>2015-11-5T6:10:59Z</time></trkpt>
<trkpt lat="46.08348" lon="7.53257"><ele></ele><time>2015-11-5T6:11:2Z</time></trkpt>
<trkpt lat="46.08353" lon="7.53235"><ele></ele><time>2015-11-5T6:11:5Z</time></trkpt>
<trkpt lat="46.08357" lon="7.53215"><ele></ele><time>2015-11-5T6:11:8Z</time></trkpt>
<trkpt lat="46.08367" lon="7.53199"><ele></ele><time>2015-11-5T6:11:11Z</time></trkpt>
<trkpt lat="46.08374" lon="7.53189"><ele></ele><time>2015-11-5T6:11:14Z</time></trkpt>
<trkpt lat="46.08393" lon="7.53176"><ele></ele><time>2015-11-5T6:11:17Z</time></trkpt>
<trkpt lat="46.08397" lon="7.53175"><ele></ele><time>2015-11-5T6:11:20Z</time></trkpt>
<trkpt lat="46.08405" lon="7.53168"><ele></ele><time>2015-11-5T6:11:23Z</time></trkpt>
<trkpt lat="46.08423" lon="7.53158"><ele></ele><time>2015-11-5T6:11:26Z</time></trkpt>
<trkpt lat="46.08434" lon="7.53152"><ele></ele><time>2015-11-5T6:11:29Z</time></trkpt>
<trkpt lat="46.0844" lon="7.53148"><ele></ele><time>2015-11-5T6:11:32Z</time></trkpt>
<trkpt lat="46.08451" lon="7.5314"><ele></ele><time>2015-11-5T6:11:35Z</time></trkpt>
<trkpt lat="46.08458" lon="7.53138"><ele></ele><time>2015-11-5T6:11:38Z</time></trkpt>
<trkpt lat="46.08468" lon="7.53135"><ele></ele><time>2015-11-5T6:11:41Z</time></trkpt>
<trkpt lat="46.08473" lon="7.53134"><ele></ele><time>2015-11-5T6:11:44Z</time></trkpt>
<trkpt lat="46.08475" lon="7.53134"><ele></ele><time>2015-11-5T6:11:47Z</time></trkpt>
<trkpt lat="46.08476" lon="7.53134"><ele></ele><time>2015-11-5T6:11:50Z</time></trkpt>
<trkpt lat="46.08478" lon="7.53132"><ele></ele><time>2015-11-5T6:11:53Z</time></trkpt>
<trkpt lat="46.08481" lon="7.5313"><ele></ele><time>2015-11-5T6:11:56Z</time></trkpt>
<trkpt lat="46.08489" lon="7.53125"><ele></ele><time>2015-11-5T6:11:59Z</time></trkpt>
<trkpt lat="46.08491" lon="7.53124"><ele></ele><time>2015-11-5T6:12:2Z</time></trkpt>
<trkpt lat="46.08504" lon="7.53122"><ele></ele><time>2015-11-5T6:12:5Z</time></trkpt>
<trkpt lat="46.08517" lon="7.53115"><ele></ele><time>2015-11-5T6:12:8Z</time></trkpt>
<trkpt lat="46.08525" lon="7.53113"><ele></ele><time>2015-11-5T6:12:11Z</time></trkpt>
<trkpt lat="46.08532" lon="7.53111"><ele></ele><time>2015-11-5T6:12:14Z</time></trkpt>
<trkpt lat="46.08533" lon="7.53111"><ele></ele><time>2015-11-5T6:12:17Z</time></trkpt>
<trkpt lat="46.08551" lon="7.53105"><ele></ele><time>2015-11-5T6:12:20Z</time></trkpt>
<trkpt lat="46.0856" lon="7.53102"><ele></ele><time>2015-11-5T6:12:23Z</time></trkpt>
<trkpt lat="46.08571" lon="7.53101"><ele></ele><time>2015-11-5T6:12:26Z</time></trkpt>
<trkpt lat="46.08589" lon="7.53102"><ele></ele><time>2015-11-5T6:12:29Z</time></trkpt>
<trkpt lat="46.08593" lon="7.53102"><ele></ele><time>2015-11-5T6:12:32Z</time></trkpt>
<trkpt lat="46.08611" lon="7.53102"><ele></ele><time>2015-11-5T6:12:35Z</time></trkpt>
<trkpt lat="46.08616" lon="7.53101"><ele></ele><time>2015-11-5T6:12:38Z</time></trkpt>
<trkpt lat="46.08628" lon="7.53099"><ele></ele><time>2015-11-5T6:12:41Z</time></trkpt>
<trkpt lat="46.08638" lon="7.531"><ele></ele><time>2015-11-5T6:12:44Z</time></trkpt>
<trkpt lat="46.08644" lon="7.53101"><ele></ele><time>2015-11-5T6:12:47Z</time></trkpt>
<trkpt lat="46.08663" lon="7.53095"><ele></ele><time>2015-11-5T6:12:50Z</time></trkpt>
<trkpt lat="46.08678" lon="7.53097"><ele></ele><time>2015-11-5T6:12:53Z</time></trkpt>
<trkpt lat="46.08682" lon="7.53097"><ele></ele><time>2015-11-5T6:12:56Z</time></trkpt>
<trkpt lat="46.08686" lon="7.53095"><ele></ele><time>2015-11-5T6:12:59Z</time></trkpt>
<trkpt lat="46.08704" lon="7.53091"><ele></ele><time>2015-11-5T6:13:2Z</time></trkpt>
<trkpt lat="46.08711" lon="7.53089"><ele></ele><time>2015-11-5T6:13:5Z</time></trkpt>
<trkpt lat="46.08724" lon="7.53082"><ele></ele><time>2015-11-5T6:13:8Z</time></trkpt>
<trkpt lat="46.08733" lon="7.53076"><ele></ele><time>2015-11-5T6:13:11Z</time></trkpt>
<trkpt lat="46.08749" lon="7.5307"><ele></ele><time>2015-11-5T6:13:14Z</time></trkpt>
<trkpt lat="46.08767" lon="7.53067"><ele></ele><time>2015-11-5T6:13:17Z</time></trkpt>
<trkpt lat="46.08786" lon="7.5306"><ele></ele><time>2015-11-5T6:13:20Z</time></trkpt>
<trkpt lat="46.08789" lon="7.53057"><ele></ele><time>2015-11-5T6:13:23Z</time></trkpt>
<trkpt lat="46.08804" lon="7.53052"><ele></ele><time>2015-11-5T6:13:26Z</time></trkpt>
<trkpt lat="46.08822" lon="7.53054"><ele></ele><time>2015-11-5T6:13:29Z</time></trkpt>
<trkpt lat="46.0884" lon="7.5306"><ele></ele><time>2015-11-5T6:13:32Z</time></trkpt>
<trkpt lat="46.08849" lon="7.53061"><ele></ele><time>2015-11-5T6:13:35Z</time></trkpt>
<trkpt lat="46.08868" lon="7.53061"><ele></ele><time>2015-11-5T6:13:38Z</time></trkpt>
<trkpt lat="46.08871" lon="7.5306"><ele></ele><time>2015-11-5T6:13:41Z</time></trkpt>
<trkpt lat="46.08883" lon="7.53058"><ele></ele><time>2015-11-5T6:13:44Z</time></trkpt>
<trkpt lat="46.0889" lon="7.53059"><ele></ele><time>2015-11-5T6:13:47Z</time></trkpt>
<trkpt lat="46.08906" lon="7.53068"><ele></ele><time>2015-11-5T6:13:50Z</time></trkpt>
<trkpt lat="46.08925" lon="7.53072"><ele></ele><time>2015-11-5T6:13:53Z</time></trkpt>
<trkpt lat="46.08938" lon="7.53073"><ele></ele><time>2015-11-5T6:13:56Z</time></trkpt>
<trkpt lat="46.0894" lon="7.53085"><ele></ele><time>2015-11-5T6:13:59Z</time></trkpt>
<trkpt lat="46.08932" lon="7.5309"><ele></ele><time>2015-11-5T6:14:2Z</time></trkpt>
<trkpt lat="46.0893" lon="7.53091"><ele></ele><time>2015-11-5T6:14:5Z</time></trkpt>
<trkpt lat="46.08929" lon="7.53091"><ele></ele><time>2015-11-5T6:14:8Z</time></trkpt>
<trkpt lat="46.08919" lon="7.53099"><ele></ele><time>2015-11-5T6:14:11Z</time></trkpt>
<trkpt lat="46.08913" lon="7.53104"><ele></ele><time>2015-11-5T6:14:14Z</time></trkpt>
<trkpt lat="46.08907" lon="7.53111"><ele></ele><time>2015-11-5T6:14:17Z</time></trkpt>
<trkpt lat="46.08894" lon="7.5312"><ele></ele><time>2015-11-5T6:14:20Z</time></trkpt>
<trkpt lat="46.08892" lon="7.53121"><ele></ele><time>2015-11-5T6:14:23Z</time></trkpt>
<trkpt lat="46.08874" lon="7.53127"><ele></ele><time>2015-11-5T6:14:26Z</time></trkpt>
<trkpt lat="46.08865" lon="7.5313"><ele></ele><time>2015-11-5T6:14:29Z</time></trkpt>
<trkpt lat="46.0885" lon="7.53146"><ele></ele><time>2015-11-5T6:14:32Z</time></trkpt>
<trkpt lat="46.08839" lon="7.53161"><ele></ele><time>2015-11-5T6:14:35Z</time></trkpt>
<trkpt lat="46.08821" lon="7.5317"><ele></ele><time>2015-11-5T6:14:38Z</time></trkpt>
<trkpt lat="46.08817" lon="7.53178"><ele></ele><time>2015-11-5T6:14:41Z</time></trkpt>
<trkpt lat="46.08835" lon="7.53172"><ele></ele><time>2015-11-5T6:14:44Z</time></trkpt>
<trkpt lat="46.08848" lon="7.5317"><ele></ele><time>2015-11-5T6:14:47Z</time></trkpt>
<trkpt lat="46.08863" lon="7.53176"><ele></ele><time>2015-11-5T6:14:50Z</time></trkpt>
<trkpt lat="46.08864" lon="7.53177"><ele></ele><time>2015-11-5T6:14:53Z</time></trkpt>
<trkpt lat="46.08882" lon="7.53185"><ele></ele><time>2015-11-5T6:14:56Z</time></trkpt>
<trkpt lat="46.08899" lon="7.53186"><ele></ele><time>2015-11-5T6:14:59Z</time></trkpt>
<trkpt lat="46.08917" lon="7.53179"><ele></ele><time>2015-11-5T6:15:2Z</time></trkpt>
<trkpt lat="46.08936" lon="7.5318"><ele></ele><time>2015-11-5T6:15:5Z</time></trkpt>
<trkpt lat="46.08939" lon="7.53185"><ele></ele><time>2015-11-5T6:15:8Z</time></trkpt>
<trkpt lat="46.08945" lon="7.53204"><ele></ele><time>2015-11-5T6:15:11Z</time></trkpt>
<trkpt lat="46.08952" lon="7.53208"><ele></ele><time>2015-11-5T6:15:14Z</time></trkpt>
<trkpt lat="46.08964" lon="7.53217"><ele></ele><time>2015-11-5T6:15:17Z</time></trkpt>
<trkpt lat="46.08979" lon="7.53219"><ele></ele><time>2015-11-5T6:15:20Z</time></trkpt>
<trkpt lat="46.08981" lon="7.53219"><ele></ele><time>2015-11-5T6:15:23Z</time></trkpt>
<trkpt lat="46.08982" lon="7.53218"><ele></ele><time>2015-11-5T6:15:26Z</time></trkpt>
<trkpt lat="46.08984" lon="7.53217"><ele></ele><time>2015-11-5T6:15:29Z</time></trkpt>
<trkpt lat="46.08991" lon="7.53213"><ele></ele><time>2015-11-5T6:15:32Z</time></trkpt>
<trkpt lat="46.09" lon="7.5321"><ele></ele><time>2015-11-5T6:15:35Z</time></trkpt>
<trkpt lat="46.09019" lon="7.53209"><ele></ele><time>2015-11-5T6:15:38Z</time></trkpt>
<trkpt lat="46.09034" lon="7.53212"><ele></ele><time>2015-11-5T6:15:41Z</time></trkpt>
<trkpt lat="46.09038" lon="7.53212"><ele></ele><time>2015-11-5T6:15:44Z</time></trkpt>
<trkpt lat="46.09051" lon="7.53213"><ele></ele><time>2015-11-5T6:15:47Z</time></trkpt>
<trkpt lat="46.09056" lon="7.53213"><ele></ele><time>2015-11-5T6:15:50Z</time></trkpt>
<trkpt lat="46.09066" lon="7.53214"><ele></ele><time>2015-11-5T6:15:53Z</time></trkpt>
<trkpt lat="46.09085" lon="7.53215"><ele></ele><time>2015-11-5T6:15:56Z</time></trkpt>
<trkpt lat="46.09105" lon="7.5322"><ele></ele><time>2015-11-5T6:15:59Z</time></trkpt>
<trkpt lat="46.0911" lon="7.53221"><ele></ele><time>2015-11-5T6:16:2Z</time></trkpt>
<trkpt lat="46.09112" lon="7.5322"><ele></ele><time>2015-11-5T6:16:5Z</time></trkpt>
<trkpt lat="46.09119" lon="7.53216"><ele></ele><time>2015-11-5T6:16:8Z</time></trkpt>
<trkpt lat="46.09137" lon="7.53214"><ele></ele><time>2015-11-5T6:16:11Z</time></trkpt>
<trkpt lat="46.09146" lon="7.53214"><ele></ele><time>2015-11-5T6:16:14Z</time></trkpt>
<trkpt lat="46.09165" lon="7.53208"><ele></ele><time>2015-11-5T6:16:17Z</time></trkpt>
<trkpt lat="46.09168" lon="7.53208"><ele></ele><time>2015-11-5T6:16:20Z</time></trkpt>
<trkpt lat="46.09186" lon="7.53207"><ele></ele><time>2015-11-5T6:16:23Z</time></trkpt>
<trkpt lat="46.09191" lon="7.53213"><ele></ele><time>2015-11-5T6:16:26Z</time></trkpt>
<trkpt lat="46.09203" lon="7.53231"><ele></ele><time>2015-11-5T6:16:29Z</time></trkpt>
<trkpt lat="46.0921" lon="7.5323"><ele></ele><time>2015-11-5T6:16:32Z</time></trkpt>
<trkpt lat="46.09213" lon="7.53229"><ele></ele><time>2015-11-5T6:16:35Z</time></trkpt>
<trkpt lat="46.0923" lon="7.53218"><ele></ele><time>2015-11-5T6:16:38Z</time></trkpt>
<trkpt lat="46.09247" lon="7.53208"><ele></ele><time>2015-11-5T6:16:41Z</time></trkpt>
<trkpt lat="46.09265" lon="7.53204"><ele></ele><time>2015-11-5T6:16:44Z</time></trkpt>
<trkpt lat="46.09273" lon="7.53202"><ele></ele><time>2015-11-5T6:16:47Z</time></trkpt>
<trkpt lat="46.09278" lon="7.53201"><ele></ele><time>2015-11-5T6:16:50Z</time></trkpt>
<trkpt lat="46.09288" lon="7.53197"><ele></ele><time>2015-11-5T6:16:53Z</time></trkpt>
<trkpt lat="46.09301" lon="7.53187"><ele></ele><time>2015-11-5T6:16:56Z</time></trkpt>
<trkpt lat="46.0932" lon="7.53188"><ele></ele><time>2015-11-5T6:16:59Z</time></trkpt>
<trkpt lat="46.09339" lon="7.53188"><ele></ele><time>2015-11-5T6:17:2Z</time></trkpt>
<trkpt lat="46.09352" lon="7.53187"><ele></ele><time>2015-11-5T6:17:5Z</time></trkpt>
<trkpt lat="46.09372" lon="7.53187"><ele></ele><time>2015-11-5T6:17:8Z</time></trkpt>
<trkpt lat="46.09379" lon="7.53187"><ele></ele><time>2015-11-5T6:17:11Z</time></trkpt>
<trkpt lat="46.09397" lon="7.53195"><ele></ele><time>2015-11-5T6:17:14Z</time></trkpt>
<trkpt lat="46.09415" lon="7.53199"><ele></ele><time>2015-11-5T6:17:17Z</time></trkpt>
<trkpt lat="46.0942" lon="7.53201"><ele></ele><time>2015-11-5T6:17:20Z</time></trkpt>
<trkpt lat="46.09438" lon="7.53204"><ele></ele><time>2015-11-5T6:17:23Z</time></trkpt>
<trkpt lat="46.09455" lon="7.53213"><ele></ele><time>2015-11-5T6:17:26Z</time></trkpt>
<trkpt lat="46.09465" lon="7.5322"><ele></ele><time>2015-11-5T6:17:29Z</time></trkpt>
<trkpt lat="46.09478" lon="7.53224"><ele></ele><time>2015-11-5T6:17:32Z</time></trkpt>
<trkpt lat="46.09485" lon="7.53222"><ele></ele><time>2015-11-5T6:17:35Z</time></trkpt>
<trkpt lat="46.09492" lon="7.53221"><ele></ele><time>2015-11-5T6:17:38Z</time></trkpt>
<trkpt lat="46.09493" lon="7.5322"><ele></ele><time>2015-11-5T6:17:41Z</time></trkpt>
<trkpt lat="46.09496" lon="7.53217"><ele></ele><time>2015-11-5T6:17:44Z</time></trkpt>
<trkpt lat="46.0951" lon="7.53219"><ele></ele><time>2015-11-5T6:17:47Z</time></trkpt>
<trkpt lat="46.09527" lon="7.53229"><ele></ele><time>2015-11-5T6:17:50Z</time></trkpt>
<trkpt lat="46.09536" lon="7.53231"><ele></ele><time>2015-11-5T6:17:53Z</time></trkpt>
<trkpt lat="46.0955" lon="7.53248"><ele></ele><time>2015-11-5T6:17:56Z</time></trkpt>
<trkpt lat="46.09555" lon="7.53249"><ele></ele><time>2015-11-5T6:17:59Z</time></trkpt>
<trkpt lat="46.09573" lon="7.53254"><ele></ele><time>2015-11-5T6:18:2Z</time></trkpt>
<trkpt lat="46.09592" lon="7.53261"><ele></ele><time>2015-11-5T6:18:5Z</time></trkpt>
<trkpt lat="46.09594" lon="7.53263"><ele></ele><time>2015-11-5T6:18:8Z</time></trkpt>
<trkpt lat="46.09602" lon="7.53265"><ele></ele><time>2015-11-5T6:18:11Z</time></trkpt>
<trkpt lat="46.0962" lon="7.53267"><ele></ele><time>2015-11-5T6:18:14Z</time></trkpt>
<trkpt lat="46.09638" lon="7.53266"><ele></ele><time>2015-11-5T6:18:17Z</time></trkpt>
<trkpt lat="46.09645" lon="7.53266"><ele></ele><time>2015-11-5T6:18:20Z</time></trkpt>
<trkpt lat="46.09654" lon="7.53267"><ele></ele><time>2015-11-5T6:18:23Z</time></trkpt>
<trkpt lat="46.09673" lon="7.53264"><ele></ele><time>2015-11-5T6:18:26Z</time></trkpt>
<trkpt lat="46.09691" lon="7.53257"><ele></ele><time>2015-11-5T6:18:29Z</time></trkpt>
<trkpt lat="46.09697" lon="7.53257"><ele></ele><time>2015-11-5T6:18:32Z</time></trkpt>
<trkpt lat="46.09703" lon="7.53258"><ele></ele><time>2015-11-5T6:18:35Z</time></trkpt>
<trkpt lat="46.09704" lon="7.53257"><ele></ele><time>2015-11-5T6:18:38Z</time></trkpt>
<trkpt lat="46.0971" lon="7.53258"><ele></ele><time>2015-11-5T6:18:41Z</time></trkpt>
<trkpt lat="46.09713" lon="7.53257"><ele></ele><time>2015-11-5T6:18:44Z</time></trkpt>
<trkpt lat="46.09726" lon="7.53257"><ele></ele><time>2015-11-5T6:18:47Z</time></trkpt>
<trkpt lat="46.09739" lon="7.53258"><ele></ele><time>2015-11-5T6:18:50Z</time></trkpt>
<trkpt lat="46.09758" lon="7.53262"><ele></ele><time>2015-11-5T6:18:53Z</time></trkpt>
<trkpt lat="46.09765" lon="7.53265"><ele></ele><time>2015-11-5T6:18:56Z</time></trkpt>
<trkpt lat="46.09784" lon="7.53269"><ele></ele><time>2015-11-5T6:18:59Z</time></trkpt>
<trkpt lat="46.0979" lon="7.53268"><ele></ele><time>2015-11-5T6:19:2Z</time></trkpt>
<trkpt lat="46.09808" lon="7.53273"><ele></ele><time>2015-11-5T6:19:5Z</time></trkpt>
<trkpt lat="46.09826" lon="7.53265"><ele></ele><time>2015-11-5T6:19:8Z</time></trkpt>
<trkpt lat="46.09843" lon="7.5326"><ele></ele><time>2015-11-5T6:19:11Z</time></trkpt>
<trkpt lat="46.09862" lon="7.53262"><ele></ele><time>2015-11-5T6:19:14Z</time></trkpt>
<trkpt lat="46.09876" lon="7.53257"><ele></ele><time>2015-11-5T6:19:17Z</time></trkpt>
<trkpt lat="46.09895" lon="7.5325"><ele></ele><time>2015-11-5T6:19:20Z</time></trkpt>
<trkpt lat="46.09912" lon="7.53243"><ele></ele><time>2015-11-5T6:19:23Z</time></trkpt>
<trkpt lat="46.09921" lon="7.53243"><ele></ele><time>2015-11-5T6:19:26Z</time></trkpt>
<trkpt lat="46.09929" lon="7.53242"><ele></ele><time>2015-11-5T6:19:29Z</time></trkpt>
<trkpt lat="46.0994" lon="7.53242"><ele></ele><time>2015-11-5T6:19:32Z</time></trkpt>
<trkpt lat="46.09958" lon="7.53246"><ele></ele><time>2015-11-5T6:19:35Z</time></trkpt>
<trkpt lat="46.09976" lon="7.53248"><ele></ele><time>2015-11-5T6:19:38Z</time></trkpt>
<trkpt lat="46.09992" lon="7.53243"><ele></ele><time>2015-11-5T6:19:41Z</time></trkpt>
<trkpt lat="46.10009" lon="7.53239"><ele></ele><time>2015-11-5T6:19:44Z</time></trkpt>
<trkpt lat="46.10027" lon="7.53237"><ele></ele><time>2015-11-5T6:19:47Z</time></trkpt>
<trkpt lat="46.10046" lon="7.53235"><ele></ele><time>2015-11-5T6:19:50Z</time></trkpt>
<trkpt lat="46.10062" lon="7.53231"><ele></ele><time>2015-11-5T6:19:53Z</time></trkpt>
<trkpt lat="46.1008" lon="7.53231"><ele></ele><time>2015-11-5T6:19:56Z</time></trkpt>
<trkpt lat="46.10098" lon="7.53238"><ele></ele><time>2015-11-5T6:19:59Z</time></trkpt>
<trkpt lat="46.10111" lon="7.53245"><ele></ele><time>2015-11-5T6:20:2Z</time></trkpt>
<trkpt lat="46.1013" lon="7.53244"><ele></ele><time>2015-11-5T6:20:5Z</time></trkpt>
<trkpt lat="46.10148" lon="7.53254"><ele></ele><time>2015-11-5T6:20:8Z</time></trkpt>
<trkpt lat="46.10156" lon="7.53254"><ele></ele><time>2015-11-5T6:20:11Z</time></trkpt>
<trkpt lat="46.10174" lon="7.5325"><ele></ele><time>2015-11-5T6:20:14Z</time></trkpt>
<trkpt lat="46.10192" lon="7.53245"><ele></ele><time>2015-11-5T6:20:17Z</time></trkpt>
<trkpt lat="46.10207" lon="7.53247"><ele></ele><time>2015-11-5T6:20:20Z</time></trkpt>
<trkpt lat="46.10201" lon="7.53254"><ele></ele><time>2015-11-5T6:20:23Z</time></trkpt>
<trkpt lat="46.10192" lon="7.53257"><ele></ele><time>2015-11-5T6:20:26Z</time></trkpt>
<trkpt lat="46.1019" lon="7.53256"><ele></ele><time>2015-11-5T6:20:29Z</time></trkpt>
<trkpt lat="46.10191" lon="7.53256"><ele></ele><time>2015-11-5T6:20:32Z</time></trkpt>
<trkpt lat="46.1019" lon="7.53254"><ele></ele><time>2015-11-5T6:20:35Z</time></trkpt>
<trkpt lat="46.1019" lon="7.53254"><ele></ele><time>2015-11-5T6:20:38Z</time></trkpt>
<trkpt lat="46.1019" lon="7.53253"><ele></ele><time>2015-11-5T6:20:41Z</time></trkpt>
<trkpt lat="46.10191" lon="7.53254"><ele></ele><time>2015-11-5T6:20:44Z</time></trkpt>
<trkpt lat="46.10191" lon="7.53253"><ele></ele><time>2015-11-5T6:20:47Z</time></trkpt>
<trkpt lat="46.1019" lon="7.53254"><ele></ele><time>2015-11-5T6:20:50Z</time></trkpt>
<trkpt lat="46.10192" lon="7.53255"><ele></ele><time>2015-11-5T6:20:53Z</time></trkpt>
<trkpt lat="46.10191" lon="7.53256"><ele></ele><time>2015-11-5T6:20:56Z</time></trkpt>
<trkpt lat="46.10203" lon="7.53246"><ele></ele><time>2015-11-5T6:20:59Z</time></trkpt>
<trkpt lat="46.1019" lon="7.53243"><ele></ele><time>2015-11-5T6:21:2Z</time></trkpt>
<trkpt lat="46.10182" lon="7.53247"><ele></ele><time>2015-11-5T6:21:5Z</time></trkpt>
<trkpt lat="46.10181" lon="7.53247"><ele></ele><time>2015-11-5T6:21:8Z</time></trkpt>
<trkpt lat="46.10183" lon="7.53249"><ele></ele><time>2015-11-5T6:21:11Z</time></trkpt>
<trkpt lat="46.10185" lon="7.53246"><ele></ele><time>2015-11-5T6:21:14Z</time></trkpt>
<trkpt lat="46.10192" lon="7.53247"><ele></ele><time>2015-11-5T6:21:17Z</time></trkpt>
<trkpt lat="46.10192" lon="7.53247"><ele></ele><time>2015-11-5T6:21:20Z</time></trkpt>
<trkpt lat="46.10193" lon="7.53247"><ele></ele><time>2015-11-5T6:21:23Z</time></trkpt>
<trkpt lat="46.10194" lon="7.53247"><ele></ele><time>2015-11-5T6:21:26Z</time></trkpt>
<trkpt lat="46.10194" lon="7.53247"><ele></ele><time>2015-11-5T6:21:29Z</time></trkpt>
<trkpt lat="46.10195" lon="7.53246"><ele></ele><time>2015-11-5T6:21:32Z</time></trkpt>
<trkpt lat="46.10196" lon="7.53246"><ele></ele><time>2015-11-5T6:21:35Z</time></trkpt>
<trkpt lat="46.10196" lon="7.53246"><ele></ele><time>2015-11-5T6:21:38Z</time></trkpt>
<trkpt lat="46.10196" lon="7.53246"><ele></ele><time>2015-11-5T6:21:41Z</time></trkpt>
<trkpt lat="46.10196" lon="7.53245"><ele></ele><time>2015-11-5T6:21:44Z</time></trkpt>
<trkpt lat="46.10196" lon="7.53245"><ele></ele><time>2015-11-5T6:21:47Z</time></trkpt>
<trkpt lat="46.10195" lon="7.53245"><ele></ele><time>2015-11-5T6:21:50Z</time></trkpt>
<trkpt lat="46.10192" lon="7.53244"><ele></ele><time>2015-11-5T6:21:53Z</time></trkpt>
<trkpt lat="46.10193" lon="7.53246"><ele></ele><time>2015-11-5T6:21:56Z</time></trkpt>
<trkpt lat="46.10193" lon="7.53247"><ele></ele><time>2015-11-5T6:21:59Z</time></trkpt>
<trkpt lat="46.10193" lon="7.53247"><ele></ele><time>2015-11-5T6:22:2Z</time></trkpt>
<trkpt lat="46.10193" lon="7.53247"><ele></ele><time>2015-11-5T6:22:5Z</time></trkpt>
<trkpt lat="46.10193" lon="7.53247"><ele></ele><time>2015-11-5T6:22:8Z</time></trkpt>
<trkpt lat="46.10193" lon="7.53249"><ele></ele><time>2015-11-5T6:22:11Z</time></trkpt>
<trkpt lat="46.10193" lon="7.53248"><ele></ele><time>2015-11-5T6:22:14Z</time></trkpt>
<trkpt lat="46.10192" lon="7.53249"><ele></ele><time>2015-11-5T6:22:17Z</time></trkpt>
<trkpt lat="46.1019" lon="7.5325"><ele></ele><time>2015-11-5T6:22:20Z</time></trkpt>
<trkpt lat="46.10182" lon="7.53246"><ele></ele><time>2015-11-5T6:22:23Z</time></trkpt>
<trkpt lat="46.10184" lon="7.53242"><ele></ele><time>2015-11-5T6:22:26Z</time></trkpt>
<trkpt lat="46.10183" lon="7.53242"><ele></ele><time>2015-11-5T6:22:29Z</time></trkpt>
<trkpt lat="46.10182" lon="7.53246"><ele></ele><time>2015-11-5T6:22:32Z</time></trkpt>
<trkpt lat="46.10182" lon="7.53245"><ele></ele><time>2015-11-5T6:22:35Z</time></trkpt>
<trkpt lat="46.10182" lon="7.53248"><ele></ele><time>2015-11-5T6:22:38Z</time></trkpt>
<trkpt lat="46.10181" lon="7.53247"><ele></ele><time>2015-11-5T6:22:41Z</time></trkpt>
<trkpt lat="46.10187" lon="7.53245"><ele></ele><time>2015-11-5T6:22:44Z</time></trkpt>
<trkpt lat="46.10182" lon="7.53247"><ele></ele><time>2015-11-5T6:22:47Z</time></trkpt>
<trkpt lat="46.10182" lon="7.53247"><ele></ele><time>2015-11-5T6:22:50Z</time></trkpt>
<trkpt lat="46.10182" lon="7.53249"><ele></ele><time>2015-11-5T6:22:53Z</time></trkpt>
<trkpt lat="46.10183" lon="7.53247"><ele></ele><time>2015-11-5T6:22:56Z</time></trkpt>
<trkpt lat="46.10187" lon="7.53246"><ele></ele><time>2015-11-5T6:22:59Z</time></trkpt>
<trkpt lat="46.10166" lon="7.53251"><ele></ele><time>2015-11-5T6:23:2Z</time></trkpt>
<trkpt lat="46.10151" lon="7.53256"><ele></ele><time>2015-11-5T6:23:5Z</time></trkpt>
<trkpt lat="46.10148" lon="7.53257"><ele></ele><time>2015-11-5T6:23:8Z</time></trkpt>
<trkpt lat="46.10139" lon="7.53249"><ele></ele><time>2015-11-5T6:23:11Z</time></trkpt>
<trkpt lat="46.1014" lon="7.5325"><ele></ele><time>2015-11-5T6:23:14Z</time></trkpt>
<trkpt lat="46.10158" lon="7.53252"><ele></ele><time>2015-11-5T6:23:17Z</time></trkpt>
<trkpt lat="46.10177" lon="7.5325"><ele></ele><time>2015-11-5T6:23:20Z</time></trkpt>
<trkpt lat="46.10186" lon="7.53248"><ele></ele><time>2015-11-5T6:23:23Z</time></trkpt>
<trkpt lat="46.10182" lon="7.53251"><ele></ele><time>2015-11-5T6:23:26Z</time></trkpt>
<trkpt lat="46.10182" lon="7.5325"><ele></ele><time>2015-11-5T6:23:29Z</time></trkpt>
<trkpt lat="46.10182" lon="7.5325"><ele></ele><time>2015-11-5T6:23:32Z</time></trkpt>
<trkpt lat="46.10182" lon="7.53253"><ele></ele><time>2015-11-5T6:23:35Z</time></trkpt>
<trkpt lat="46.10182" lon="7.53252"><ele></ele><time>2015-11-5T6:23:38Z</time></trkpt>
<trkpt lat="46.10182" lon="7.5325"><ele></ele><time>2015-11-5T6:23:41Z</time></trkpt>
<trkpt lat="46.10181" lon="7.53248"><ele></ele><time>2015-11-5T6:23:44Z</time></trkpt>
<trkpt lat="46.10182" lon="7.53247"><ele></ele><time>2015-11-5T6:23:47Z</time></trkpt>
<trkpt lat="46.10184" lon="7.53245"><ele></ele><time>2015-11-5T6:23:50Z</time></trkpt>
<trkpt lat="46.1019" lon="7.53243"><ele></ele><time>2015-11-5T6:23:53Z</time></trkpt>
<trkpt lat="46.10192" lon="7.53242"><ele></ele><time>2015-11-5T6:23:56Z</time></trkpt>
<trkpt lat="46.10192" lon="7.53242"><ele></ele><time>2015-11-5T6:23:59Z</time></trkpt>
<trkpt lat="46.10196" lon="7.53239"><ele></ele><time>2015-11-5T6:24:2Z</time></trkpt>
<trkpt lat="46.10197" lon="7.53239"><ele></ele><time>2015-11-5T6:24:5Z</time></trkpt>
<trkpt lat="46.10204" lon="7.5324"><ele></ele><time>2015-11-5T6:24:8Z</time></trkpt>
<trkpt lat="46.10193" lon="7.53255"><ele></ele><time>2015-11-5T6:24:11Z</time></trkpt>
<trkpt lat="46.10187" lon="7.53262"><ele></ele><time>2015-11-5T6:24:14Z</time></trkpt>
<trkpt lat="46.10179" lon="7.53278"><ele></ele><time>2015-11-5T6:24:17Z</time></trkpt>
<trkpt lat="46.10164" lon="7.53294"><ele></ele><time>2015-11-5T6:24:20Z</time></trkpt>
<trkpt lat="46.10159" lon="7.53301"><ele></ele><time>2015-11-5T6:24:23Z</time></trkpt>
<trkpt lat="46.10155" lon="7.5331"><ele></ele><time>2015-11-5T6:24:26Z</time></trkpt>
<trkpt lat="46.10147" lon="7.53328"><ele></ele><time>2015-11-5T6:24:29Z</time></trkpt>
<trkpt lat="46.10146" lon="7.53329"><ele></ele><time>2015-11-5T6:24:32Z</time></trkpt>
<trkpt lat="46.10143" lon="7.53333"><ele></ele><time>2015-11-5T6:24:35Z</time></trkpt>
<trkpt lat="46.10132" lon="7.53355"><ele></ele><time>2015-11-5T6:24:38Z</time></trkpt>
<trkpt lat="46.10127" lon="7.53361"><ele></ele><time>2015-11-5T6:24:41Z</time></trkpt>
<trkpt lat="46.10117" lon="7.53367"><ele></ele><time>2015-11-5T6:24:44Z</time></trkpt>
<trkpt lat="46.10116" lon="7.53368"><ele></ele><time>2015-11-5T6:24:47Z</time></trkpt>
<trkpt lat="46.1011" lon="7.53377"><ele></ele><time>2015-11-5T6:24:50Z</time></trkpt>
<trkpt lat="46.10107" lon="7.53389"><ele></ele><time>2015-11-5T6:24:53Z</time></trkpt>
<trkpt lat="46.10104" lon="7.53404"><ele></ele><time>2015-11-5T6:24:56Z</time></trkpt>
<trkpt lat="46.10097" lon="7.53416"><ele></ele><time>2015-11-5T6:24:59Z</time></trkpt>
<trkpt lat="46.10094" lon="7.53419"><ele></ele><time>2015-11-5T6:25:2Z</time></trkpt>
<trkpt lat="46.10086" lon="7.53423"><ele></ele><time>2015-11-5T6:25:5Z</time></trkpt>
<trkpt lat="46.10078" lon="7.53427"><ele></ele><time>2015-11-5T6:25:8Z</time></trkpt>
<trkpt lat="46.10069" lon="7.5343"><ele></ele><time>2015-11-5T6:25:11Z</time></trkpt>
<trkpt lat="46.10063" lon="7.53432"><ele></ele><time>2015-11-5T6:25:14Z</time></trkpt>
<trkpt lat="46.10048" lon="7.53439"><ele></ele><time>2015-11-5T6:25:17Z</time></trkpt>
<trkpt lat="46.10043" lon="7.53443"><ele></ele><time>2015-11-5T6:25:20Z</time></trkpt>
<trkpt lat="46.10031" lon="7.5345"><ele></ele><time>2015-11-5T6:25:23Z</time></trkpt>
<trkpt lat="46.10029" lon="7.53451"><ele></ele><time>2015-11-5T6:25:26Z</time></trkpt>
<trkpt lat="46.10019" lon="7.53457"><ele></ele><time>2015-11-5T6:25:29Z</time></trkpt>
<trkpt lat="46.10001" lon="7.53463"><ele></ele><time>2015-11-5T6:25:32Z</time></trkpt>
<trkpt lat="46.1" lon="7.53464"><ele></ele><time>2015-11-5T6:25:35Z</time></trkpt>
<trkpt lat="46.09986" lon="7.53467"><ele></ele><time>2015-11-5T6:25:38Z</time></trkpt>
<trkpt lat="46.09984" lon="7.53469"><ele></ele><time>2015-11-5T6:25:41Z</time></trkpt>
<trkpt lat="46.0998" lon="7.53473"><ele></ele><time>2015-11-5T6:25:44Z</time></trkpt>
<trkpt lat="46.09977" lon="7.53476"><ele></ele><time>2015-11-5T6:25:47Z</time></trkpt>
<trkpt lat="46.09962" lon="7.53485"><ele></ele><time>2015-11-5T6:25:50Z</time></trkpt>
<trkpt lat="46.09961" lon="7.53486"><ele></ele><time>2015-11-5T6:25:53Z</time></trkpt>
<trkpt lat="46.09958" lon="7.53487"><ele></ele><time>2015-11-5T6:25:56Z</time></trkpt>
<trkpt lat="46.09953" lon="7.53491"><ele></ele><time>2015-11-5T6:25:59Z</time></trkpt>
<trkpt lat="46.09949" lon="7.53494"><ele></ele><time>2015-11-5T6:26:2Z</time></trkpt>
<trkpt lat="46.09942" lon="7.535"><ele></ele><time>2015-11-5T6:26:5Z</time></trkpt>
<trkpt lat="46.09927" lon="7.53516"><ele></ele><time>2015-11-5T6:26:8Z</time></trkpt>
<trkpt lat="46.09922" lon="7.53523"><ele></ele><time>2015-11-5T6:26:11Z</time></trkpt>
<trkpt lat="46.09916" lon="7.53532"><ele></ele><time>2015-11-5T6:26:14Z</time></trkpt>
<trkpt lat="46.0991" lon="7.5354"><ele></ele><time>2015-11-5T6:26:17Z</time></trkpt>
<trkpt lat="46.09906" lon="7.53547"><ele></ele><time>2015-11-5T6:26:20Z</time></trkpt>
<trkpt lat="46.099" lon="7.53553"><ele></ele><time>2015-11-5T6:26:23Z</time></trkpt>
<trkpt lat="46.09886" lon="7.53571"><ele></ele><time>2015-11-5T6:26:26Z</time></trkpt>
<trkpt lat="46.0988" lon="7.53578"><ele></ele><time>2015-11-5T6:26:29Z</time></trkpt>
<trkpt lat="46.09874" lon="7.53586"><ele></ele><time>2015-11-5T6:26:32Z</time></trkpt>
<trkpt lat="46.09864" lon="7.53597"><ele></ele><time>2015-11-5T6:26:35Z</time></trkpt>
<trkpt lat="46.09854" lon="7.53608"><ele></ele><time>2015-11-5T6:26:38Z</time></trkpt>
<trkpt lat="46.0985" lon="7.53613"><ele></ele><time>2015-11-5T6:26:41Z</time></trkpt>
<trkpt lat="46.09848" lon="7.53616"><ele></ele><time>2015-11-5T6:26:44Z</time></trkpt>
<trkpt lat="46.09839" lon="7.53631"><ele></ele><time>2015-11-5T6:26:47Z</time></trkpt>
<trkpt lat="46.09838" lon="7.53632"><ele></ele><time>2015-11-5T6:26:50Z</time></trkpt>
<trkpt lat="46.09825" lon="7.5365"><ele></ele><time>2015-11-5T6:26:53Z</time></trkpt>
<trkpt lat="46.09813" lon="7.5366"><ele></ele><time>2015-11-5T6:26:56Z</time></trkpt>
<trkpt lat="46.09806" lon="7.53667"><ele></ele><time>2015-11-5T6:26:59Z</time></trkpt>
<trkpt lat="46.09796" lon="7.53675"><ele></ele><time>2015-11-5T6:27:2Z</time></trkpt>
<trkpt lat="46.09786" lon="7.53685"><ele></ele><time>2015-11-5T6:27:5Z</time></trkpt>
<trkpt lat="46.09773" lon="7.53699"><ele></ele><time>2015-11-5T6:27:8Z</time></trkpt>
<trkpt lat="46.09771" lon="7.53702"><ele></ele><time>2015-11-5T6:27:11Z</time></trkpt>
<trkpt lat="46.0977" lon="7.53703"><ele></ele><time>2015-11-5T6:27:14Z</time></trkpt>
<trkpt lat="46.09767" lon="7.53707"><ele></ele><time>2015-11-5T6:27:17Z</time></trkpt>
<trkpt lat="46.09762" lon="7.53713"><ele></ele><time>2015-11-5T6:27:20Z</time></trkpt>
<trkpt lat="46.09761" lon="7.53715"><ele></ele><time>2015-11-5T6:27:23Z</time></trkpt>
<trkpt lat="46.09753" lon="7.53722"><ele></ele><time>2015-11-5T6:27:26Z</time></trkpt>
<trkpt lat="46.09748" lon="7.53726"><ele></ele><time>2015-11-5T6:27:29Z</time></trkpt>
<trkpt lat="46.0974" lon="7.53735"><ele></ele><time>2015-11-5T6:27:32Z</time></trkpt>
<trkpt lat="46.09732" lon="7.53751"><ele></ele><time>2015-11-5T6:27:35Z</time></trkpt>
<trkpt lat="46.09732" lon="7.53752"><ele></ele><time>2015-11-5T6:27:38Z</time></trkpt>
<trkpt lat="46.09729" lon="7.53757"><ele></ele><time>2015-11-5T6:27:41Z</time></trkpt>
<trkpt lat="46.09728" lon="7.53758"><ele></ele><time>2015-11-5T6:27:44Z</time></trkpt>
<trkpt lat="46.09716" lon="7.53779"><ele></ele><time>2015-11-5T6:27:47Z</time></trkpt>
<trkpt lat="46.09705" lon="7.538"><ele></ele><time>2015-11-5T6:27:50Z</time></trkpt>
<trkpt lat="46.09691" lon="7.53818"><ele></ele><time>2015-11-5T6:27:53Z</time></trkpt>
<trkpt lat="46.09687" lon="7.53822"><ele></ele><time>2015-11-5T6:27:56Z</time></trkpt>
<trkpt lat="46.09682" lon="7.53826"><ele></ele><time>2015-11-5T6:27:59Z</time></trkpt>
<trkpt lat="46.09677" lon="7.53834"><ele></ele><time>2015-11-5T6:28:2Z</time></trkpt>
<trkpt lat="46.09674" lon="7.53838"><ele></ele><time>2015-11-5T6:28:5Z</time></trkpt>
<trkpt lat="46.09666" lon="7.53846"><ele></ele><time>2015-11-5T6:28:8Z</time></trkpt>
<trkpt lat="46.09654" lon="7.53854"><ele></ele><time>2015-11-5T6:28:11Z</time></trkpt>
<trkpt lat="46.09647" lon="7.53858"><ele></ele><time>2015-11-5T6:28:14Z</time></trkpt>
<trkpt lat="46.09644" lon="7.53866"><ele></ele><time>2015-11-5T6:28:17Z</time></trkpt>
<trkpt lat="46.0964" lon="7.53872"><ele></ele><time>2015-11-5T6:28:20Z</time></trkpt>
<trkpt lat="46.09639" lon="7.53875"><ele></ele><time>2015-11-5T6:28:23Z</time></trkpt>
<trkpt lat="46.09632" lon="7.53886"><ele></ele><time>2015-11-5T6:28:26Z</time></trkpt>
<trkpt lat="46.0963" lon="7.5389"><ele></ele><time>2015-11-5T6:28:29Z</time></trkpt>
<trkpt lat="46.09617" lon="7.5391"><ele></ele><time>2015-11-5T6:28:32Z</time></trkpt>
<trkpt lat="46.09614" lon="7.53919"><ele></ele><time>2015-11-5T6:28:35Z</time></trkpt>
<trkpt lat="46.09613" lon="7.53921"><ele></ele><time>2015-11-5T6:28:38Z</time></trkpt>
<trkpt lat="46.09609" lon="7.5393"><ele></ele><time>2015-11-5T6:28:41Z</time></trkpt>
<trkpt lat="46.09598" lon="7.53949"><ele></ele><time>2015-11-5T6:28:44Z</time></trkpt>
<trkpt lat="46.09587" lon="7.53969"><ele></ele><time>2015-11-5T6:28:47Z</time></trkpt>
<trkpt lat="46.09573" lon="7.53988"><ele></ele><time>2015-11-5T6:28:50Z</time></trkpt>
<trkpt lat="46.09555" lon="7.53991"><ele></ele><time>2015-11-5T6:28:53Z</time></trkpt>
<trkpt lat="46.09537" lon="7.53984"><ele></ele><time>2015-11-5T6:28:56Z</time></trkpt>
<trkpt lat="46.09533" lon="7.53984"><ele></ele><time>2015-11-5T6:28:59Z</time></trkpt>
<trkpt lat="46.0952" lon="7.53985"><ele></ele><time>2015-11-5T6:29:2Z</time></trkpt>
<trkpt lat="46.09514" lon="7.53991"><ele></ele><time>2015-11-5T6:29:5Z</time></trkpt>
<trkpt lat="46.0951" lon="7.53991"><ele></ele><time>2015-11-5T6:29:8Z</time></trkpt>
<trkpt lat="46.09497" lon="7.53998"><ele></ele><time>2015-11-5T6:29:11Z</time></trkpt>
<trkpt lat="46.09495" lon="7.53997"><ele></ele><time>2015-11-5T6:29:14Z</time></trkpt>
<trkpt lat="46.09486" lon="7.53995"><ele></ele><time>2015-11-5T6:29:17Z</time></trkpt>
<trkpt lat="46.09478" lon="7.53996"><ele></ele><time>2015-11-5T6:29:20Z</time></trkpt>
<trkpt lat="46.09467" lon="7.53995"><ele></ele><time>2015-11-5T6:29:23Z</time></trkpt>
<trkpt lat="46.09466" lon="7.53995"><ele></ele><time>2015-11-5T6:29:26Z</time></trkpt>
<trkpt lat="46.09457" lon="7.53999"><ele></ele><time>2015-11-5T6:29:29Z</time></trkpt>
<trkpt lat="46.09453" lon="7.54001"><ele></ele><time>2015-11-5T6:29:32Z</time></trkpt>
<trkpt lat="46.09434" lon="7.53994"><ele></ele><time>2015-11-5T6:29:35Z</time></trkpt>
<trkpt lat="46.09423" lon="7.53992"><ele></ele><time>2015-11-5T6:29:38Z</time></trkpt>
<trkpt lat="46.09414" lon="7.53992"><ele></ele><time>2015-11-5T6:29:41Z</time></trkpt>
<trkpt lat="46.09413" lon="7.53991"><ele></ele><time>2015-11-5T6:29:44Z</time></trkpt>
<trkpt lat="46.09409" lon="7.5399"><ele></ele><time>2015-11-5T6:29:47Z</time></trkpt>
<trkpt lat="46.09402" lon="7.53986"><ele></ele><time>2015-11-5T6:29:50Z</time></trkpt>
<trkpt lat="46.09384" lon="7.5398"><ele></ele><time>2015-11-5T6:29:53Z</time></trkpt>
<trkpt lat="46.09369" lon="7.53964"><ele></ele><time>2015-11-5T6:29:56Z</time></trkpt>
<trkpt lat="46.09367" lon="7.53962"><ele></ele><time>2015-11-5T6:29:59Z</time></trkpt>
<trkpt lat="46.0935" lon="7.53951"><ele></ele><time>2015-11-5T6:30:2Z</time></trkpt>
<trkpt lat="46.09334" lon="7.53938"><ele></ele><time>2015-11-5T6:30:5Z</time></trkpt>
<trkpt lat="46.09325" lon="7.53923"><ele></ele><time>2015-11-5T6:30:8Z</time></trkpt>
<trkpt lat="46.09308" lon="7.53915"><ele></ele><time>2015-11-5T6:30:11Z</time></trkpt>
<trkpt lat="46.09291" lon="7.53914"><ele></ele><time>2015-11-5T6:30:14Z</time></trkpt>
<trkpt lat="46.09279" lon="7.53932"><ele></ele><time>2015-11-5T6:30:17Z</time></trkpt>
<trkpt lat="46.09272" lon="7.53939"><ele></ele><time>2015-11-5T6:30:20Z</time></trkpt>
<trkpt lat="46.09264" lon="7.53942"><ele></ele><time>2015-11-5T6:30:23Z</time></trkpt>
<trkpt lat="46.09253" lon="7.53943"><ele></ele><time>2015-11-5T6:30:26Z</time></trkpt>
<trkpt lat="46.09244" lon="7.53943"><ele></ele><time>2015-11-5T6:30:29Z</time></trkpt>
<trkpt lat="46.09236" lon="7.53941"><ele></ele><time>2015-11-5T6:30:32Z</time></trkpt>
<trkpt lat="46.09219" lon="7.53932"><ele></ele><time>2015-11-5T6:30:35Z</time></trkpt>
<trkpt lat="46.09216" lon="7.53931"><ele></ele><time>2015-11-5T6:30:38Z</time></trkpt>
<trkpt lat="46.09218" lon="7.53943"><ele></ele><time>2015-11-5T6:30:41Z</time></trkpt>
<trkpt lat="46.09236" lon="7.53953"><ele></ele><time>2015-11-5T6:30:44Z</time></trkpt>
<trkpt lat="46.09254" lon="7.53964"><ele></ele><time>2015-11-5T6:30:47Z</time></trkpt>
<trkpt lat="46.09271" lon="7.53969"><ele></ele><time>2015-11-5T6:30:50Z</time></trkpt>
<trkpt lat="46.0929" lon="7.53973"><ele></ele><time>2015-11-5T6:30:53Z</time></trkpt>
<trkpt lat="46.09302" lon="7.53989"><ele></ele><time>2015-11-5T6:30:56Z</time></trkpt>
<trkpt lat="46.09306" lon="7.53998"><ele></ele><time>2015-11-5T6:30:59Z</time></trkpt>
<trkpt lat="46.09308" lon="7.54002"><ele></ele><time>2015-11-5T6:31:2Z</time></trkpt>
<trkpt lat="46.09317" lon="7.54024"><ele></ele><time>2015-11-5T6:31:5Z</time></trkpt>
<trkpt lat="46.09324" lon="7.54048"><ele></ele><time>2015-11-5T6:31:8Z</time></trkpt>
<trkpt lat="46.09325" lon="7.54054"><ele></ele><time>2015-11-5T6:31:11Z</time></trkpt>
<trkpt lat="46.09332" lon="7.54072"><ele></ele><time>2015-11-5T6:31:14Z</time></trkpt>
<trkpt lat="46.09348" lon="7.54083"><ele></ele><time>2015-11-5T6:31:17Z</time></trkpt>
<trkpt lat="46.09358" lon="7.54094"><ele></ele><time>2015-11-5T6:31:20Z</time></trkpt>
<trkpt lat="46.09363" lon="7.54095"><ele></ele><time>2015-11-5T6:31:23Z</time></trkpt>
<trkpt lat="46.09372" lon="7.54091"><ele></ele><time>2015-11-5T6:31:26Z</time></trkpt>
<trkpt lat="46.09379" lon="7.5408"><ele></ele><time>2015-11-5T6:31:29Z</time></trkpt>
<trkpt lat="46.09395" lon="7.54083"><ele></ele><time>2015-11-5T6:31:32Z</time></trkpt>
<trkpt lat="46.09409" lon="7.541"><ele></ele><time>2015-11-5T6:31:35Z</time></trkpt>
<trkpt lat="46.09427" lon="7.541"><ele></ele><time>2015-11-5T6:31:38Z</time></trkpt>
<trkpt lat="46.09443" lon="7.54089"><ele></ele><time>2015-11-5T6:31:41Z</time></trkpt>
<trkpt lat="46.09462" lon="7.54085"><ele></ele><time>2015-11-5T6:31:44Z</time></trkpt>
<trkpt lat="46.09472" lon="7.54083"><ele></ele><time>2015-11-5T6:31:47Z</time></trkpt>
<trkpt lat="46.09476" lon="7.54083"><ele></ele><time>2015-11-5T6:31:50Z</time></trkpt>
<trkpt lat="46.09481" lon="7.54086"><ele></ele><time>2015-11-5T6:31:53Z</time></trkpt>
<trkpt lat="46.09486" lon="7.54091"><ele></ele><time>2015-11-5T6:31:56Z</time></trkpt>
<trkpt lat="46.09502" lon="7.54106"><ele></ele><time>2015-11-5T6:31:59Z</time></trkpt>
<trkpt lat="46.09511" lon="7.54126"><ele></ele><time>2015-11-5T6:32:2Z</time></trkpt>
<trkpt lat="46.09515" lon="7.54132"><ele></ele><time>2015-11-5T6:32:5Z</time></trkpt>
<trkpt lat="46.09523" lon="7.54134"><ele></ele><time>2015-11-5T6:32:8Z</time></trkpt>
<trkpt lat="46.09526" lon="7.54135"><ele></ele><time>2015-11-5T6:32:11Z</time></trkpt>
<trkpt lat="46.09532" lon="7.54135"><ele></ele><time>2015-11-5T6:32:14Z</time></trkpt>
<trkpt lat="46.0955" lon="7.54144"><ele></ele><time>2015-11-5T6:32:17Z</time></trkpt>
<trkpt lat="46.09561" lon="7.54164"><ele></ele><time>2015-11-5T6:32:20Z</time></trkpt>
<trkpt lat="46.09569" lon="7.54178"><ele></ele><time>2015-11-5T6:32:23Z</time></trkpt>
<trkpt lat="46.09581" lon="7.54196"><ele></ele><time>2015-11-5T6:32:26Z</time></trkpt>
<trkpt lat="46.09599" lon="7.54213"><ele></ele><time>2015-11-5T6:32:29Z</time></trkpt>
<trkpt lat="46.09604" lon="7.54217"><ele></ele><time>2015-11-5T6:32:32Z</time></trkpt>
<trkpt lat="46.09608" lon="7.5422"><ele></ele><time>2015-11-5T6:32:35Z</time></trkpt>
<trkpt lat="46.09627" lon="7.54223"><ele></ele><time>2015-11-5T6:32:38Z</time></trkpt>
<trkpt lat="46.09637" lon="7.54227"><ele></ele><time>2015-11-5T6:32:41Z</time></trkpt>
<trkpt lat="46.09642" lon="7.54229"><ele></ele><time>2015-11-5T6:32:44Z</time></trkpt>
<trkpt lat="46.09659" lon="7.54232"><ele></ele><time>2015-11-5T6:32:47Z</time></trkpt>
<trkpt lat="46.09659" lon="7.54232"><ele></ele><time>2015-11-5T6:32:50Z</time></trkpt>
<trkpt lat="46.0966" lon="7.54231"><ele></ele><time>2015-11-5T6:32:53Z</time></trkpt>
<trkpt lat="46.0966" lon="7.54231"><ele></ele><time>2015-11-5T6:32:56Z</time></trkpt>
<trkpt lat="46.0966" lon="7.54231"><ele></ele><time>2015-11-5T6:32:59Z</time></trkpt>
<trkpt lat="46.0966" lon="7.54231"><ele></ele><time>2015-11-5T6:33:2Z</time></trkpt>
<trkpt lat="46.0966" lon="7.54232"><ele></ele><time>2015-11-5T6:33:5Z</time></trkpt>
<trkpt lat="46.09659" lon="7.54231"><ele></ele><time>2015-11-5T6:33:8Z</time></trkpt>
<trkpt lat="46.09658" lon="7.5423"><ele></ele><time>2015-11-5T6:33:11Z</time></trkpt>
<trkpt lat="46.09665" lon="7.5422"><ele></ele><time>2015-11-5T6:33:14Z</time></trkpt>
<trkpt lat="46.0967" lon="7.54212"><ele></ele><time>2015-11-5T6:33:17Z</time></trkpt>
<trkpt lat="46.09666" lon="7.54186"><ele></ele><time>2015-11-5T6:33:20Z</time></trkpt>
<trkpt lat="46.09661" lon="7.54168"><ele></ele><time>2015-11-5T6:33:23Z</time></trkpt>
<trkpt lat="46.09664" lon="7.54177"><ele></ele><time>2015-11-5T6:33:26Z</time></trkpt>
<trkpt lat="46.09668" lon="7.54187"><ele></ele><time>2015-11-5T6:33:29Z</time></trkpt>
<trkpt lat="46.09669" lon="7.54194"><ele></ele><time>2015-11-5T6:33:32Z</time></trkpt>
<trkpt lat="46.09672" lon="7.54216"><ele></ele><time>2015-11-5T6:33:35Z</time></trkpt>
<trkpt lat="46.09672" lon="7.54216"><ele></ele><time>2015-11-5T6:33:38Z</time></trkpt>
<trkpt lat="46.09678" lon="7.54219"><ele></ele><time>2015-11-5T6:33:41Z</time></trkpt>
<trkpt lat="46.09693" lon="7.54226"><ele></ele><time>2015-11-5T6:33:44Z</time></trkpt>
<trkpt lat="46.09692" lon="7.54226"><ele></ele><time>2015-11-5T6:33:47Z</time></trkpt>
<trkpt lat="46.09701" lon="7.54238"><ele></ele><time>2015-11-5T6:33:50Z</time></trkpt>
<trkpt lat="46.09709" lon="7.54249"><ele></ele><time>2015-11-5T6:33:53Z</time></trkpt>
<trkpt lat="46.09716" lon="7.54273"><ele></ele><time>2015-11-5T6:33:56Z</time></trkpt>
<trkpt lat="46.09719" lon="7.54285"><ele></ele><time>2015-11-5T6:33:59Z</time></trkpt>
<trkpt lat="46.0972" lon="7.54289"><ele></ele><time>2015-11-5T6:34:2Z</time></trkpt>
<trkpt lat="46.09721" lon="7.54292"><ele></ele><time>2015-11-5T6:34:5Z</time></trkpt>
<trkpt lat="46.09723" lon="7.54296"><ele></ele><time>2015-11-5T6:34:8Z</time></trkpt>
<trkpt lat="46.09722" lon="7.54303"><ele></ele><time>2015-11-5T6:34:11Z</time></trkpt>
<trkpt lat="46.09722" lon="7.54302"><ele></ele><time>2015-11-5T6:34:14Z</time></trkpt>
<trkpt lat="46.09724" lon="7.54301"><ele></ele><time>2015-11-5T6:34:17Z</time></trkpt>
<trkpt lat="46.09725" lon="7.54301"><ele></ele><time>2015-11-5T6:34:20Z</time></trkpt>
<trkpt lat="46.09724" lon="7.54302"><ele></ele><time>2015-11-5T6:34:23Z</time></trkpt>
<trkpt lat="46.09724" lon="7.54302"><ele></ele><time>2015-11-5T6:34:26Z</time></trkpt>
<trkpt lat="46.09724" lon="7.54302"><ele></ele><time>2015-11-5T6:34:29Z</time></trkpt>
<trkpt lat="46.09723" lon="7.54302"><ele></ele><time>2015-11-5T6:34:32Z</time></trkpt>
<trkpt lat="46.09723" lon="7.54301"><ele></ele><time>2015-11-5T6:34:35Z</time></trkpt>
<trkpt lat="46.09723" lon="7.54301"><ele></ele><time>2015-11-5T6:34:38Z</time></trkpt>
<trkpt lat="46.09723" lon="7.54301"><ele></ele><time>2015-11-5T6:34:41Z</time></trkpt>
<trkpt lat="46.09723" lon="7.54301"><ele></ele><time>2015-11-5T6:34:44Z</time></trkpt>
<trkpt lat="46.09723" lon="7.543"><ele></ele><time>2015-11-5T6:34:47Z</time></trkpt>
<trkpt lat="46.09722" lon="7.54298"><ele></ele><time>2015-11-5T6:34:50Z</time></trkpt>
<trkpt lat="46.0972" lon="7.54288"><ele></ele><time>2015-11-5T6:34:53Z</time></trkpt>
<trkpt lat="46.0972" lon="7.54286"><ele></ele><time>2015-11-5T6:34:56Z</time></trkpt>
<trkpt lat="46.0972" lon="7.54286"><ele></ele><time>2015-11-5T6:34:59Z</time></trkpt>
<trkpt lat="46.09721" lon="7.54291"><ele></ele><time>2015-11-5T6:35:2Z</time></trkpt>
<trkpt lat="46.09723" lon="7.54303"><ele></ele><time>2015-11-5T6:35:5Z</time></trkpt>
<trkpt lat="46.09721" lon="7.54304"><ele></ele><time>2015-11-5T6:35:8Z</time></trkpt>
<trkpt lat="46.09721" lon="7.54291"><ele></ele><time>2015-11-5T6:35:11Z</time></trkpt>
<trkpt lat="46.0972" lon="7.54289"><ele></ele><time>2015-11-5T6:35:14Z</time></trkpt>
<trkpt lat="46.0972" lon="7.54288"><ele></ele><time>2015-11-5T6:35:17Z</time></trkpt>
<trkpt lat="46.0972" lon="7.5429"><ele></ele><time>2015-11-5T6:35:20Z</time></trkpt>
<trkpt lat="46.09713" lon="7.5426"><ele></ele><time>2015-11-5T6:35:23Z</time></trkpt>
<trkpt lat="46.09709" lon="7.54249"><ele></ele><time>2015-11-5T6:35:26Z</time></trkpt>
<trkpt lat="46.09707" lon="7.54245"><ele></ele><time>2015-11-5T6:35:29Z</time></trkpt>
<trkpt lat="46.09702" lon="7.54237"><ele></ele><time>2015-11-5T6:35:32Z</time></trkpt>
<trkpt lat="46.097" lon="7.54235"><ele></ele><time>2015-11-5T6:35:35Z</time></trkpt>
<trkpt lat="46.09701" lon="7.54235"><ele></ele><time>2015-11-5T6:35:38Z</time></trkpt>
<trkpt lat="46.09707" lon="7.54244"><ele></ele><time>2015-11-5T6:35:41Z</time></trkpt>
<trkpt lat="46.09715" lon="7.54269"><ele></ele><time>2015-11-5T6:35:44Z</time></trkpt>
<trkpt lat="46.09716" lon="7.54273"><ele></ele><time>2015-11-5T6:35:47Z</time></trkpt>
<trkpt lat="46.09717" lon="7.54277"><ele></ele><time>2015-11-5T6:35:50Z</time></trkpt>
<trkpt lat="46.0972" lon="7.54291"><ele></ele><time>2015-11-5T6:35:53Z</time></trkpt>
<trkpt lat="46.0972" lon="7.54291"><ele></ele><time>2015-11-5T6:35:56Z</time></trkpt>
<trkpt lat="46.09719" lon="7.54288"><ele></ele><time>2015-11-5T6:35:59Z</time></trkpt>
<trkpt lat="46.09718" lon="7.5429"><ele></ele><time>2015-11-5T6:36:2Z</time></trkpt>
<trkpt lat="46.09723" lon="7.54303"><ele></ele><time>2015-11-5T6:36:5Z</time></trkpt>
<trkpt lat="46.09723" lon="7.54301"><ele></ele><time>2015-11-5T6:36:8Z</time></trkpt>
<trkpt lat="46.09722" lon="7.54302"><ele></ele><time>2015-11-5T6:36:11Z</time></trkpt>
<trkpt lat="46.09723" lon="7.54302"><ele></ele><time>2015-11-5T6:36:14Z</time></trkpt>
<trkpt lat="46.09723" lon="7.54302"><ele></ele><time>2015-11-5T6:36:17Z</time></trkpt>
<trkpt lat="46.09723" lon="7.54302"><ele></ele><time>2015-11-5T6:36:20Z</time></trkpt>
<trkpt lat="46.09723" lon="7.54303"><ele></ele><time>2015-11-5T6:36:23Z</time></trkpt>
<trkpt lat="46.09722" lon="7.54307"><ele></ele><time>2015-11-5T6:36:26Z</time></trkpt>
<trkpt lat="46.09723" lon="7.54311"><ele></ele><time>2015-11-5T6:36:29Z</time></trkpt>
<trkpt lat="46.09724" lon="7.54318"><ele></ele><time>2015-11-5T6:36:32Z</time></trkpt>
<trkpt lat="46.09726" lon="7.54326"><ele></ele><time>2015-11-5T6:36:35Z</time></trkpt>
<trkpt lat="46.09727" lon="7.54329"><ele></ele><time>2015-11-5T6:36:38Z</time></trkpt>
<trkpt lat="46.09727" lon="7.54329"><ele></ele><time>2015-11-5T6:36:41Z</time></trkpt>
<trkpt lat="46.09727" lon="7.54329"><ele></ele><time>2015-11-5T6:36:44Z</time></trkpt>
<trkpt lat="46.09726" lon="7.54329"><ele></ele><time>2015-11-5T6:36:47Z</time></trkpt>
<trkpt lat="46.09726" lon="7.54331"><ele></ele><time>2015-11-5T6:36:50Z</time></trkpt>
<trkpt lat="46.0973" lon="7.54344"><ele></ele><time>2015-11-5T6:36:53Z</time></trkpt>
<trkpt lat="46.09729" lon="7.54353"><ele></ele><time>2015-11-5T6:36:56Z</time></trkpt>
<trkpt lat="46.0973" lon="7.54353"><ele></ele><time>2015-11-5T6:36:59Z</time></trkpt>
<trkpt lat="46.09731" lon="7.54355"><ele></ele><time>2015-11-5T6:37:2Z</time></trkpt>
<trkpt lat="46.09729" lon="7.54357"><ele></ele><time>2015-11-5T6:37:5Z</time></trkpt>
<trkpt lat="46.09729" lon="7.54356"><ele></ele><time>2015-11-5T6:37:8Z</time></trkpt>
<trkpt lat="46.0973" lon="7.54352"><ele></ele><time>2015-11-5T6:37:11Z</time></trkpt>
<trkpt lat="46.09727" lon="7.54365"><ele></ele><time>2015-11-5T6:37:14Z</time></trkpt>
<trkpt lat="46.09727" lon="7.54369"><ele></ele><time>2015-11-5T6:37:17Z</time></trkpt>
<trkpt lat="46.09727" lon="7.54364"><ele></ele><time>2015-11-5T6:37:20Z</time></trkpt>
<trkpt lat="46.09729" lon="7.54359"><ele></ele><time>2015-11-5T6:37:23Z</time></trkpt>
<trkpt lat="46.09731" lon="7.54356"><ele></ele><time>2015-11-5T6:37:26Z</time></trkpt>
<trkpt lat="46.09731" lon="7.54358"><ele></ele><time>2015-11-5T6:37:29Z</time></trkpt>
<trkpt lat="46.09731" lon="7.54357"><ele></ele><time>2015-11-5T6:37:32Z</time></trkpt>
<trkpt lat="46.09732" lon="7.54358"><ele></ele><time>2015-11-5T6:37:35Z</time></trkpt>
<trkpt lat="46.09732" lon="7.54358"><ele></ele><time>2015-11-5T6:37:38Z</time></trkpt>
<trkpt lat="46.09729" lon="7.54363"><ele></ele><time>2015-11-5T6:37:41Z</time></trkpt>
<trkpt lat="46.09727" lon="7.54372"><ele></ele><time>2015-11-5T6:37:44Z</time></trkpt>
<trkpt lat="46.09726" lon="7.54377"><ele></ele><time>2015-11-5T6:37:47Z</time></trkpt>
<trkpt lat="46.09726" lon="7.54379"><ele></ele><time>2015-11-5T6:37:50Z</time></trkpt>
<trkpt lat="46.09725" lon="7.54384"><ele></ele><time>2015-11-5T6:37:53Z</time></trkpt>
<trkpt lat="46.09722" lon="7.54396"><ele></ele><time>2015-11-5T6:37:56Z</time></trkpt>
<trkpt lat="46.0972" lon="7.54402"><ele></ele><time>2015-11-5T6:37:59Z</time></trkpt>
<trkpt lat="46.09716" lon="7.5441"><ele></ele><time>2015-11-5T6:38:2Z</time></trkpt>
<trkpt lat="46.09716" lon="7.54411"><ele></ele><time>2015-11-5T6:38:5Z</time></trkpt>
<trkpt lat="46.09716" lon="7.54415"><ele></ele><time>2015-11-5T6:38:8Z</time></trkpt>
<trkpt lat="46.09715" lon="7.54417"><ele></ele><time>2015-11-5T6:38:11Z</time></trkpt>
<trkpt lat="46.09711" lon="7.54427"><ele></ele><time>2015-11-5T6:38:14Z</time></trkpt>
<trkpt lat="46.09709" lon="7.54432"><ele></ele><time>2015-11-5T6:38:17Z</time></trkpt>
<trkpt lat="46.09709" lon="7.54432"><ele></ele><time>2015-11-5T6:38:20Z</time></trkpt>
<trkpt lat="46.09708" lon="7.54432"><ele></ele><time>2015-11-5T6:38:23Z</time></trkpt>
<trkpt lat="46.09708" lon="7.54433"><ele></ele><time>2015-11-5T6:38:26Z</time></trkpt>
<trkpt lat="46.09708" lon="7.54443"><ele></ele><time>2015-11-5T6:38:29Z</time></trkpt>
<trkpt lat="46.09707" lon="7.54446"><ele></ele><time>2015-11-5T6:38:32Z</time></trkpt>
<trkpt lat="46.09706" lon="7.54444"><ele></ele><time>2015-11-5T6:38:35Z</time></trkpt>
<trkpt lat="46.09706" lon="7.54443"><ele></ele><time>2015-11-5T6:38:38Z</time></trkpt>
<trkpt lat="46.09704" lon="7.54447"><ele></ele><time>2015-11-5T6:38:41Z</time></trkpt>
<trkpt lat="46.09703" lon="7.54448"><ele></ele><time>2015-11-5T6:38:44Z</time></trkpt>
<trkpt lat="46.09702" lon="7.54449"><ele></ele><time>2015-11-5T6:38:47Z</time></trkpt>
<trkpt lat="46.097" lon="7.54453"><ele></ele><time>2015-11-5T6:38:50Z</time></trkpt>
<trkpt lat="46.09701" lon="7.54453"><ele></ele><time>2015-11-5T6:38:53Z</time></trkpt>
<trkpt lat="46.097" lon="7.54453"><ele></ele><time>2015-11-5T6:38:56Z</time></trkpt>
<trkpt lat="46.09701" lon="7.54452"><ele></ele><time>2015-11-5T6:38:59Z</time></trkpt>
<trkpt lat="46.09702" lon="7.54454"><ele></ele><time>2015-11-5T6:39:2Z</time></trkpt>
<trkpt lat="46.09702" lon="7.54454"><ele></ele><time>2015-11-5T6:39:5Z</time></trkpt>
<trkpt lat="46.09702" lon="7.54454"><ele></ele><time>2015-11-5T6:39:8Z</time></trkpt>
<trkpt lat="46.09703" lon="7.54459"><ele></ele><time>2015-11-5T6:39:11Z</time></trkpt>
<trkpt lat="46.09703" lon="7.5446"><ele></ele><time>2015-11-5T6:39:14Z</time></trkpt>
<trkpt lat="46.09705" lon="7.54466"><ele></ele><time>2015-11-5T6:39:17Z</time></trkpt>
<trkpt lat="46.09703" lon="7.5447"><ele></ele><time>2015-11-5T6:39:20Z</time></trkpt>
<trkpt lat="46.09702" lon="7.54471"><ele></ele><time>2015-11-5T6:39:23Z</time></trkpt>
<trkpt lat="46.09701" lon="7.54471"><ele></ele><time>2015-11-5T6:39:26Z</time></trkpt>
<trkpt lat="46.09704" lon="7.54457"><ele></ele><time>2015-11-5T6:39:29Z</time></trkpt>
<trkpt lat="46.097" lon="7.54453"><ele></ele><time>2015-11-5T6:39:32Z</time></trkpt>
<trkpt lat="46.0969" lon="7.54456"><ele></ele><time>2015-11-5T6:39:35Z</time></trkpt>
<trkpt lat="46.09685" lon="7.54456"><ele></ele><time>2015-11-5T6:39:38Z</time></trkpt>
<trkpt lat="46.09677" lon="7.54459"><ele></ele><time>2015-11-5T6:39:41Z</time></trkpt>
<trkpt lat="46.09677" lon="7.54458"><ele></ele><time>2015-11-5T6:39:44Z</time></trkpt>
<trkpt lat="46.09677" lon="7.54448"><ele></ele><time>2015-11-5T6:39:47Z</time></trkpt>
<trkpt lat="46.0967" lon="7.54439"><ele></ele><time>2015-11-5T6:39:50Z</time></trkpt>
<trkpt lat="46.09669" lon="7.54443"><ele></ele><time>2015-11-5T6:39:53Z</time></trkpt>
<trkpt lat="46.09669" lon="7.54444"><ele></ele><time>2015-11-5T6:39:56Z</time></trkpt>
<trkpt lat="46.09666" lon="7.54453"><ele></ele><time>2015-11-5T6:39:59Z</time></trkpt>
<trkpt lat="46.09662" lon="7.54456"><ele></ele><time>2015-11-5T6:40:2Z</time></trkpt>
<trkpt lat="46.09655" lon="7.5446"><ele></ele><time>2015-11-5T6:40:5Z</time></trkpt>
<trkpt lat="46.0965" lon="7.54459"><ele></ele><time>2015-11-5T6:40:8Z</time></trkpt>
<trkpt lat="46.09647" lon="7.54459"><ele></ele><time>2015-11-5T6:40:11Z</time></trkpt>
<trkpt lat="46.09645" lon="7.54459"><ele></ele><time>2015-11-5T6:40:14Z</time></trkpt>
<trkpt lat="46.09638" lon="7.54461"><ele></ele><time>2015-11-5T6:40:17Z</time></trkpt>
<trkpt lat="46.09631" lon="7.54455"><ele></ele><time>2015-11-5T6:40:20Z</time></trkpt>
<trkpt lat="46.09625" lon="7.5446"><ele></ele><time>2015-11-5T6:40:23Z</time></trkpt>
<trkpt lat="46.09621" lon="7.54454"><ele></ele><time>2015-11-5T6:40:26Z</time></trkpt>
<trkpt lat="46.0962" lon="7.54448"><ele></ele><time>2015-11-5T6:40:29Z</time></trkpt>
<trkpt lat="46.09619" lon="7.54445"><ele></ele><time>2015-11-5T6:40:32Z</time></trkpt>
<trkpt lat="46.09616" lon="7.54446"><ele></ele><time>2015-11-5T6:40:35Z</time></trkpt>
<trkpt lat="46.09614" lon="7.54448"><ele></ele><time>2015-11-5T6:40:38Z</time></trkpt>
<trkpt lat="46.09607" lon="7.54452"><ele></ele><time>2015-11-5T6:40:41Z</time></trkpt>
<trkpt lat="46.09606" lon="7.54454"><ele></ele><time>2015-11-5T6:40:44Z</time></trkpt>
<trkpt lat="46.09607" lon="7.5446"><ele></ele><time>2015-11-5T6:40:47Z</time></trkpt>
<trkpt lat="46.09608" lon="7.54463"><ele></ele><time>2015-11-5T6:40:50Z</time></trkpt>
<trkpt lat="46.09607" lon="7.54468"><ele></ele><time>2015-11-5T6:40:53Z</time></trkpt>
<trkpt lat="46.09604" lon="7.54468"><ele></ele><time>2015-11-5T6:40:56Z</time></trkpt>
<trkpt lat="46.096" lon="7.54467"><ele></ele><time>2015-11-5T6:40:59Z</time></trkpt>
<trkpt lat="46.09599" lon="7.54455"><ele></ele><time>2015-11-5T6:41:2Z</time></trkpt>
<trkpt lat="46.09599" lon="7.54455"><ele></ele><time>2015-11-5T6:41:5Z</time></trkpt>
<trkpt lat="46.09599" lon="7.54453"><ele></ele><time>2015-11-5T6:41:8Z</time></trkpt>
<trkpt lat="46.09599" lon="7.54456"><ele></ele><time>2015-11-5T6:41:11Z</time></trkpt>
<trkpt lat="46.09599" lon="7.54456"><ele></ele><time>2015-11-5T6:41:14Z</time></trkpt>
<trkpt lat="46.096" lon="7.54454"><ele></ele><time>2015-11-5T6:41:17Z</time></trkpt>
<trkpt lat="46.09601" lon="7.54454"><ele></ele><time>2015-11-5T6:41:20Z</time></trkpt>
<trkpt lat="46.09598" lon="7.54451"><ele></ele><time>2015-11-5T6:41:23Z</time></trkpt>
<trkpt lat="46.09596" lon="7.54444"><ele></ele><time>2015-11-5T6:41:26Z</time></trkpt>
<trkpt lat="46.09595" lon="7.5444"><ele></ele><time>2015-11-5T6:41:29Z</time></trkpt>
<trkpt lat="46.09595" lon="7.5444"><ele></ele><time>2015-11-5T6:41:32Z</time></trkpt>
<trkpt lat="46.0959" lon="7.54434"><ele></ele><time>2015-11-5T6:41:35Z</time></trkpt>
<trkpt lat="46.09588" lon="7.54435"><ele></ele><time>2015-11-5T6:41:38Z</time></trkpt>
<trkpt lat="46.09589" lon="7.54435"><ele></ele><time>2015-11-5T6:41:41Z</time></trkpt>
<trkpt lat="46.09588" lon="7.54432"><ele></ele><time>2015-11-5T6:41:44Z</time></trkpt>
<trkpt lat="46.09588" lon="7.54432"><ele></ele><time>2015-11-5T6:41:47Z</time></trkpt>
<trkpt lat="46.09589" lon="7.54432"><ele></ele><time>2015-11-5T6:41:50Z</time></trkpt>
<trkpt lat="46.09599" lon="7.5445"><ele></ele><time>2015-11-5T6:41:53Z</time></trkpt>
<trkpt lat="46.09599" lon="7.54451"><ele></ele><time>2015-11-5T6:41:56Z</time></trkpt>
<trkpt lat="46.09599" lon="7.54452"><ele></ele><time>2015-11-5T6:41:59Z</time></trkpt>
<trkpt lat="46.09599" lon="7.54453"><ele></ele><time>2015-11-5T6:42:2Z</time></trkpt>
<trkpt lat="46.09595" lon="7.5444"><ele></ele><time>2015-11-5T6:42:5Z</time></trkpt>
<trkpt lat="46.09587" lon="7.54426"><ele></ele><time>2015-11-5T6:42:8Z</time></trkpt>
<trkpt lat="46.09576" lon="7.54416"><ele></ele><time>2015-11-5T6:42:11Z</time></trkpt>
<trkpt lat="46.09558" lon="7.54421"><ele></ele><time>2015-11-5T6:42:14Z</time></trkpt>
<trkpt lat="46.09551" lon="7.54419"><ele></ele><time>2015-11-5T6:42:17Z</time></trkpt>
<trkpt lat="46.09547" lon="7.54416"><ele></ele><time>2015-11-5T6:42:20Z</time></trkpt>
<trkpt lat="46.09549" lon="7.54399"><ele></ele><time>2015-11-5T6:42:23Z</time></trkpt>
<trkpt lat="46.09549" lon="7.54397"><ele></ele><time>2015-11-5T6:42:26Z</time></trkpt>
<trkpt lat="46.09555" lon="7.54387"><ele></ele><time>2015-11-5T6:42:29Z</time></trkpt>
<trkpt lat="46.0956" lon="7.54381"><ele></ele><time>2015-11-5T6:42:32Z</time></trkpt>
<trkpt lat="46.09561" lon="7.54399"><ele></ele><time>2015-11-5T6:42:35Z</time></trkpt>
<trkpt lat="46.09557" lon="7.54415"><ele></ele><time>2015-11-5T6:42:38Z</time></trkpt>
<trkpt lat="46.09571" lon="7.54426"><ele></ele><time>2015-11-5T6:42:41Z</time></trkpt>
<trkpt lat="46.0958" lon="7.54424"><ele></ele><time>2015-11-5T6:42:44Z</time></trkpt>
<trkpt lat="46.09583" lon="7.54424"><ele></ele><time>2015-11-5T6:42:47Z</time></trkpt>
<trkpt lat="46.09585" lon="7.54425"><ele></ele><time>2015-11-5T6:42:50Z</time></trkpt>
<trkpt lat="46.09588" lon="7.54432"><ele></ele><time>2015-11-5T6:42:53Z</time></trkpt>
<trkpt lat="46.0959" lon="7.54437"><ele></ele><time>2015-11-5T6:42:56Z</time></trkpt>
<trkpt lat="46.09587" lon="7.54437"><ele></ele><time>2015-11-5T6:42:59Z</time></trkpt>
<trkpt lat="46.09589" lon="7.54436"><ele></ele><time>2015-11-5T6:43:2Z</time></trkpt>
<trkpt lat="46.09589" lon="7.54436"><ele></ele><time>2015-11-5T6:43:5Z</time></trkpt>
<trkpt lat="46.09588" lon="7.54437"><ele></ele><time>2015-11-5T6:43:8Z</time></trkpt>
<trkpt lat="46.09588" lon="7.54437"><ele></ele><time>2015-11-5T6:43:11Z</time></trkpt>
<trkpt lat="46.09588" lon="7.54437"><ele></ele><time>2015-11-5T6:43:14Z</time></trkpt>
<trkpt lat="46.09588" lon="7.54437"><ele></ele><time>2015-11-5T6:43:17Z</time></trkpt>
<trkpt lat="46.09583" lon="7.54419"><ele></ele><time>2015-11-5T6:43:20Z</time></trkpt>
<trkpt lat="46.09572" lon="7.54418"><ele></ele><time>2015-11-5T6:43:23Z</time></trkpt>
<trkpt lat="46.0957" lon="7.54419"><ele></ele><time>2015-11-5T6:43:26Z</time></trkpt>
<trkpt lat="46.09568" lon="7.5442"><ele></ele><time>2015-11-5T6:43:29Z</time></trkpt>
<trkpt lat="46.09566" lon="7.54422"><ele></ele><time>2015-11-5T6:43:32Z</time></trkpt>
<trkpt lat="46.09561" lon="7.54422"><ele></ele><time>2015-11-5T6:43:35Z</time></trkpt>
<trkpt lat="46.09556" lon="7.54415"><ele></ele><time>2015-11-5T6:43:38Z</time></trkpt>
<trkpt lat="46.0956" lon="7.5439"><ele></ele><time>2015-11-5T6:43:41Z</time></trkpt>
<trkpt lat="46.09561" lon="7.54379"><ele></ele><time>2015-11-5T6:43:44Z</time></trkpt>
<trkpt lat="46.09565" lon="7.54372"><ele></ele><time>2015-11-5T6:43:47Z</time></trkpt>
<trkpt lat="46.09566" lon="7.54363"><ele></ele><time>2015-11-5T6:43:50Z</time></trkpt>
<trkpt lat="46.09566" lon="7.54362"><ele></ele><time>2015-11-5T6:43:53Z</time></trkpt>
<trkpt lat="46.09565" lon="7.54361"><ele></ele><time>2015-11-5T6:43:56Z</time></trkpt>
<trkpt lat="46.0956" lon="7.54361"><ele></ele><time>2015-11-5T6:43:59Z</time></trkpt>
<trkpt lat="46.09549" lon="7.54361"><ele></ele><time>2015-11-5T6:44:2Z</time></trkpt>
<trkpt lat="46.09546" lon="7.54362"><ele></ele><time>2015-11-5T6:44:5Z</time></trkpt>
<trkpt lat="46.09542" lon="7.54365"><ele></ele><time>2015-11-5T6:44:8Z</time></trkpt>
<trkpt lat="46.09539" lon="7.54367"><ele></ele><time>2015-11-5T6:44:11Z</time></trkpt>
<trkpt lat="46.09539" lon="7.54367"><ele></ele><time>2015-11-5T6:44:14Z</time></trkpt>
<trkpt lat="46.09538" lon="7.54368"><ele></ele><time>2015-11-5T6:44:17Z</time></trkpt>
<trkpt lat="46.0954" lon="7.54364"><ele></ele><time>2015-11-5T6:44:20Z</time></trkpt>
<trkpt lat="46.09559" lon="7.54362"><ele></ele><time>2015-11-5T6:44:23Z</time></trkpt>
<trkpt lat="46.0957" lon="7.54358"><ele></ele><time>2015-11-5T6:44:26Z</time></trkpt>
<trkpt lat="46.09569" lon="7.54348"><ele></ele><time>2015-11-5T6:44:29Z</time></trkpt>
<trkpt lat="46.09568" lon="7.54347"><ele></ele><time>2015-11-5T6:44:32Z</time></trkpt>
<trkpt lat="46.0955" lon="7.54334"><ele></ele><time>2015-11-5T6:44:35Z</time></trkpt>
<trkpt lat="46.09538" lon="7.54321"><ele></ele><time>2015-11-5T6:44:38Z</time></trkpt>
<trkpt lat="46.09529" lon="7.54311"><ele></ele><time>2015-11-5T6:44:41Z</time></trkpt>
<trkpt lat="46.09518" lon="7.54314"><ele></ele><time>2015-11-5T6:44:44Z</time></trkpt>
<trkpt lat="46.09517" lon="7.54316"><ele></ele><time>2015-11-5T6:44:47Z</time></trkpt>
<trkpt lat="46.09516" lon="7.54317"><ele></ele><time>2015-11-5T6:44:50Z</time></trkpt>
<trkpt lat="46.09516" lon="7.54317"><ele></ele><time>2015-11-5T6:44:53Z</time></trkpt>
<trkpt lat="46.0952" lon="7.54317"><ele></ele><time>2015-11-5T6:44:56Z</time></trkpt>
<trkpt lat="46.09518" lon="7.54317"><ele></ele><time>2015-11-5T6:44:59Z</time></trkpt>
<trkpt lat="46.09517" lon="7.54317"><ele></ele><time>2015-11-5T6:45:2Z</time></trkpt>
<trkpt lat="46.09518" lon="7.54316"><ele></ele><time>2015-11-5T6:45:5Z</time></trkpt>
<trkpt lat="46.09518" lon="7.54316"><ele></ele><time>2015-11-5T6:45:8Z</time></trkpt>
<trkpt lat="46.09518" lon="7.54316"><ele></ele><time>2015-11-5T6:45:11Z</time></trkpt>
<trkpt lat="46.09518" lon="7.54315"><ele></ele><time>2015-11-5T6:45:14Z</time></trkpt>
<trkpt lat="46.09517" lon="7.54313"><ele></ele><time>2015-11-5T6:45:17Z</time></trkpt>
<trkpt lat="46.09518" lon="7.54315"><ele></ele><time>2015-11-5T6:45:20Z</time></trkpt>
<trkpt lat="46.09518" lon="7.54318"><ele></ele><time>2015-11-5T6:45:23Z</time></trkpt>
<trkpt lat="46.09518" lon="7.54318"><ele></ele><time>2015-11-5T6:45:26Z</time></trkpt>
<trkpt lat="46.09518" lon="7.54318"><ele></ele><time>2015-11-5T6:45:29Z</time></trkpt>
<trkpt lat="46.09518" lon="7.54318"><ele></ele><time>2015-11-5T6:45:32Z</time></trkpt>
<trkpt lat="46.09519" lon="7.54318"><ele></ele><time>2015-11-5T6:45:35Z</time></trkpt>
<trkpt lat="46.0952" lon="7.54318"><ele></ele><time>2015-11-5T6:45:38Z</time></trkpt>
<trkpt lat="46.09519" lon="7.54318"><ele></ele><time>2015-11-5T6:45:41Z</time></trkpt>
<trkpt lat="46.09518" lon="7.54317"><ele></ele><time>2015-11-5T6:45:44Z</time></trkpt>
<trkpt lat="46.09518" lon="7.54318"><ele></ele><time>2015-11-5T6:45:47Z</time></trkpt>
<trkpt lat="46.09518" lon="7.54321"><ele></ele><time>2015-11-5T6:45:50Z</time></trkpt>
<trkpt lat="46.09518" lon="7.54321"><ele></ele><time>2015-11-5T6:45:53Z</time></trkpt>
<trkpt lat="46.09516" lon="7.54321"><ele></ele><time>2015-11-5T6:45:56Z</time></trkpt>
<trkpt lat="46.09512" lon="7.54342"><ele></ele><time>2015-11-5T6:45:59Z</time></trkpt>
<trkpt lat="46.09508" lon="7.54341"><ele></ele><time>2015-11-5T6:46:2Z</time></trkpt>
<trkpt lat="46.09506" lon="7.54342"><ele></ele><time>2015-11-5T6:46:5Z</time></trkpt>
<trkpt lat="46.09508" lon="7.54339"><ele></ele><time>2015-11-5T6:46:8Z</time></trkpt>
<trkpt lat="46.0951" lon="7.54336"><ele></ele><time>2015-11-5T6:46:11Z</time></trkpt>
<trkpt lat="46.09513" lon="7.5433"><ele></ele><time>2015-11-5T6:46:14Z</time></trkpt>
<trkpt lat="46.09515" lon="7.54325"><ele></ele><time>2015-11-5T6:46:17Z</time></trkpt>
<trkpt lat="46.09512" lon="7.54312"><ele></ele><time>2015-11-5T6:46:20Z</time></trkpt>
<trkpt lat="46.09516" lon="7.54299"><ele></ele><time>2015-11-5T6:46:23Z</time></trkpt>
<trkpt lat="46.09515" lon="7.54292"><ele></ele><time>2015-11-5T6:46:26Z</time></trkpt>
<trkpt lat="46.09514" lon="7.54287"><ele></ele><time>2015-11-5T6:46:29Z</time></trkpt>
<trkpt lat="46.09508" lon="7.54277"><ele></ele><time>2015-11-5T6:46:32Z</time></trkpt>
<trkpt lat="46.09507" lon="7.54271"><ele></ele><time>2015-11-5T6:46:35Z</time></trkpt>
<trkpt lat="46.09503" lon="7.54251"><ele></ele><time>2015-11-5T6:46:38Z</time></trkpt>
<trkpt lat="46.09503" lon="7.54249"><ele></ele><time>2015-11-5T6:46:41Z</time></trkpt>
<trkpt lat="46.09503" lon="7.5424"><ele></ele><time>2015-11-5T6:46:44Z</time></trkpt>
<trkpt lat="46.09501" lon="7.54238"><ele></ele><time>2015-11-5T6:46:47Z</time></trkpt>
<trkpt lat="46.09497" lon="7.54234"><ele></ele><time>2015-11-5T6:46:50Z</time></trkpt>
<trkpt lat="46.09497" lon="7.54234"><ele></ele><time>2015-11-5T6:46:53Z</time></trkpt>
<trkpt lat="46.09497" lon="7.54234"><ele></ele><time>2015-11-5T6:46:56Z</time></trkpt>
<trkpt lat="46.09499" lon="7.54233"><ele></ele><time>2015-11-5T6:46:59Z</time></trkpt>
<trkpt lat="46.09503" lon="7.54236"><ele></ele><time>2015-11-5T6:47:2Z</time></trkpt>
<trkpt lat="46.09503" lon="7.5424"><ele></ele><time>2015-11-5T6:47:5Z</time></trkpt>
<trkpt lat="46.09503" lon="7.54242"><ele></ele><time>2015-11-5T6:47:8Z</time></trkpt>
<trkpt lat="46.09506" lon="7.54246"><ele></ele><time>2015-11-5T6:47:11Z</time></trkpt>
<trkpt lat="46.09513" lon="7.54264"><ele></ele><time>2015-11-5T6:47:14Z</time></trkpt>
<trkpt lat="46.09514" lon="7.5427"><ele></ele><time>2015-11-5T6:47:17Z</time></trkpt>
<trkpt lat="46.09517" lon="7.54275"><ele></ele><time>2015-11-5T6:47:20Z</time></trkpt>
<trkpt lat="46.09521" lon="7.54291"><ele></ele><time>2015-11-5T6:47:23Z</time></trkpt>
<trkpt lat="46.09521" lon="7.54293"><ele></ele><time>2015-11-5T6:47:26Z</time></trkpt>
<trkpt lat="46.09523" lon="7.54298"><ele></ele><time>2015-11-5T6:47:29Z</time></trkpt>
<trkpt lat="46.09524" lon="7.54307"><ele></ele><time>2015-11-5T6:47:32Z</time></trkpt>
<trkpt lat="46.09521" lon="7.54317"><ele></ele><time>2015-11-5T6:47:35Z</time></trkpt>
<trkpt lat="46.09523" lon="7.54309"><ele></ele><time>2015-11-5T6:47:38Z</time></trkpt>
<trkpt lat="46.0953" lon="7.543"><ele></ele><time>2015-11-5T6:47:41Z</time></trkpt>
<trkpt lat="46.09529" lon="7.54303"><ele></ele><time>2015-11-5T6:47:44Z</time></trkpt>
<trkpt lat="46.09527" lon="7.54307"><ele></ele><time>2015-11-5T6:47:47Z</time></trkpt>
<trkpt lat="46.09522" lon="7.54317"><ele></ele><time>2015-11-5T6:47:50Z</time></trkpt>
<trkpt lat="46.09528" lon="7.54305"><ele></ele><time>2015-11-5T6:47:53Z</time></trkpt>
<trkpt lat="46.09531" lon="7.54298"><ele></ele><time>2015-11-5T6:47:56Z</time></trkpt>
<trkpt lat="46.09531" lon="7.54296"><ele></ele><time>2015-11-5T6:47:59Z</time></trkpt>
<trkpt lat="46.09532" lon="7.54297"><ele></ele><time>2015-11-5T6:48:2Z</time></trkpt>
<trkpt lat="46.09533" lon="7.54298"><ele></ele><time>2015-11-5T6:48:5Z</time></trkpt>
<trkpt lat="46.09532" lon="7.54299"><ele></ele><time>2015-11-5T6:48:8Z</time></trkpt>
<trkpt lat="46.09533" lon="7.543"><ele></ele><time>2015-11-5T6:48:11Z</time></trkpt>
<trkpt lat="46.09533" lon="7.543"><ele></ele><time>2015-11-5T6:48:14Z</time></trkpt>
<trkpt lat="46.09533" lon="7.54299"><ele></ele><time>2015-11-5T6:48:17Z</time></trkpt>
<trkpt lat="46.09533" lon="7.543"><ele></ele><time>2015-11-5T6:48:20Z</time></trkpt>
<trkpt lat="46.09533" lon="7.543"><ele></ele><time>2015-11-5T6:48:23Z</time></trkpt>
<trkpt lat="46.09532" lon="7.543"><ele></ele><time>2015-11-5T6:48:26Z</time></trkpt>
<trkpt lat="46.09532" lon="7.54299"><ele></ele><time>2015-11-5T6:48:29Z</time></trkpt>
<trkpt lat="46.09532" lon="7.54299"><ele></ele><time>2015-11-5T6:48:32Z</time></trkpt>
<trkpt lat="46.09531" lon="7.54299"><ele></ele><time>2015-11-5T6:48:35Z</time></trkpt>
<trkpt lat="46.09532" lon="7.54301"><ele></ele><time>2015-11-5T6:48:38Z</time></trkpt>
<trkpt lat="46.09532" lon="7.54299"><ele></ele><time>2015-11-5T6:48:41Z</time></trkpt>
<trkpt lat="46.09532" lon="7.54299"><ele></ele><time>2015-11-5T6:48:44Z</time></trkpt>
<trkpt lat="46.09532" lon="7.54299"><ele></ele><time>2015-11-5T6:48:47Z</time></trkpt>
<trkpt lat="46.09531" lon="7.54298"><ele></ele><time>2015-11-5T6:48:50Z</time></trkpt>
<trkpt lat="46.09532" lon="7.54298"><ele></ele><time>2015-11-5T6:48:53Z</time></trkpt>
<trkpt lat="46.09533" lon="7.54299"><ele></ele><time>2015-11-5T6:48:56Z</time></trkpt>
<trkpt lat="46.09534" lon="7.54299"><ele></ele><time>2015-11-5T6:48:59Z</time></trkpt>
<trkpt lat="46.09533" lon="7.54299"><ele></ele><time>2015-11-5T6:49:2Z</time></trkpt>
<trkpt lat="46.09533" lon="7.54299"><ele></ele><time>2015-11-5T6:49:5Z</time></trkpt>
<trkpt lat="46.09532" lon="7.54299"><ele></ele><time>2015-11-5T6:49:8Z</time></trkpt>
<trkpt lat="46.09533" lon="7.54299"><ele></ele><time>2015-11-5T6:49:11Z</time></trkpt>
<trkpt lat="46.09533" lon="7.54297"><ele></ele><time>2015-11-5T6:49:14Z</time></trkpt>
<trkpt lat="46.09533" lon="7.54298"><ele></ele><time>2015-11-5T6:49:17Z</time></trkpt>
<trkpt lat="46.09533" lon="7.543"><ele></ele><time>2015-11-5T6:49:20Z</time></trkpt>
<trkpt lat="46.09533" lon="7.543"><ele></ele><time>2015-11-5T6:49:23Z</time></trkpt>
<trkpt lat="46.09532" lon="7.543"><ele></ele><time>2015-11-5T6:49:26Z</time></trkpt>
<trkpt lat="46.09532" lon="7.54299"><ele></ele><time>2015-11-5T6:49:29Z</time></trkpt>
<trkpt lat="46.09532" lon="7.54298"><ele></ele><time>2015-11-5T6:49:32Z</time></trkpt>
<trkpt lat="46.09532" lon="7.54298"><ele></ele><time>2015-11-5T6:49:35Z</time></trkpt>
<trkpt lat="46.09532" lon="7.54298"><ele></ele><time>2015-11-5T6:49:38Z</time></trkpt>
<trkpt lat="46.09531" lon="7.54298"><ele></ele><time>2015-11-5T6:49:41Z</time></trkpt>
<trkpt lat="46.09531" lon="7.543"><ele></ele><time>2015-11-5T6:49:44Z</time></trkpt>
<trkpt lat="46.09531" lon="7.543"><ele></ele><time>2015-11-5T6:49:47Z</time></trkpt>
<trkpt lat="46.09531" lon="7.543"><ele></ele><time>2015-11-5T6:49:50Z</time></trkpt>
<trkpt lat="46.09531" lon="7.54297"><ele></ele><time>2015-11-5T6:49:53Z</time></trkpt>
<trkpt lat="46.09533" lon="7.54298"><ele></ele><time>2015-11-5T6:49:56Z</time></trkpt>
<trkpt lat="46.09533" lon="7.54298"><ele></ele><time>2015-11-5T6:49:59Z</time></trkpt>
<trkpt lat="46.09533" lon="7.54299"><ele></ele><time>2015-11-5T6:50:2Z</time></trkpt>
<trkpt lat="46.09532" lon="7.54299"><ele></ele><time>2015-11-5T6:50:5Z</time></trkpt>
<trkpt lat="46.09533" lon="7.54298"><ele></ele><time>2015-11-5T6:50:8Z</time></trkpt>
<trkpt lat="46.09532" lon="7.543"><ele></ele><time>2015-11-5T6:50:11Z</time></trkpt>
<trkpt lat="46.09532" lon="7.543"><ele></ele><time>2015-11-5T6:50:14Z</time></trkpt>
<trkpt lat="46.09532" lon="7.543"><ele></ele><time>2015-11-5T6:50:17Z</time></trkpt>
<trkpt lat="46.0953" lon="7.54299"><ele></ele><time>2015-11-5T6:50:20Z</time></trkpt>
<trkpt lat="46.0953" lon="7.54298"><ele></ele><time>2015-11-5T6:50:23Z</time></trkpt>
<trkpt lat="46.0953" lon="7.54298"><ele></ele><time>2015-11-5T6:50:26Z</time></trkpt>
<trkpt lat="46.0953" lon="7.54298"><ele></ele><time>2015-11-5T6:50:29Z</time></trkpt>
<trkpt lat="46.0953" lon="7.54299"><ele></ele><time>2015-11-5T6:50:32Z</time></trkpt>
<trkpt lat="46.0953" lon="7.54299"><ele></ele><time>2015-11-5T6:50:35Z</time></trkpt>
<trkpt lat="46.09529" lon="7.54298"><ele></ele><time>2015-11-5T6:50:38Z</time></trkpt>
<trkpt lat="46.09529" lon="7.54298"><ele></ele><time>2015-11-5T6:50:41Z</time></trkpt>
<trkpt lat="46.0953" lon="7.54299"><ele></ele><time>2015-11-5T6:50:44Z</time></trkpt>
<trkpt lat="46.0953" lon="7.54298"><ele></ele><time>2015-11-5T6:50:47Z</time></trkpt>
<trkpt lat="46.0953" lon="7.54298"><ele></ele><time>2015-11-5T6:50:50Z</time></trkpt>
<trkpt lat="46.09531" lon="7.54297"><ele></ele><time>2015-11-5T6:50:53Z</time></trkpt>
<trkpt lat="46.09531" lon="7.54297"><ele></ele><time>2015-11-5T6:50:56Z</time></trkpt>
<trkpt lat="46.0953" lon="7.54297"><ele></ele><time>2015-11-5T6:50:59Z</time></trkpt>
<trkpt lat="46.0953" lon="7.54297"><ele></ele><time>2015-11-5T6:51:2Z</time></trkpt>
<trkpt lat="46.0953" lon="7.54296"><ele></ele><time>2015-11-5T6:51:5Z</time></trkpt>
<trkpt lat="46.0953" lon="7.54297"><ele></ele><time>2015-11-5T6:51:8Z</time></trkpt>
<trkpt lat="46.09531" lon="7.543"><ele></ele><time>2015-11-5T6:51:11Z</time></trkpt>
<trkpt lat="46.09531" lon="7.543"><ele></ele><time>2015-11-5T6:51:14Z</time></trkpt>
<trkpt lat="46.09531" lon="7.543"><ele></ele><time>2015-11-5T6:51:17Z</time></trkpt>
<trkpt lat="46.09532" lon="7.543"><ele></ele><time>2015-11-5T6:51:20Z</time></trkpt>
<trkpt lat="46.09532" lon="7.54298"><ele></ele><time>2015-11-5T6:51:23Z</time></trkpt>
<trkpt lat="46.09532" lon="7.54298"><ele></ele><time>2015-11-5T6:51:26Z</time></trkpt>
<trkpt lat="46.09532" lon="7.54298"><ele></ele><time>2015-11-5T6:51:29Z</time></trkpt>
<trkpt lat="46.09532" lon="7.543"><ele></ele><time>2015-11-5T6:51:32Z</time></trkpt>
<trkpt lat="46.09532" lon="7.543"><ele></ele><time>2015-11-5T6:51:35Z</time></trkpt>
<trkpt lat="46.09533" lon="7.54298"><ele></ele><time>2015-11-5T6:51:38Z</time></trkpt>
<trkpt lat="46.09533" lon="7.54299"><ele></ele><time>2015-11-5T6:51:41Z</time></trkpt>
<trkpt lat="46.09533" lon="7.54299"><ele></ele><time>2015-11-5T6:51:44Z</time></trkpt>
<trkpt lat="46.09533" lon="7.54299"><ele></ele><time>2015-11-5T6:51:47Z</time></trkpt>
<trkpt lat="46.09533" lon="7.54299"><ele></ele><time>2015-11-5T6:51:50Z</time></trkpt>
<trkpt lat="46.09533" lon="7.54299"><ele></ele><time>2015-11-5T6:51:53Z</time></trkpt>
<trkpt lat="46.09533" lon="7.54299"><ele></ele><time>2015-11-5T6:51:56Z</time></trkpt>
<trkpt lat="46.09533" lon="7.54299"><ele></ele><time>2015-11-5T6:51:59Z</time></trkpt>
<trkpt lat="46.09533" lon="7.54299"><ele></ele><time>2015-11-5T6:52:2Z</time></trkpt>
<trkpt lat="46.09533" lon="7.54299"><ele></ele><time>2015-11-5T6:52:5Z</time></trkpt>
<trkpt lat="46.09533" lon="7.54299"><ele></ele><time>2015-11-5T6:52:8Z</time></trkpt>
<trkpt lat="46.09533" lon="7.54299"><ele></ele><time>2015-11-5T6:52:11Z</time></trkpt>
<trkpt lat="46.09533" lon="7.54299"><ele></ele><time>2015-11-5T6:52:14Z</time></trkpt>
<trkpt lat="46.09533" lon="7.543"><ele></ele><time>2015-11-5T6:52:17Z</time></trkpt>
<trkpt lat="46.09533" lon="7.543"><ele></ele><time>2015-11-5T6:52:20Z</time></trkpt>
<trkpt lat="46.09533" lon="7.543"><ele></ele><time>2015-11-5T6:52:23Z</time></trkpt>
<trkpt lat="46.09533" lon="7.543"><ele></ele><time>2015-11-5T6:52:26Z</time></trkpt>
<trkpt lat="46.09532" lon="7.54301"><ele></ele><time>2015-11-5T6:52:29Z</time></trkpt>
<trkpt lat="46.09532" lon="7.54301"><ele></ele><time>2015-11-5T6:52:32Z</time></trkpt>
<trkpt lat="46.09532" lon="7.54301"><ele></ele><time>2015-11-5T6:52:35Z</time></trkpt>
<trkpt lat="46.09532" lon="7.54301"><ele></ele><time>2015-11-5T6:52:38Z</time></trkpt>
<trkpt lat="46.09533" lon="7.543"><ele></ele><time>2015-11-5T6:52:41Z</time></trkpt>
<trkpt lat="46.09533" lon="7.543"><ele></ele><time>2015-11-5T6:52:44Z</time></trkpt>
<trkpt lat="46.09533" lon="7.543"><ele></ele><time>2015-11-5T6:52:47Z</time></trkpt>
<trkpt lat="46.09533" lon="7.543"><ele></ele><time>2015-11-5T6:52:50Z</time></trkpt>
<trkpt lat="46.09533" lon="7.543"><ele></ele><time>2015-11-5T6:52:53Z</time></trkpt>
<trkpt lat="46.09533" lon="7.543"><ele></ele><time>2015-11-5T6:52:56Z</time></trkpt>
<trkpt lat="46.09533" lon="7.54301"><ele></ele><time>2015-11-5T6:52:59Z</time></trkpt>
<trkpt lat="46.09533" lon="7.54298"><ele></ele><time>2015-11-5T6:53:2Z</time></trkpt>
<trkpt lat="46.09533" lon="7.54298"><ele></ele><time>2015-11-5T6:53:5Z</time></trkpt>
<trkpt lat="46.09532" lon="7.54298"><ele></ele><time>2015-11-5T6:53:8Z</time></trkpt>
<trkpt lat="46.09532" lon="7.54299"><ele></ele><time>2015-11-5T6:53:11Z</time></trkpt>
<trkpt lat="46.09531" lon="7.54299"><ele></ele><time>2015-11-5T6:53:14Z</time></trkpt>
<trkpt lat="46.09531" lon="7.54299"><ele></ele><time>2015-11-5T6:53:17Z</time></trkpt>
<trkpt lat="46.09532" lon="7.543"><ele></ele><time>2015-11-5T6:53:20Z</time></trkpt>
<trkpt lat="46.09531" lon="7.543"><ele></ele><time>2015-11-5T6:53:23Z</time></trkpt>
<trkpt lat="46.09532" lon="7.54299"><ele></ele><time>2015-11-5T6:53:26Z</time></trkpt>
<trkpt lat="46.09532" lon="7.54299"><ele></ele><time>2015-11-5T6:53:29Z</time></trkpt>
<trkpt lat="46.09531" lon="7.543"><ele></ele><time>2015-11-5T6:53:32Z</time></trkpt>
<trkpt lat="46.09532" lon="7.543"><ele></ele><time>2015-11-5T6:53:35Z</time></trkpt>
<trkpt lat="46.09532" lon="7.54299"><ele></ele><time>2015-11-5T6:53:38Z</time></trkpt>
<trkpt lat="46.09532" lon="7.54298"><ele></ele><time>2015-11-5T6:53:41Z</time></trkpt>
<trkpt lat="46.09531" lon="7.54298"><ele></ele><time>2015-11-5T6:53:44Z</time></trkpt>
<trkpt lat="46.09532" lon="7.54298"><ele></ele><time>2015-11-5T6:53:47Z</time></trkpt>
<trkpt lat="46.09532" lon="7.54298"><ele></ele><time>2015-11-5T6:53:50Z</time></trkpt>
<trkpt lat="46.09532" lon="7.54298"><ele></ele><time>2015-11-5T6:53:53Z</time></trkpt>
<trkpt lat="46.09533" lon="7.54298"><ele></ele><time>2015-11-5T6:53:56Z</time></trkpt>
<trkpt lat="46.09533" lon="7.54298"><ele></ele><time>2015-11-5T6:53:59Z</time></trkpt>
<trkpt lat="46.09532" lon="7.54298"><ele></ele><time>2015-11-5T6:54:2Z</time></trkpt>
<trkpt lat="46.09533" lon="7.54297"><ele></ele><time>2015-11-5T6:54:5Z</time></trkpt>
<trkpt lat="46.09532" lon="7.54299"><ele></ele><time>2015-11-5T6:54:8Z</time></trkpt>
<trkpt lat="46.09532" lon="7.54298"><ele></ele><time>2015-11-5T6:54:11Z</time></trkpt>
<trkpt lat="46.09533" lon="7.54298"><ele></ele><time>2015-11-5T6:54:14Z</time></trkpt>
<trkpt lat="46.09532" lon="7.54298"><ele></ele><time>2015-11-5T6:54:17Z</time></trkpt>
<trkpt lat="46.09532" lon="7.54298"><ele></ele><time>2015-11-5T6:54:20Z</time></trkpt>
<trkpt lat="46.09533" lon="7.54298"><ele></ele><time>2015-11-5T6:54:23Z</time></trkpt>
<trkpt lat="46.09533" lon="7.54299"><ele></ele><time>2015-11-5T6:54:26Z</time></trkpt>
<trkpt lat="46.09533" lon="7.54299"><ele></ele><time>2015-11-5T6:54:29Z</time></trkpt>
<trkpt lat="46.09533" lon="7.54299"><ele></ele><time>2015-11-5T6:54:32Z</time></trkpt>
<trkpt lat="46.09533" lon="7.54299"><ele></ele><time>2015-11-5T6:54:35Z</time></trkpt>
<trkpt lat="46.09532" lon="7.54299"><ele></ele><time>2015-11-5T6:54:38Z</time></trkpt>
<trkpt lat="46.09532" lon="7.54298"><ele></ele><time>2015-11-5T6:54:41Z</time></trkpt>
<trkpt lat="46.09531" lon="7.543"><ele></ele><time>2015-11-5T6:54:44Z</time></trkpt>
<trkpt lat="46.0953" lon="7.54298"><ele></ele><time>2015-11-5T6:54:47Z</time></trkpt>
<trkpt lat="46.0953" lon="7.54299"><ele></ele><time>2015-11-5T6:54:50Z</time></trkpt>
<trkpt lat="46.09533" lon="7.54305"><ele></ele><time>2015-11-5T6:54:53Z</time></trkpt>
<trkpt lat="46.09535" lon="7.54307"><ele></ele><time>2015-11-5T6:54:56Z</time></trkpt>
<trkpt lat="46.0954" lon="7.54314"><ele></ele><time>2015-11-5T6:54:59Z</time></trkpt>
<trkpt lat="46.09539" lon="7.54311"><ele></ele><time>2015-11-5T6:55:2Z</time></trkpt>
<trkpt lat="46.09553" lon="7.54327"><ele></ele><time>2015-11-5T6:55:5Z</time></trkpt>
<trkpt lat="46.09564" lon="7.54338"><ele></ele><time>2015-11-5T6:55:8Z</time></trkpt>
<trkpt lat="46.09565" lon="7.54341"><ele></ele><time>2015-11-5T6:55:11Z</time></trkpt>
<trkpt lat="46.09567" lon="7.54349"><ele></ele><time>2015-11-5T6:55:14Z</time></trkpt>
<trkpt lat="46.0957" lon="7.54353"><ele></ele><time>2015-11-5T6:55:17Z</time></trkpt>
<trkpt lat="46.09572" lon="7.54355"><ele></ele><time>2015-11-5T6:55:20Z</time></trkpt>
<trkpt lat="46.09579" lon="7.54356"><ele></ele><time>2015-11-5T6:55:23Z</time></trkpt>
<trkpt lat="46.09581" lon="7.54356"><ele></ele><time>2015-11-5T6:55:26Z</time></trkpt>
<trkpt lat="46.09583" lon="7.5436"><ele></ele><time>2015-11-5T6:55:29Z</time></trkpt>
<trkpt lat="46.09584" lon="7.54365"><ele></ele><time>2015-11-5T6:55:32Z</time></trkpt>
<trkpt lat="46.0958" lon="7.54389"><ele></ele><time>2015-11-5T6:55:35Z</time></trkpt>
<trkpt lat="46.09578" lon="7.54398"><ele></ele><time>2015-11-5T6:55:38Z</time></trkpt>
<trkpt lat="46.09578" lon="7.54403"><ele></ele><time>2015-11-5T6:55:41Z</time></trkpt>
<trkpt lat="46.09579" lon="7.54408"><ele></ele><time>2015-11-5T6:55:44Z</time></trkpt>
<trkpt lat="46.0958" lon="7.54411"><ele></ele><time>2015-11-5T6:55:47Z</time></trkpt>
<trkpt lat="46.09587" lon="7.54421"><ele></ele><time>2015-11-5T6:55:50Z</time></trkpt>
<trkpt lat="46.09593" lon="7.5443"><ele></ele><time>2015-11-5T6:55:53Z</time></trkpt>
<trkpt lat="46.09594" lon="7.5443"><ele></ele><time>2015-11-5T6:55:56Z</time></trkpt>
<trkpt lat="46.09595" lon="7.54431"><ele></ele><time>2015-11-5T6:55:59Z</time></trkpt>
<trkpt lat="46.09597" lon="7.54432"><ele></ele><time>2015-11-5T6:56:2Z</time></trkpt>
<trkpt lat="46.09597" lon="7.54454"><ele></ele><time>2015-11-5T6:56:5Z</time></trkpt>
<trkpt lat="46.09598" lon="7.54463"><ele></ele><time>2015-11-5T6:56:8Z</time></trkpt>
<trkpt lat="46.09598" lon="7.5447"><ele></ele><time>2015-11-5T6:56:11Z</time></trkpt>
<trkpt lat="46.09598" lon="7.54476"><ele></ele><time>2015-11-5T6:56:14Z</time></trkpt>
<trkpt lat="46.09606" lon="7.54483"><ele></ele><time>2015-11-5T6:56:17Z</time></trkpt>
<trkpt lat="46.09606" lon="7.54483"><ele></ele><time>2015-11-5T6:56:20Z</time></trkpt>
<trkpt lat="46.09606" lon="7.54473"><ele></ele><time>2015-11-5T6:56:23Z</time></trkpt>
<trkpt lat="46.09608" lon="7.54466"><ele></ele><time>2015-11-5T6:56:26Z</time></trkpt>
<trkpt lat="46.09615" lon="7.54465"><ele></ele><time>2015-11-5T6:56:29Z</time></trkpt>
<trkpt lat="46.09618" lon="7.54463"><ele></ele><time>2015-11-5T6:56:32Z</time></trkpt>
<trkpt lat="46.09619" lon="7.54456"><ele></ele><time>2015-11-5T6:56:35Z</time></trkpt>
<trkpt lat="46.09625" lon="7.5444"><ele></ele><time>2015-11-5T6:56:38Z</time></trkpt>
<trkpt lat="46.09629" lon="7.54432"><ele></ele><time>2015-11-5T6:56:41Z</time></trkpt>
<trkpt lat="46.0963" lon="7.5443"><ele></ele><time>2015-11-5T6:56:44Z</time></trkpt>
<trkpt lat="46.0963" lon="7.54427"><ele></ele><time>2015-11-5T6:56:47Z</time></trkpt>
<trkpt lat="46.09637" lon="7.54425"><ele></ele><time>2015-11-5T6:56:50Z</time></trkpt>
<trkpt lat="46.09638" lon="7.54423"><ele></ele><time>2015-11-5T6:56:53Z</time></trkpt>
<trkpt lat="46.09639" lon="7.54423"><ele></ele><time>2015-11-5T6:56:56Z</time></trkpt>
<trkpt lat="46.09643" lon="7.5442"><ele></ele><time>2015-11-5T6:56:59Z</time></trkpt>
<trkpt lat="46.09645" lon="7.54416"><ele></ele><time>2015-11-5T6:57:2Z</time></trkpt>
<trkpt lat="46.09652" lon="7.54413"><ele></ele><time>2015-11-5T6:57:5Z</time></trkpt>
<trkpt lat="46.09656" lon="7.5441"><ele></ele><time>2015-11-5T6:57:8Z</time></trkpt>
<trkpt lat="46.09657" lon="7.54408"><ele></ele><time>2015-11-5T6:57:11Z</time></trkpt>
<trkpt lat="46.09658" lon="7.54405"><ele></ele><time>2015-11-5T6:57:14Z</time></trkpt>
<trkpt lat="46.09659" lon="7.54402"><ele></ele><time>2015-11-5T6:57:17Z</time></trkpt>
<trkpt lat="46.09671" lon="7.5439"><ele></ele><time>2015-11-5T6:57:20Z</time></trkpt>
<trkpt lat="46.09683" lon="7.54378"><ele></ele><time>2015-11-5T6:57:23Z</time></trkpt>
<trkpt lat="46.09683" lon="7.54377"><ele></ele><time>2015-11-5T6:57:26Z</time></trkpt>
<trkpt lat="46.09684" lon="7.54376"><ele></ele><time>2015-11-5T6:57:29Z</time></trkpt>
<trkpt lat="46.09686" lon="7.54376"><ele></ele><time>2015-11-5T6:57:32Z</time></trkpt>
<trkpt lat="46.09693" lon="7.54373"><ele></ele><time>2015-11-5T6:57:35Z</time></trkpt>
<trkpt lat="46.09703" lon="7.54364"><ele></ele><time>2015-11-5T6:57:38Z</time></trkpt>
<trkpt lat="46.09704" lon="7.54364"><ele></ele><time>2015-11-5T6:57:41Z</time></trkpt>
<trkpt lat="46.09707" lon="7.54363"><ele></ele><time>2015-11-5T6:57:44Z</time></trkpt>
<trkpt lat="46.09721" lon="7.54347"><ele></ele><time>2015-11-5T6:57:47Z</time></trkpt>
<trkpt lat="46.09728" lon="7.54329"><ele></ele><time>2015-11-5T6:57:50Z</time></trkpt>
<trkpt lat="46.09727" lon="7.54326"><ele></ele><time>2015-11-5T6:57:53Z</time></trkpt>
<trkpt lat="46.09726" lon="7.54326"><ele></ele><time>2015-11-5T6:57:56Z</time></trkpt>
<trkpt lat="46.09727" lon="7.54326"><ele></ele><time>2015-11-5T6:57:59Z</time></trkpt>
<trkpt lat="46.09727" lon="7.54326"><ele></ele><time>2015-11-5T6:58:2Z</time></trkpt>
<trkpt lat="46.09728" lon="7.54327"><ele></ele><time>2015-11-5T6:58:5Z</time></trkpt>
<trkpt lat="46.09728" lon="7.54328"><ele></ele><time>2015-11-5T6:58:8Z</time></trkpt>
<trkpt lat="46.09725" lon="7.54311"><ele></ele><time>2015-11-5T6:58:11Z</time></trkpt>
<trkpt lat="46.09724" lon="7.54305"><ele></ele><time>2015-11-5T6:58:14Z</time></trkpt>
<trkpt lat="46.09721" lon="7.54289"><ele></ele><time>2015-11-5T6:58:17Z</time></trkpt>
<trkpt lat="46.09715" lon="7.54264"><ele></ele><time>2015-11-5T6:58:20Z</time></trkpt>
<trkpt lat="46.09708" lon="7.54245"><ele></ele><time>2015-11-5T6:58:23Z</time></trkpt>
<trkpt lat="46.09695" lon="7.54226"><ele></ele><time>2015-11-5T6:58:26Z</time></trkpt>
<trkpt lat="46.09691" lon="7.54221"><ele></ele><time>2015-11-5T6:58:29Z</time></trkpt>
<trkpt lat="46.09671" lon="7.54215"><ele></ele><time>2015-11-5T6:58:32Z</time></trkpt>
<trkpt lat="46.09656" lon="7.54229"><ele></ele><time>2015-11-5T6:58:35Z</time></trkpt>
<trkpt lat="46.0964" lon="7.54228"><ele></ele><time>2015-11-5T6:58:38Z</time></trkpt>
<trkpt lat="46.09622" lon="7.54221"><ele></ele><time>2015-11-5T6:58:41Z</time></trkpt>
<trkpt lat="46.09621" lon="7.54221"><ele></ele><time>2015-11-5T6:58:44Z</time></trkpt>
<trkpt lat="46.09621" lon="7.54222"><ele></ele><time>2015-11-5T6:58:47Z</time></trkpt>
<trkpt lat="46.09619" lon="7.54222"><ele></ele><time>2015-11-5T6:58:50Z</time></trkpt>
<trkpt lat="46.09614" lon="7.54222"><ele></ele><time>2015-11-5T6:58:53Z</time></trkpt>
<trkpt lat="46.09605" lon="7.54219"><ele></ele><time>2015-11-5T6:58:56Z</time></trkpt>
<trkpt lat="46.09594" lon="7.54208"><ele></ele><time>2015-11-5T6:58:59Z</time></trkpt>
<trkpt lat="46.09577" lon="7.54196"><ele></ele><time>2015-11-5T6:59:2Z</time></trkpt>
<trkpt lat="46.09575" lon="7.54191"><ele></ele><time>2015-11-5T6:59:5Z</time></trkpt>
<trkpt lat="46.09575" lon="7.54191"><ele></ele><time>2015-11-5T6:59:8Z</time></trkpt>
<trkpt lat="46.09575" lon="7.54191"><ele></ele><time>2015-11-5T6:59:11Z</time></trkpt>
<trkpt lat="46.09575" lon="7.54191"><ele></ele><time>2015-11-5T6:59:14Z</time></trkpt>
<trkpt lat="46.09564" lon="7.54174"><ele></ele><time>2015-11-5T6:59:17Z</time></trkpt>
<trkpt lat="46.09561" lon="7.54169"><ele></ele><time>2015-11-5T6:59:20Z</time></trkpt>
<trkpt lat="46.09553" lon="7.54151"><ele></ele><time>2015-11-5T6:59:23Z</time></trkpt>
<trkpt lat="46.09537" lon="7.54137"><ele></ele><time>2015-11-5T6:59:26Z</time></trkpt>
<trkpt lat="46.09525" lon="7.54134"><ele></ele><time>2015-11-5T6:59:29Z</time></trkpt>
<trkpt lat="46.09507" lon="7.54122"><ele></ele><time>2015-11-5T6:59:32Z</time></trkpt>
<trkpt lat="46.095" lon="7.54107"><ele></ele><time>2015-11-5T6:59:35Z</time></trkpt>
<trkpt lat="46.09495" lon="7.54099"><ele></ele><time>2015-11-5T6:59:38Z</time></trkpt>
<trkpt lat="46.09479" lon="7.54085"><ele></ele><time>2015-11-5T6:59:41Z</time></trkpt>
<trkpt lat="46.09473" lon="7.54083"><ele></ele><time>2015-11-5T6:59:44Z</time></trkpt>
<trkpt lat="46.09455" lon="7.54084"><ele></ele><time>2015-11-5T6:59:47Z</time></trkpt>
<trkpt lat="46.09441" lon="7.5409"><ele></ele><time>2015-11-5T6:59:50Z</time></trkpt>
<trkpt lat="46.0942" lon="7.541"><ele></ele><time>2015-11-5T6:59:53Z</time></trkpt>
<trkpt lat="46.09399" lon="7.5409"><ele></ele><time>2015-11-5T6:59:56Z</time></trkpt>
<trkpt lat="46.09386" lon="7.54072"><ele></ele><time>2015-11-5T6:59:59Z</time></trkpt>
<trkpt lat="46.09371" lon="7.54086"><ele></ele><time>2015-11-5T7:0:2Z</time></trkpt>
<trkpt lat="46.09351" lon="7.54086"><ele></ele><time>2015-11-5T7:0:5Z</time></trkpt>
<trkpt lat="46.09332" lon="7.54066"><ele></ele><time>2015-11-5T7:0:8Z</time></trkpt>
<trkpt lat="46.09328" lon="7.5406"><ele></ele><time>2015-11-5T7:0:11Z</time></trkpt>
<trkpt lat="46.09321" lon="7.54033"><ele></ele><time>2015-11-5T7:0:14Z</time></trkpt>
<trkpt lat="46.0931" lon="7.54009"><ele></ele><time>2015-11-5T7:0:17Z</time></trkpt>
<trkpt lat="46.09306" lon="7.54"><ele></ele><time>2015-11-5T7:0:20Z</time></trkpt>
<trkpt lat="46.09298" lon="7.53983"><ele></ele><time>2015-11-5T7:0:23Z</time></trkpt>
<trkpt lat="46.09284" lon="7.53968"><ele></ele><time>2015-11-5T7:0:26Z</time></trkpt>
<trkpt lat="46.09271" lon="7.53965"><ele></ele><time>2015-11-5T7:0:29Z</time></trkpt>
<trkpt lat="46.09256" lon="7.53961"><ele></ele><time>2015-11-5T7:0:32Z</time></trkpt>
<trkpt lat="46.09232" lon="7.53947"><ele></ele><time>2015-11-5T7:0:35Z</time></trkpt>
<trkpt lat="46.09225" lon="7.53944"><ele></ele><time>2015-11-5T7:0:38Z</time></trkpt>
<trkpt lat="46.09213" lon="7.5393"><ele></ele><time>2015-11-5T7:0:41Z</time></trkpt>
<trkpt lat="46.09232" lon="7.53934"><ele></ele><time>2015-11-5T7:0:44Z</time></trkpt>
<trkpt lat="46.09242" lon="7.53936"><ele></ele><time>2015-11-5T7:0:47Z</time></trkpt>
<trkpt lat="46.09252" lon="7.53937"><ele></ele><time>2015-11-5T7:0:50Z</time></trkpt>
<trkpt lat="46.09252" lon="7.53937"><ele></ele><time>2015-11-5T7:0:53Z</time></trkpt>
<trkpt lat="46.09253" lon="7.53937"><ele></ele><time>2015-11-5T7:0:56Z</time></trkpt>
<trkpt lat="46.09257" lon="7.53937"><ele></ele><time>2015-11-5T7:0:59Z</time></trkpt>
<trkpt lat="46.09275" lon="7.5393"><ele></ele><time>2015-11-5T7:1:2Z</time></trkpt>
<trkpt lat="46.09292" lon="7.5391"><ele></ele><time>2015-11-5T7:1:5Z</time></trkpt>
<trkpt lat="46.09314" lon="7.53914"><ele></ele><time>2015-11-5T7:1:8Z</time></trkpt>
<trkpt lat="46.09326" lon="7.53922"><ele></ele><time>2015-11-5T7:1:11Z</time></trkpt>
<trkpt lat="46.0934" lon="7.53942"><ele></ele><time>2015-11-5T7:1:14Z</time></trkpt>
<trkpt lat="46.09355" lon="7.53951"><ele></ele><time>2015-11-5T7:1:17Z</time></trkpt>
<trkpt lat="46.09367" lon="7.53959"><ele></ele><time>2015-11-5T7:1:20Z</time></trkpt>
<trkpt lat="46.09382" lon="7.53974"><ele></ele><time>2015-11-5T7:1:23Z</time></trkpt>
<trkpt lat="46.09404" lon="7.53984"><ele></ele><time>2015-11-5T7:1:26Z</time></trkpt>
<trkpt lat="46.09423" lon="7.53988"><ele></ele><time>2015-11-5T7:1:29Z</time></trkpt>
<trkpt lat="46.09436" lon="7.53989"><ele></ele><time>2015-11-5T7:1:32Z</time></trkpt>
<trkpt lat="46.09443" lon="7.53991"><ele></ele><time>2015-11-5T7:1:35Z</time></trkpt>
<trkpt lat="46.09449" lon="7.53992"><ele></ele><time>2015-11-5T7:1:38Z</time></trkpt>
<trkpt lat="46.09469" lon="7.5399"><ele></ele><time>2015-11-5T7:1:41Z</time></trkpt>
<trkpt lat="46.09491" lon="7.5399"><ele></ele><time>2015-11-5T7:1:44Z</time></trkpt>
<trkpt lat="46.09512" lon="7.53988"><ele></ele><time>2015-11-5T7:1:47Z</time></trkpt>
<trkpt lat="46.09532" lon="7.53982"><ele></ele><time>2015-11-5T7:1:50Z</time></trkpt>
<trkpt lat="46.09553" lon="7.53989"><ele></ele><time>2015-11-5T7:1:53Z</time></trkpt>
<trkpt lat="46.09561" lon="7.5399"><ele></ele><time>2015-11-5T7:1:56Z</time></trkpt>
<trkpt lat="46.09582" lon="7.53981"><ele></ele><time>2015-11-5T7:1:59Z</time></trkpt>
<trkpt lat="46.09587" lon="7.53973"><ele></ele><time>2015-11-5T7:2:2Z</time></trkpt>
<trkpt lat="46.09591" lon="7.53965"><ele></ele><time>2015-11-5T7:2:5Z</time></trkpt>
<trkpt lat="46.09602" lon="7.53949"><ele></ele><time>2015-11-5T7:2:8Z</time></trkpt>
<trkpt lat="46.09607" lon="7.5394"><ele></ele><time>2015-11-5T7:2:11Z</time></trkpt>
<trkpt lat="46.09619" lon="7.53911"><ele></ele><time>2015-11-5T7:2:14Z</time></trkpt>
<trkpt lat="46.09634" lon="7.53885"><ele></ele><time>2015-11-5T7:2:17Z</time></trkpt>
<trkpt lat="46.09648" lon="7.53862"><ele></ele><time>2015-11-5T7:2:20Z</time></trkpt>
<trkpt lat="46.09653" lon="7.53856"><ele></ele><time>2015-11-5T7:2:23Z</time></trkpt>
<trkpt lat="46.09669" lon="7.53841"><ele></ele><time>2015-11-5T7:2:26Z</time></trkpt>
<trkpt lat="46.09675" lon="7.53835"><ele></ele><time>2015-11-5T7:2:29Z</time></trkpt>
<trkpt lat="46.09692" lon="7.53815"><ele></ele><time>2015-11-5T7:2:32Z</time></trkpt>
<trkpt lat="46.09697" lon="7.53808"><ele></ele><time>2015-11-5T7:2:35Z</time></trkpt>
<trkpt lat="46.09702" lon="7.53801"><ele></ele><time>2015-11-5T7:2:38Z</time></trkpt>
<trkpt lat="46.09715" lon="7.53775"><ele></ele><time>2015-11-5T7:2:41Z</time></trkpt>
<trkpt lat="46.09728" lon="7.53753"><ele></ele><time>2015-11-5T7:2:44Z</time></trkpt>
<trkpt lat="46.09741" lon="7.53731"><ele></ele><time>2015-11-5T7:2:47Z</time></trkpt>
<trkpt lat="46.09746" lon="7.53724"><ele></ele><time>2015-11-5T7:2:50Z</time></trkpt>
<trkpt lat="46.09765" lon="7.53706"><ele></ele><time>2015-11-5T7:2:53Z</time></trkpt>
<trkpt lat="46.09781" lon="7.53686"><ele></ele><time>2015-11-5T7:2:56Z</time></trkpt>
<trkpt lat="46.09787" lon="7.53681"><ele></ele><time>2015-11-5T7:2:59Z</time></trkpt>
<trkpt lat="46.09805" lon="7.53663"><ele></ele><time>2015-11-5T7:3:2Z</time></trkpt>
<trkpt lat="46.09823" lon="7.53646"><ele></ele><time>2015-11-5T7:3:5Z</time></trkpt>
<trkpt lat="46.09834" lon="7.53635"><ele></ele><time>2015-11-5T7:3:8Z</time></trkpt>
<trkpt lat="46.09847" lon="7.53613"><ele></ele><time>2015-11-5T7:3:11Z</time></trkpt>
<trkpt lat="46.09851" lon="7.53607"><ele></ele><time>2015-11-5T7:3:14Z</time></trkpt>
<trkpt lat="46.09866" lon="7.5359"><ele></ele><time>2015-11-5T7:3:17Z</time></trkpt>
<trkpt lat="46.09882" lon="7.53572"><ele></ele><time>2015-11-5T7:3:20Z</time></trkpt>
<trkpt lat="46.09896" lon="7.53552"><ele></ele><time>2015-11-5T7:3:23Z</time></trkpt>
<trkpt lat="46.09901" lon="7.53546"><ele></ele><time>2015-11-5T7:3:26Z</time></trkpt>
<trkpt lat="46.09906" lon="7.53541"><ele></ele><time>2015-11-5T7:3:29Z</time></trkpt>
<trkpt lat="46.09921" lon="7.53523"><ele></ele><time>2015-11-5T7:3:32Z</time></trkpt>
<trkpt lat="46.09938" lon="7.53502"><ele></ele><time>2015-11-5T7:3:35Z</time></trkpt>
<trkpt lat="46.09945" lon="7.53495"><ele></ele><time>2015-11-5T7:3:38Z</time></trkpt>
<trkpt lat="46.09953" lon="7.53489"><ele></ele><time>2015-11-5T7:3:41Z</time></trkpt>
<trkpt lat="46.09973" lon="7.53475"><ele></ele><time>2015-11-5T7:3:44Z</time></trkpt>
<trkpt lat="46.09991" lon="7.53462"><ele></ele><time>2015-11-5T7:3:47Z</time></trkpt>
<trkpt lat="46.10013" lon="7.53453"><ele></ele><time>2015-11-5T7:3:50Z</time></trkpt>
<trkpt lat="46.10035" lon="7.53442"><ele></ele><time>2015-11-5T7:3:53Z</time></trkpt>
<trkpt lat="46.10057" lon="7.5343"><ele></ele><time>2015-11-5T7:3:56Z</time></trkpt>
<trkpt lat="46.10063" lon="7.53428"><ele></ele><time>2015-11-5T7:3:59Z</time></trkpt>
<trkpt lat="46.10075" lon="7.53425"><ele></ele><time>2015-11-5T7:4:2Z</time></trkpt>
<trkpt lat="46.10094" lon="7.53415"><ele></ele><time>2015-11-5T7:4:5Z</time></trkpt>
<trkpt lat="46.101" lon="7.5341"><ele></ele><time>2015-11-5T7:4:8Z</time></trkpt>
<trkpt lat="46.10104" lon="7.53405"><ele></ele><time>2015-11-5T7:4:11Z</time></trkpt>
<trkpt lat="46.10112" lon="7.53375"><ele></ele><time>2015-11-5T7:4:14Z</time></trkpt>
<trkpt lat="46.10124" lon="7.53358"><ele></ele><time>2015-11-5T7:4:17Z</time></trkpt>
<trkpt lat="46.10132" lon="7.53348"><ele></ele><time>2015-11-5T7:4:20Z</time></trkpt>
<trkpt lat="46.10131" lon="7.53351"><ele></ele><time>2015-11-5T7:4:23Z</time></trkpt>
<trkpt lat="46.10125" lon="7.53355"><ele></ele><time>2015-11-5T7:4:26Z</time></trkpt>
<trkpt lat="46.10125" lon="7.53356"><ele></ele><time>2015-11-5T7:4:29Z</time></trkpt>
<trkpt lat="46.10124" lon="7.53357"><ele></ele><time>2015-11-5T7:4:32Z</time></trkpt>
<trkpt lat="46.10123" lon="7.53358"><ele></ele><time>2015-11-5T7:4:35Z</time></trkpt>
<trkpt lat="46.10132" lon="7.53349"><ele></ele><time>2015-11-5T7:4:38Z</time></trkpt>
<trkpt lat="46.10143" lon="7.53327"><ele></ele><time>2015-11-5T7:4:41Z</time></trkpt>
<trkpt lat="46.10148" lon="7.53321"><ele></ele><time>2015-11-5T7:4:44Z</time></trkpt>
<trkpt lat="46.10165" lon="7.53314"><ele></ele><time>2015-11-5T7:4:47Z</time></trkpt>
<trkpt lat="46.10167" lon="7.53313"><ele></ele><time>2015-11-5T7:4:50Z</time></trkpt>
<trkpt lat="46.10186" lon="7.53307"><ele></ele><time>2015-11-5T7:4:53Z</time></trkpt>
<trkpt lat="46.10204" lon="7.53298"><ele></ele><time>2015-11-5T7:4:56Z</time></trkpt>
<trkpt lat="46.10222" lon="7.53294"><ele></ele><time>2015-11-5T7:4:59Z</time></trkpt>
<trkpt lat="46.10228" lon="7.53295"><ele></ele><time>2015-11-5T7:5:2Z</time></trkpt>
<trkpt lat="46.10237" lon="7.53299"><ele></ele><time>2015-11-5T7:5:5Z</time></trkpt>
<trkpt lat="46.10247" lon="7.53324"><ele></ele><time>2015-11-5T7:5:8Z</time></trkpt>
<trkpt lat="46.10252" lon="7.53328"><ele></ele><time>2015-11-5T7:5:11Z</time></trkpt>
<trkpt lat="46.10268" lon="7.53342"><ele></ele><time>2015-11-5T7:5:14Z</time></trkpt>
<trkpt lat="46.10275" lon="7.53366"><ele></ele><time>2015-11-5T7:5:17Z</time></trkpt>
<trkpt lat="46.10275" lon="7.53369"><ele></ele><time>2015-11-5T7:5:20Z</time></trkpt>
<trkpt lat="46.10275" lon="7.53369"><ele></ele><time>2015-11-5T7:5:23Z</time></trkpt>
<trkpt lat="46.10274" lon="7.53369"><ele></ele><time>2015-11-5T7:5:26Z</time></trkpt>
<trkpt lat="46.10284" lon="7.53365"><ele></ele><time>2015-11-5T7:5:29Z</time></trkpt>
<trkpt lat="46.10303" lon="7.53365"><ele></ele><time>2015-11-5T7:5:32Z</time></trkpt>
<trkpt lat="46.10311" lon="7.5336"><ele></ele><time>2015-11-5T7:5:35Z</time></trkpt>
<trkpt lat="46.10329" lon="7.53346"><ele></ele><time>2015-11-5T7:5:38Z</time></trkpt>
<trkpt lat="46.10346" lon="7.5334"><ele></ele><time>2015-11-5T7:5:41Z</time></trkpt>
<trkpt lat="46.1035" lon="7.53334"><ele></ele><time>2015-11-5T7:5:44Z</time></trkpt>
<trkpt lat="46.10353" lon="7.53331"><ele></ele><time>2015-11-5T7:5:47Z</time></trkpt>
<trkpt lat="46.10367" lon="7.53324"><ele></ele><time>2015-11-5T7:5:50Z</time></trkpt>
<trkpt lat="46.10368" lon="7.53323"><ele></ele><time>2015-11-5T7:5:53Z</time></trkpt>
<trkpt lat="46.10373" lon="7.53324"><ele></ele><time>2015-11-5T7:5:56Z</time></trkpt>
<trkpt lat="46.10376" lon="7.53327"><ele></ele><time>2015-11-5T7:5:59Z</time></trkpt>
<trkpt lat="46.10377" lon="7.53327"><ele></ele><time>2015-11-5T7:6:2Z</time></trkpt>
<trkpt lat="46.10396" lon="7.53326"><ele></ele><time>2015-11-5T7:6:5Z</time></trkpt>
<trkpt lat="46.10413" lon="7.53316"><ele></ele><time>2015-11-5T7:6:8Z</time></trkpt>
<trkpt lat="46.10426" lon="7.53302"><ele></ele><time>2015-11-5T7:6:11Z</time></trkpt>
<trkpt lat="46.10426" lon="7.53302"><ele></ele><time>2015-11-5T7:6:14Z</time></trkpt>
<trkpt lat="46.10426" lon="7.53301"><ele></ele><time>2015-11-5T7:6:17Z</time></trkpt>
<trkpt lat="46.10434" lon="7.53277"><ele></ele><time>2015-11-5T7:6:20Z</time></trkpt>
<trkpt lat="46.10436" lon="7.53271"><ele></ele><time>2015-11-5T7:6:23Z</time></trkpt>
<trkpt lat="46.10444" lon="7.53247"><ele></ele><time>2015-11-5T7:6:26Z</time></trkpt>
<trkpt lat="46.10448" lon="7.53234"><ele></ele><time>2015-11-5T7:6:29Z</time></trkpt>
<trkpt lat="46.10452" lon="7.53218"><ele></ele><time>2015-11-5T7:6:32Z</time></trkpt>
<trkpt lat="46.10457" lon="7.53193"><ele></ele><time>2015-11-5T7:6:35Z</time></trkpt>
<trkpt lat="46.10458" lon="7.53185"><ele></ele><time>2015-11-5T7:6:38Z</time></trkpt>
<trkpt lat="46.10466" lon="7.53163"><ele></ele><time>2015-11-5T7:6:41Z</time></trkpt>
<trkpt lat="46.10485" lon="7.53151"><ele></ele><time>2015-11-5T7:6:44Z</time></trkpt>
<trkpt lat="46.10501" lon="7.53137"><ele></ele><time>2015-11-5T7:6:47Z</time></trkpt>
<trkpt lat="46.10504" lon="7.53134"><ele></ele><time>2015-11-5T7:6:50Z</time></trkpt>
<trkpt lat="46.10511" lon="7.5313"><ele></ele><time>2015-11-5T7:6:53Z</time></trkpt>
<trkpt lat="46.10511" lon="7.5313"><ele></ele><time>2015-11-5T7:6:56Z</time></trkpt>
<trkpt lat="46.10511" lon="7.5313"><ele></ele><time>2015-11-5T7:6:59Z</time></trkpt>
<trkpt lat="46.10519" lon="7.53123"><ele></ele><time>2015-11-5T7:7:2Z</time></trkpt>
<trkpt lat="46.10527" lon="7.53111"><ele></ele><time>2015-11-5T7:7:5Z</time></trkpt>
<trkpt lat="46.10534" lon="7.53103"><ele></ele><time>2015-11-5T7:7:8Z</time></trkpt>
<trkpt lat="46.10537" lon="7.531"><ele></ele><time>2015-11-5T7:7:11Z</time></trkpt>
<trkpt lat="46.10543" lon="7.53095"><ele></ele><time>2015-11-5T7:7:14Z</time></trkpt>
<trkpt lat="46.10552" lon="7.53085"><ele></ele><time>2015-11-5T7:7:17Z</time></trkpt>
<trkpt lat="46.10556" lon="7.53079"><ele></ele><time>2015-11-5T7:7:20Z</time></trkpt>
<trkpt lat="46.10559" lon="7.53072"><ele></ele><time>2015-11-5T7:7:23Z</time></trkpt>
<trkpt lat="46.10563" lon="7.53064"><ele></ele><time>2015-11-5T7:7:26Z</time></trkpt>
<trkpt lat="46.10569" lon="7.53051"><ele></ele><time>2015-11-5T7:7:29Z</time></trkpt>
<trkpt lat="46.10549" lon="7.53049"><ele></ele><time>2015-11-5T7:7:32Z</time></trkpt>
<trkpt lat="46.10531" lon="7.53051"><ele></ele><time>2015-11-5T7:7:35Z</time></trkpt>
<trkpt lat="46.10528" lon="7.53051"><ele></ele><time>2015-11-5T7:7:38Z</time></trkpt>
<trkpt lat="46.1052" lon="7.53048"><ele></ele><time>2015-11-5T7:7:41Z</time></trkpt>
<trkpt lat="46.10517" lon="7.5305"><ele></ele><time>2015-11-5T7:7:44Z</time></trkpt>
<trkpt lat="46.1052" lon="7.53029"><ele></ele><time>2015-11-5T7:7:47Z</time></trkpt>
<trkpt lat="46.10521" lon="7.53027"><ele></ele><time>2015-11-5T7:7:50Z</time></trkpt>
<trkpt lat="46.10523" lon="7.5302"><ele></ele><time>2015-11-5T7:7:53Z</time></trkpt>
<trkpt lat="46.10525" lon="7.53014"><ele></ele><time>2015-11-5T7:7:56Z</time></trkpt>
<trkpt lat="46.10517" lon="7.53012"><ele></ele><time>2015-11-5T7:7:59Z</time></trkpt>
<trkpt lat="46.10513" lon="7.53013"><ele></ele><time>2015-11-5T7:8:2Z</time></trkpt>
<trkpt lat="46.10514" lon="7.53008"><ele></ele><time>2015-11-5T7:8:5Z</time></trkpt>
<trkpt lat="46.10516" lon="7.52994"><ele></ele><time>2015-11-5T7:8:8Z</time></trkpt>
<trkpt lat="46.10528" lon="7.52975"><ele></ele><time>2015-11-5T7:8:11Z</time></trkpt>
<trkpt lat="46.10538" lon="7.52953"><ele></ele><time>2015-11-5T7:8:14Z</time></trkpt>
<trkpt lat="46.10539" lon="7.52948"><ele></ele><time>2015-11-5T7:8:17Z</time></trkpt>
<trkpt lat="46.10534" lon="7.52947"><ele></ele><time>2015-11-5T7:8:20Z</time></trkpt>
<trkpt lat="46.10532" lon="7.52944"><ele></ele><time>2015-11-5T7:8:23Z</time></trkpt>
<trkpt lat="46.10527" lon="7.52941"><ele></ele><time>2015-11-5T7:8:26Z</time></trkpt>
<trkpt lat="46.10536" lon="7.52953"><ele></ele><time>2015-11-5T7:8:29Z</time></trkpt>
<trkpt lat="46.10536" lon="7.52953"><ele></ele><time>2015-11-5T7:8:32Z</time></trkpt>
<trkpt lat="46.10538" lon="7.52951"><ele></ele><time>2015-11-5T7:8:35Z</time></trkpt>
<trkpt lat="46.1053" lon="7.52942"><ele></ele><time>2015-11-5T7:8:38Z</time></trkpt>
<trkpt lat="46.10529" lon="7.52943"><ele></ele><time>2015-11-5T7:8:41Z</time></trkpt>
<trkpt lat="46.10531" lon="7.52933"><ele></ele><time>2015-11-5T7:8:44Z</time></trkpt>
<trkpt lat="46.10534" lon="7.52929"><ele></ele><time>2015-11-5T7:8:47Z</time></trkpt>
<trkpt lat="46.10535" lon="7.52928"><ele></ele><time>2015-11-5T7:8:50Z</time></trkpt>
<trkpt lat="46.10535" lon="7.5293"><ele></ele><time>2015-11-5T7:8:53Z</time></trkpt>
<trkpt lat="46.10535" lon="7.5293"><ele></ele><time>2015-11-5T7:8:56Z</time></trkpt>
<trkpt lat="46.10535" lon="7.5293"><ele></ele><time>2015-11-5T7:8:59Z</time></trkpt>
<trkpt lat="46.10535" lon="7.5293"><ele></ele><time>2015-11-5T7:9:2Z</time></trkpt>
<trkpt lat="46.10535" lon="7.5293"><ele></ele><time>2015-11-5T7:9:5Z</time></trkpt>
<trkpt lat="46.10534" lon="7.5293"><ele></ele><time>2015-11-5T7:9:8Z</time></trkpt>
<trkpt lat="46.10535" lon="7.5293"><ele></ele><time>2015-11-5T7:9:11Z</time></trkpt>
<trkpt lat="46.10535" lon="7.5293"><ele></ele><time>2015-11-5T7:9:14Z</time></trkpt>
<trkpt lat="46.10535" lon="7.5293"><ele></ele><time>2015-11-5T7:9:17Z</time></trkpt>
<trkpt lat="46.10534" lon="7.52931"><ele></ele><time>2015-11-5T7:9:20Z</time></trkpt>
<trkpt lat="46.10531" lon="7.52944"><ele></ele><time>2015-11-5T7:9:23Z</time></trkpt>
<trkpt lat="46.10527" lon="7.52938"><ele></ele><time>2015-11-5T7:9:26Z</time></trkpt>
<trkpt lat="46.10529" lon="7.52931"><ele></ele><time>2015-11-5T7:9:29Z</time></trkpt>
<trkpt lat="46.10518" lon="7.52928"><ele></ele><time>2015-11-5T7:9:32Z</time></trkpt>
<trkpt lat="46.10515" lon="7.5293"><ele></ele><time>2015-11-5T7:9:35Z</time></trkpt>
<trkpt lat="46.10516" lon="7.52929"><ele></ele><time>2015-11-5T7:9:38Z</time></trkpt>
<trkpt lat="46.10521" lon="7.52929"><ele></ele><time>2015-11-5T7:9:41Z</time></trkpt>
<trkpt lat="46.10534" lon="7.52932"><ele></ele><time>2015-11-5T7:9:44Z</time></trkpt>
<trkpt lat="46.10536" lon="7.52933"><ele></ele><time>2015-11-5T7:9:47Z</time></trkpt>
<trkpt lat="46.10537" lon="7.52932"><ele></ele><time>2015-11-5T7:9:50Z</time></trkpt>
<trkpt lat="46.10536" lon="7.52931"><ele></ele><time>2015-11-5T7:9:53Z</time></trkpt>
<trkpt lat="46.10536" lon="7.5293"><ele></ele><time>2015-11-5T7:9:56Z</time></trkpt>
<trkpt lat="46.10536" lon="7.5293"><ele></ele><time>2015-11-5T7:9:59Z</time></trkpt>
<trkpt lat="46.10526" lon="7.52929"><ele></ele><time>2015-11-5T7:10:2Z</time></trkpt>
<trkpt lat="46.10508" lon="7.52925"><ele></ele><time>2015-11-5T7:10:5Z</time></trkpt>
<trkpt lat="46.1051" lon="7.52915"><ele></ele><time>2015-11-5T7:10:8Z</time></trkpt>
<trkpt lat="46.10511" lon="7.52909"><ele></ele><time>2015-11-5T7:10:11Z</time></trkpt>
<trkpt lat="46.10512" lon="7.52908"><ele></ele><time>2015-11-5T7:10:14Z</time></trkpt>
<trkpt lat="46.10517" lon="7.52904"><ele></ele><time>2015-11-5T7:10:17Z</time></trkpt>
<trkpt lat="46.10527" lon="7.52902"><ele></ele><time>2015-11-5T7:10:20Z</time></trkpt>
<trkpt lat="46.10524" lon="7.52894"><ele></ele><time>2015-11-5T7:10:23Z</time></trkpt>
<trkpt lat="46.10524" lon="7.52891"><ele></ele><time>2015-11-5T7:10:26Z</time></trkpt>
<trkpt lat="46.10531" lon="7.52896"><ele></ele><time>2015-11-5T7:10:29Z</time></trkpt>
<trkpt lat="46.10526" lon="7.52891"><ele></ele><time>2015-11-5T7:10:32Z</time></trkpt>
<trkpt lat="46.10527" lon="7.52878"><ele></ele><time>2015-11-5T7:10:35Z</time></trkpt>
<trkpt lat="46.10523" lon="7.52877"><ele></ele><time>2015-11-5T7:10:38Z</time></trkpt>
<trkpt lat="46.10525" lon="7.5289"><ele></ele><time>2015-11-5T7:10:41Z</time></trkpt>
<trkpt lat="46.10516" lon="7.52879"><ele></ele><time>2015-11-5T7:10:44Z</time></trkpt>
<trkpt lat="46.10519" lon="7.52877"><ele></ele><time>2015-11-5T7:10:47Z</time></trkpt>
<trkpt lat="46.10519" lon="7.52877"><ele></ele><time>2015-11-5T7:10:50Z</time></trkpt>
<trkpt lat="46.10519" lon="7.52877"><ele></ele><time>2015-11-5T7:10:53Z</time></trkpt>
<trkpt lat="46.10518" lon="7.52878"><ele></ele><time>2015-11-5T7:10:56Z</time></trkpt>
<trkpt lat="46.10515" lon="7.52878"><ele></ele><time>2015-11-5T7:10:59Z</time></trkpt>
<trkpt lat="46.10515" lon="7.52878"><ele></ele><time>2015-11-5T7:11:2Z</time></trkpt>
<trkpt lat="46.10524" lon="7.5286"><ele></ele><time>2015-11-5T7:11:5Z</time></trkpt>
<trkpt lat="46.10515" lon="7.52858"><ele></ele><time>2015-11-5T7:11:8Z</time></trkpt>
<trkpt lat="46.10512" lon="7.52857"><ele></ele><time>2015-11-5T7:11:11Z</time></trkpt>
<trkpt lat="46.10508" lon="7.52856"><ele></ele><time>2015-11-5T7:11:14Z</time></trkpt>
<trkpt lat="46.105" lon="7.52856"><ele></ele><time>2015-11-5T7:11:17Z</time></trkpt>
<trkpt lat="46.10498" lon="7.52855"><ele></ele><time>2015-11-5T7:11:20Z</time></trkpt>
<trkpt lat="46.10511" lon="7.52834"><ele></ele><time>2015-11-5T7:11:23Z</time></trkpt>
<trkpt lat="46.10517" lon="7.52829"><ele></ele><time>2015-11-5T7:11:26Z</time></trkpt>
<trkpt lat="46.10519" lon="7.52825"><ele></ele><time>2015-11-5T7:11:29Z</time></trkpt>
<trkpt lat="46.10533" lon="7.52813"><ele></ele><time>2015-11-5T7:11:32Z</time></trkpt>
<trkpt lat="46.10538" lon="7.52811"><ele></ele><time>2015-11-5T7:11:35Z</time></trkpt>
<trkpt lat="46.10538" lon="7.52811"><ele></ele><time>2015-11-5T7:11:38Z</time></trkpt>
<trkpt lat="46.10538" lon="7.52811"><ele></ele><time>2015-11-5T7:11:41Z</time></trkpt>
<trkpt lat="46.10552" lon="7.52802"><ele></ele><time>2015-11-5T7:11:44Z</time></trkpt>
<trkpt lat="46.10553" lon="7.52801"><ele></ele><time>2015-11-5T7:11:47Z</time></trkpt>
<trkpt lat="46.10562" lon="7.52795"><ele></ele><time>2015-11-5T7:11:50Z</time></trkpt>
<trkpt lat="46.10577" lon="7.52781"><ele></ele><time>2015-11-5T7:11:53Z</time></trkpt>
<trkpt lat="46.10595" lon="7.52773"><ele></ele><time>2015-11-5T7:11:56Z</time></trkpt>
<trkpt lat="46.10613" lon="7.52762"><ele></ele><time>2015-11-5T7:11:59Z</time></trkpt>
<trkpt lat="46.10632" lon="7.52754"><ele></ele><time>2015-11-5T7:12:2Z</time></trkpt>
<trkpt lat="46.10635" lon="7.52753"><ele></ele><time>2015-11-5T7:12:5Z</time></trkpt>
<trkpt lat="46.10644" lon="7.52757"><ele></ele><time>2015-11-5T7:12:8Z</time></trkpt>
<trkpt lat="46.10647" lon="7.52758"><ele></ele><time>2015-11-5T7:12:11Z</time></trkpt>
<trkpt lat="46.10647" lon="7.52758"><ele></ele><time>2015-11-5T7:12:14Z</time></trkpt>
<trkpt lat="46.10647" lon="7.52757"><ele></ele><time>2015-11-5T7:12:17Z</time></trkpt>
<trkpt lat="46.10647" lon="7.52759"><ele></ele><time>2015-11-5T7:12:20Z</time></trkpt>
<trkpt lat="46.10647" lon="7.5276"><ele></ele><time>2015-11-5T7:12:23Z</time></trkpt>
<trkpt lat="46.10665" lon="7.52758"><ele></ele><time>2015-11-5T7:12:26Z</time></trkpt>
<trkpt lat="46.10687" lon="7.52747"><ele></ele><time>2015-11-5T7:12:29Z</time></trkpt>
<trkpt lat="46.10701" lon="7.52739"><ele></ele><time>2015-11-5T7:12:32Z</time></trkpt>
<trkpt lat="46.10708" lon="7.52732"><ele></ele><time>2015-11-5T7:12:35Z</time></trkpt>
<trkpt lat="46.10702" lon="7.52721"><ele></ele><time>2015-11-5T7:12:38Z</time></trkpt>
<trkpt lat="46.10689" lon="7.52702"><ele></ele><time>2015-11-5T7:12:41Z</time></trkpt>
<trkpt lat="46.1067" lon="7.52688"><ele></ele><time>2015-11-5T7:12:44Z</time></trkpt>
<trkpt lat="46.10663" lon="7.52681"><ele></ele><time>2015-11-5T7:12:47Z</time></trkpt>
<trkpt lat="46.10677" lon="7.52673"><ele></ele><time>2015-11-5T7:12:50Z</time></trkpt>
<trkpt lat="46.10684" lon="7.52674"><ele></ele><time>2015-11-5T7:12:53Z</time></trkpt>
<trkpt lat="46.10693" lon="7.52678"><ele></ele><time>2015-11-5T7:12:56Z</time></trkpt>
<trkpt lat="46.10697" lon="7.5268"><ele></ele><time>2015-11-5T7:12:59Z</time></trkpt>
<trkpt lat="46.10715" lon="7.52685"><ele></ele><time>2015-11-5T7:13:2Z</time></trkpt>
<trkpt lat="46.1072" lon="7.52687"><ele></ele><time>2015-11-5T7:13:5Z</time></trkpt>
<trkpt lat="46.1073" lon="7.5269"><ele></ele><time>2015-11-5T7:13:8Z</time></trkpt>
<trkpt lat="46.10742" lon="7.52696"><ele></ele><time>2015-11-5T7:13:11Z</time></trkpt>
<trkpt lat="46.10753" lon="7.52698"><ele></ele><time>2015-11-5T7:13:14Z</time></trkpt>
<trkpt lat="46.10772" lon="7.52699"><ele></ele><time>2015-11-5T7:13:17Z</time></trkpt>
<trkpt lat="46.10782" lon="7.52705"><ele></ele><time>2015-11-5T7:13:20Z</time></trkpt>
<trkpt lat="46.10798" lon="7.52714"><ele></ele><time>2015-11-5T7:13:23Z</time></trkpt>
<trkpt lat="46.10812" lon="7.52694"><ele></ele><time>2015-11-5T7:13:26Z</time></trkpt>
<trkpt lat="46.10816" lon="7.5269"><ele></ele><time>2015-11-5T7:13:29Z</time></trkpt>
<trkpt lat="46.10836" lon="7.52689"><ele></ele><time>2015-11-5T7:13:32Z</time></trkpt>
<trkpt lat="46.10842" lon="7.52683"><ele></ele><time>2015-11-5T7:13:35Z</time></trkpt>
<trkpt lat="46.10847" lon="7.52657"><ele></ele><time>2015-11-5T7:13:38Z</time></trkpt>
<trkpt lat="46.10853" lon="7.52633"><ele></ele><time>2015-11-5T7:13:41Z</time></trkpt>
<trkpt lat="46.1086" lon="7.52604"><ele></ele><time>2015-11-5T7:13:44Z</time></trkpt>
<trkpt lat="46.10867" lon="7.52582"><ele></ele><time>2015-11-5T7:13:47Z</time></trkpt>
<trkpt lat="46.1087" lon="7.52575"><ele></ele><time>2015-11-5T7:13:50Z</time></trkpt>
<trkpt lat="46.10891" lon="7.52566"><ele></ele><time>2015-11-5T7:13:53Z</time></trkpt>
<trkpt lat="46.10903" lon="7.52568"><ele></ele><time>2015-11-5T7:13:56Z</time></trkpt>
<trkpt lat="46.10916" lon="7.52572"><ele></ele><time>2015-11-5T7:13:59Z</time></trkpt>
<trkpt lat="46.10936" lon="7.52582"><ele></ele><time>2015-11-5T7:14:2Z</time></trkpt>
<trkpt lat="46.10948" lon="7.52592"><ele></ele><time>2015-11-5T7:14:5Z</time></trkpt>
<trkpt lat="46.10962" lon="7.52612"><ele></ele><time>2015-11-5T7:14:8Z</time></trkpt>
<trkpt lat="46.10976" lon="7.52602"><ele></ele><time>2015-11-5T7:14:11Z</time></trkpt>
<trkpt lat="46.10981" lon="7.52572"><ele></ele><time>2015-11-5T7:14:14Z</time></trkpt>
<trkpt lat="46.10981" lon="7.52564"><ele></ele><time>2015-11-5T7:14:17Z</time></trkpt>
<trkpt lat="46.10981" lon="7.52546"><ele></ele><time>2015-11-5T7:14:20Z</time></trkpt>
<trkpt lat="46.1098" lon="7.52527"><ele></ele><time>2015-11-5T7:14:23Z</time></trkpt>
<trkpt lat="46.10991" lon="7.52505"><ele></ele><time>2015-11-5T7:14:26Z</time></trkpt>
<trkpt lat="46.11005" lon="7.52481"><ele></ele><time>2015-11-5T7:14:29Z</time></trkpt>
<trkpt lat="46.11019" lon="7.52464"><ele></ele><time>2015-11-5T7:14:32Z</time></trkpt>
<trkpt lat="46.11031" lon="7.52443"><ele></ele><time>2015-11-5T7:14:35Z</time></trkpt>
<trkpt lat="46.11041" lon="7.52419"><ele></ele><time>2015-11-5T7:14:38Z</time></trkpt>
<trkpt lat="46.11044" lon="7.52393"><ele></ele><time>2015-11-5T7:14:41Z</time></trkpt>
<trkpt lat="46.11044" lon="7.52381"><ele></ele><time>2015-11-5T7:14:44Z</time></trkpt>
<trkpt lat="46.11043" lon="7.52345"><ele></ele><time>2015-11-5T7:14:47Z</time></trkpt>
<trkpt lat="46.11043" lon="7.52335"><ele></ele><time>2015-11-5T7:14:50Z</time></trkpt>
<trkpt lat="46.11044" lon="7.52326"><ele></ele><time>2015-11-5T7:14:53Z</time></trkpt>
<trkpt lat="46.11046" lon="7.52313"><ele></ele><time>2015-11-5T7:14:56Z</time></trkpt>
<trkpt lat="46.11035" lon="7.52326"><ele></ele><time>2015-11-5T7:14:59Z</time></trkpt>
<trkpt lat="46.11034" lon="7.52342"><ele></ele><time>2015-11-5T7:15:2Z</time></trkpt>
<trkpt lat="46.11028" lon="7.52371"><ele></ele><time>2015-11-5T7:15:5Z</time></trkpt>
<trkpt lat="46.11026" lon="7.52381"><ele></ele><time>2015-11-5T7:15:8Z</time></trkpt>
<trkpt lat="46.11018" lon="7.52414"><ele></ele><time>2015-11-5T7:15:11Z</time></trkpt>
<trkpt lat="46.10997" lon="7.52433"><ele></ele><time>2015-11-5T7:15:14Z</time></trkpt>
<trkpt lat="46.10981" lon="7.52447"><ele></ele><time>2015-11-5T7:15:17Z</time></trkpt>
<trkpt lat="46.10985" lon="7.52427"><ele></ele><time>2015-11-5T7:15:20Z</time></trkpt>
<trkpt lat="46.1099" lon="7.5242"><ele></ele><time>2015-11-5T7:15:23Z</time></trkpt>
<trkpt lat="46.11002" lon="7.52391"><ele></ele><time>2015-11-5T7:15:26Z</time></trkpt>
<trkpt lat="46.11003" lon="7.52365"><ele></ele><time>2015-11-5T7:15:29Z</time></trkpt>
<trkpt lat="46.10999" lon="7.52338"><ele></ele><time>2015-11-5T7:15:32Z</time></trkpt>
<trkpt lat="46.10996" lon="7.52326"><ele></ele><time>2015-11-5T7:15:35Z</time></trkpt>
<trkpt lat="46.10986" lon="7.52304"><ele></ele><time>2015-11-5T7:15:38Z</time></trkpt>
<trkpt lat="46.1097" lon="7.5228"><ele></ele><time>2015-11-5T7:15:41Z</time></trkpt>
<trkpt lat="46.10961" lon="7.52249"><ele></ele><time>2015-11-5T7:15:44Z</time></trkpt>
<trkpt lat="46.10955" lon="7.52224"><ele></ele><time>2015-11-5T7:15:47Z</time></trkpt>
<trkpt lat="46.10952" lon="7.52223"><ele></ele><time>2015-11-5T7:15:50Z</time></trkpt>
<trkpt lat="46.10951" lon="7.5225"><ele></ele><time>2015-11-5T7:15:53Z</time></trkpt>
<trkpt lat="46.10952" lon="7.5226"><ele></ele><time>2015-11-5T7:15:56Z</time></trkpt>
<trkpt lat="46.10941" lon="7.52271"><ele></ele><time>2015-11-5T7:15:59Z</time></trkpt>
<trkpt lat="46.10933" lon="7.52238"><ele></ele><time>2015-11-5T7:16:2Z</time></trkpt>
<trkpt lat="46.10922" lon="7.52211"><ele></ele><time>2015-11-5T7:16:5Z</time></trkpt>
<trkpt lat="46.10923" lon="7.52187"><ele></ele><time>2015-11-5T7:16:8Z</time></trkpt>
<trkpt lat="46.10923" lon="7.52173"><ele></ele><time>2015-11-5T7:16:11Z</time></trkpt>
<trkpt lat="46.10917" lon="7.52172"><ele></ele><time>2015-11-5T7:16:14Z</time></trkpt>
<trkpt lat="46.10903" lon="7.52186"><ele></ele><time>2015-11-5T7:16:17Z</time></trkpt>
<trkpt lat="46.10902" lon="7.52216"><ele></ele><time>2015-11-5T7:16:20Z</time></trkpt>
<trkpt lat="46.10903" lon="7.52238"><ele></ele><time>2015-11-5T7:16:23Z</time></trkpt>
<trkpt lat="46.10906" lon="7.52274"><ele></ele><time>2015-11-5T7:16:26Z</time></trkpt>
<trkpt lat="46.10909" lon="7.523"><ele></ele><time>2015-11-5T7:16:29Z</time></trkpt>
<trkpt lat="46.10909" lon="7.52314"><ele></ele><time>2015-11-5T7:16:32Z</time></trkpt>
<trkpt lat="46.109" lon="7.52348"><ele></ele><time>2015-11-5T7:16:35Z</time></trkpt>
<trkpt lat="46.10885" lon="7.52366"><ele></ele><time>2015-11-5T7:16:38Z</time></trkpt>
<trkpt lat="46.10872" lon="7.52352"><ele></ele><time>2015-11-5T7:16:41Z</time></trkpt>
<trkpt lat="46.10862" lon="7.52337"><ele></ele><time>2015-11-5T7:16:44Z</time></trkpt>
<trkpt lat="46.10841" lon="7.52326"><ele></ele><time>2015-11-5T7:16:47Z</time></trkpt>
<trkpt lat="46.10817" lon="7.52316"><ele></ele><time>2015-11-5T7:16:50Z</time></trkpt>
<trkpt lat="46.10795" lon="7.52316"><ele></ele><time>2015-11-5T7:16:53Z</time></trkpt>
<trkpt lat="46.10777" lon="7.52337"><ele></ele><time>2015-11-5T7:16:56Z</time></trkpt>
<trkpt lat="46.10771" lon="7.52346"><ele></ele><time>2015-11-5T7:16:59Z</time></trkpt>
<trkpt lat="46.1076" lon="7.52362"><ele></ele><time>2015-11-5T7:17:2Z</time></trkpt>
<trkpt lat="46.10742" lon="7.52374"><ele></ele><time>2015-11-5T7:17:5Z</time></trkpt>
<trkpt lat="46.10729" lon="7.52352"><ele></ele><time>2015-11-5T7:17:8Z</time></trkpt>
<trkpt lat="46.10725" lon="7.52342"><ele></ele><time>2015-11-5T7:17:11Z</time></trkpt>
<trkpt lat="46.1072" lon="7.52333"><ele></ele><time>2015-11-5T7:17:14Z</time></trkpt>
<trkpt lat="46.10701" lon="7.52309"><ele></ele><time>2015-11-5T7:17:17Z</time></trkpt>
<trkpt lat="46.10695" lon="7.52299"><ele></ele><time>2015-11-5T7:17:20Z</time></trkpt>
<trkpt lat="46.10681" lon="7.5228"><ele></ele><time>2015-11-5T7:17:23Z</time></trkpt>
<trkpt lat="46.10664" lon="7.52263"><ele></ele><time>2015-11-5T7:17:26Z</time></trkpt>
<trkpt lat="46.10645" lon="7.52247"><ele></ele><time>2015-11-5T7:17:29Z</time></trkpt>
<trkpt lat="46.10626" lon="7.52232"><ele></ele><time>2015-11-5T7:17:32Z</time></trkpt>
<trkpt lat="46.10608" lon="7.52215"><ele></ele><time>2015-11-5T7:17:35Z</time></trkpt>
<trkpt lat="46.10593" lon="7.52202"><ele></ele><time>2015-11-5T7:17:38Z</time></trkpt>
<trkpt lat="46.10575" lon="7.52196"><ele></ele><time>2015-11-5T7:17:41Z</time></trkpt>
<trkpt lat="46.10565" lon="7.52195"><ele></ele><time>2015-11-5T7:17:44Z</time></trkpt>
<trkpt lat="46.10546" lon="7.5219"><ele></ele><time>2015-11-5T7:17:47Z</time></trkpt>
<trkpt lat="46.10532" lon="7.52185"><ele></ele><time>2015-11-5T7:17:50Z</time></trkpt>
<trkpt lat="46.10515" lon="7.52195"><ele></ele><time>2015-11-5T7:17:53Z</time></trkpt>
<trkpt lat="46.10503" lon="7.52218"><ele></ele><time>2015-11-5T7:17:56Z</time></trkpt>
<trkpt lat="46.10491" lon="7.52238"><ele></ele><time>2015-11-5T7:17:59Z</time></trkpt>
<trkpt lat="46.10488" lon="7.52244"><ele></ele><time>2015-11-5T7:18:2Z</time></trkpt>
<trkpt lat="46.10483" lon="7.52252"><ele></ele><time>2015-11-5T7:18:5Z</time></trkpt>
<trkpt lat="46.10483" lon="7.52253"><ele></ele><time>2015-11-5T7:18:8Z</time></trkpt>
<trkpt lat="46.10478" lon="7.52259"><ele></ele><time>2015-11-5T7:18:11Z</time></trkpt>
<trkpt lat="46.10465" lon="7.52278"><ele></ele><time>2015-11-5T7:18:14Z</time></trkpt>
<trkpt lat="46.10449" lon="7.52262"><ele></ele><time>2015-11-5T7:18:17Z</time></trkpt>
<trkpt lat="46.10431" lon="7.52246"><ele></ele><time>2015-11-5T7:18:20Z</time></trkpt>
<trkpt lat="46.10417" lon="7.52244"><ele></ele><time>2015-11-5T7:18:23Z</time></trkpt>
<trkpt lat="46.1041" lon="7.5224"><ele></ele><time>2015-11-5T7:18:26Z</time></trkpt>
<trkpt lat="46.10422" lon="7.52227"><ele></ele><time>2015-11-5T7:18:29Z</time></trkpt>
<trkpt lat="46.10432" lon="7.52228"><ele></ele><time>2015-11-5T7:18:32Z</time></trkpt>
<trkpt lat="46.10444" lon="7.52232"><ele></ele><time>2015-11-5T7:18:35Z</time></trkpt>
<trkpt lat="46.10462" lon="7.52232"><ele></ele><time>2015-11-5T7:18:38Z</time></trkpt>
<trkpt lat="46.10476" lon="7.52211"><ele></ele><time>2015-11-5T7:18:41Z</time></trkpt>
<trkpt lat="46.10484" lon="7.52179"><ele></ele><time>2015-11-5T7:18:44Z</time></trkpt>
<trkpt lat="46.10484" lon="7.52168"><ele></ele><time>2015-11-5T7:18:47Z</time></trkpt>
<trkpt lat="46.10481" lon="7.52131"><ele></ele><time>2015-11-5T7:18:50Z</time></trkpt>
<trkpt lat="46.10473" lon="7.52107"><ele></ele><time>2015-11-5T7:18:53Z</time></trkpt>
<trkpt lat="46.10481" lon="7.52084"><ele></ele><time>2015-11-5T7:18:56Z</time></trkpt>
<trkpt lat="46.10499" lon="7.52079"><ele></ele><time>2015-11-5T7:18:59Z</time></trkpt>
<trkpt lat="46.10522" lon="7.52076"><ele></ele><time>2015-11-5T7:19:2Z</time></trkpt>
<trkpt lat="46.10548" lon="7.52074"><ele></ele><time>2015-11-5T7:19:5Z</time></trkpt>
<trkpt lat="46.10566" lon="7.52073"><ele></ele><time>2015-11-5T7:19:8Z</time></trkpt>
<trkpt lat="46.10586" lon="7.52073"><ele></ele><time>2015-11-5T7:19:11Z</time></trkpt>
<trkpt lat="46.10611" lon="7.52073"><ele></ele><time>2015-11-5T7:19:14Z</time></trkpt>
<trkpt lat="46.10634" lon="7.52071"><ele></ele><time>2015-11-5T7:19:17Z</time></trkpt>
<trkpt lat="46.10654" lon="7.52074"><ele></ele><time>2015-11-5T7:19:20Z</time></trkpt>
<trkpt lat="46.1066" lon="7.52076"><ele></ele><time>2015-11-5T7:19:23Z</time></trkpt>
<trkpt lat="46.10667" lon="7.52081"><ele></ele><time>2015-11-5T7:19:26Z</time></trkpt>
<trkpt lat="46.10668" lon="7.52081"><ele></ele><time>2015-11-5T7:19:29Z</time></trkpt>
<trkpt lat="46.10669" lon="7.52081"><ele></ele><time>2015-11-5T7:19:32Z</time></trkpt>
<trkpt lat="46.10671" lon="7.52081"><ele></ele><time>2015-11-5T7:19:35Z</time></trkpt>
<trkpt lat="46.10686" lon="7.52089"><ele></ele><time>2015-11-5T7:19:38Z</time></trkpt>
<trkpt lat="46.10701" lon="7.52117"><ele></ele><time>2015-11-5T7:19:41Z</time></trkpt>
<trkpt lat="46.10706" lon="7.52123"><ele></ele><time>2015-11-5T7:19:44Z</time></trkpt>
<trkpt lat="46.10724" lon="7.52125"><ele></ele><time>2015-11-5T7:19:47Z</time></trkpt>
<trkpt lat="46.10735" lon="7.52108"><ele></ele><time>2015-11-5T7:19:50Z</time></trkpt>
<trkpt lat="46.10736" lon="7.52096"><ele></ele><time>2015-11-5T7:19:53Z</time></trkpt>
<trkpt lat="46.10735" lon="7.52094"><ele></ele><time>2015-11-5T7:19:56Z</time></trkpt>
<trkpt lat="46.10735" lon="7.52092"><ele></ele><time>2015-11-5T7:19:59Z</time></trkpt>
<trkpt lat="46.10733" lon="7.52086"><ele></ele><time>2015-11-5T7:20:2Z</time></trkpt>
<trkpt lat="46.10728" lon="7.52069"><ele></ele><time>2015-11-5T7:20:5Z</time></trkpt>
<trkpt lat="46.10721" lon="7.52036"><ele></ele><time>2015-11-5T7:20:8Z</time></trkpt>
<trkpt lat="46.10715" lon="7.52006"><ele></ele><time>2015-11-5T7:20:11Z</time></trkpt>
<trkpt lat="46.10713" lon="7.51983"><ele></ele><time>2015-11-5T7:20:14Z</time></trkpt>
<trkpt lat="46.1071" lon="7.51972"><ele></ele><time>2015-11-5T7:20:17Z</time></trkpt>
<trkpt lat="46.10705" lon="7.51951"><ele></ele><time>2015-11-5T7:20:20Z</time></trkpt>
<trkpt lat="46.10702" lon="7.51934"><ele></ele><time>2015-11-5T7:20:23Z</time></trkpt>
<trkpt lat="46.1071" lon="7.51903"><ele></ele><time>2015-11-5T7:20:26Z</time></trkpt>
<trkpt lat="46.10726" lon="7.51878"><ele></ele><time>2015-11-5T7:20:29Z</time></trkpt>
<trkpt lat="46.10736" lon="7.51848"><ele></ele><time>2015-11-5T7:20:32Z</time></trkpt>
<trkpt lat="46.1074" lon="7.5181"><ele></ele><time>2015-11-5T7:20:35Z</time></trkpt>
<trkpt lat="46.10744" lon="7.51785"><ele></ele><time>2015-11-5T7:20:38Z</time></trkpt>
<trkpt lat="46.10746" lon="7.51775"><ele></ele><time>2015-11-5T7:20:41Z</time></trkpt>
<trkpt lat="46.10747" lon="7.51761"><ele></ele><time>2015-11-5T7:20:44Z</time></trkpt>
<trkpt lat="46.10736" lon="7.51779"><ele></ele><time>2015-11-5T7:20:47Z</time></trkpt>
<trkpt lat="46.10732" lon="7.51799"><ele></ele><time>2015-11-5T7:20:50Z</time></trkpt>
<trkpt lat="46.10726" lon="7.5182"><ele></ele><time>2015-11-5T7:20:53Z</time></trkpt>
<trkpt lat="46.10709" lon="7.51849"><ele></ele><time>2015-11-5T7:20:56Z</time></trkpt>
<trkpt lat="46.10687" lon="7.51871"><ele></ele><time>2015-11-5T7:20:59Z</time></trkpt>
<trkpt lat="46.10672" lon="7.5188"><ele></ele><time>2015-11-5T7:21:2Z</time></trkpt>
<trkpt lat="46.10656" lon="7.51905"><ele></ele><time>2015-11-5T7:21:5Z</time></trkpt>
<trkpt lat="46.10653" lon="7.51942"><ele></ele><time>2015-11-5T7:21:8Z</time></trkpt>
<trkpt lat="46.10651" lon="7.51976"><ele></ele><time>2015-11-5T7:21:11Z</time></trkpt>
<trkpt lat="46.10647" lon="7.51981"><ele></ele><time>2015-11-5T7:21:14Z</time></trkpt>
<trkpt lat="46.10622" lon="7.51977"><ele></ele><time>2015-11-5T7:21:17Z</time></trkpt>
<trkpt lat="46.10606" lon="7.51967"><ele></ele><time>2015-11-5T7:21:20Z</time></trkpt>
<trkpt lat="46.10588" lon="7.51955"><ele></ele><time>2015-11-5T7:21:23Z</time></trkpt>
<trkpt lat="46.10573" lon="7.51943"><ele></ele><time>2015-11-5T7:21:26Z</time></trkpt>
<trkpt lat="46.10562" lon="7.51919"><ele></ele><time>2015-11-5T7:21:29Z</time></trkpt>
<trkpt lat="46.10557" lon="7.51913"><ele></ele><time>2015-11-5T7:21:32Z</time></trkpt>
<trkpt lat="46.10552" lon="7.51908"><ele></ele><time>2015-11-5T7:21:35Z</time></trkpt>
<trkpt lat="46.10547" lon="7.51901"><ele></ele><time>2015-11-5T7:21:38Z</time></trkpt>
<trkpt lat="46.10539" lon="7.51884"><ele></ele><time>2015-11-5T7:21:41Z</time></trkpt>
<trkpt lat="46.10519" lon="7.51863"><ele></ele><time>2015-11-5T7:21:44Z</time></trkpt>
<trkpt lat="46.10503" lon="7.51852"><ele></ele><time>2015-11-5T7:21:47Z</time></trkpt>
<trkpt lat="46.10484" lon="7.51845"><ele></ele><time>2015-11-5T7:21:50Z</time></trkpt>
<trkpt lat="46.10465" lon="7.51841"><ele></ele><time>2015-11-5T7:21:53Z</time></trkpt>
<trkpt lat="46.10441" lon="7.51834"><ele></ele><time>2015-11-5T7:21:56Z</time></trkpt>
<trkpt lat="46.10434" lon="7.51833"><ele></ele><time>2015-11-5T7:21:59Z</time></trkpt>
<trkpt lat="46.10417" lon="7.51844"><ele></ele><time>2015-11-5T7:22:2Z</time></trkpt>
<trkpt lat="46.1041" lon="7.51852"><ele></ele><time>2015-11-5T7:22:5Z</time></trkpt>
<trkpt lat="46.10406" lon="7.51858"><ele></ele><time>2015-11-5T7:22:8Z</time></trkpt>
<trkpt lat="46.10398" lon="7.51865"><ele></ele><time>2015-11-5T7:22:11Z</time></trkpt>
<trkpt lat="46.1039" lon="7.51872"><ele></ele><time>2015-11-5T7:22:14Z</time></trkpt>
<trkpt lat="46.10368" lon="7.51888"><ele></ele><time>2015-11-5T7:22:17Z</time></trkpt>
<trkpt lat="46.1035" lon="7.51899"><ele></ele><time>2015-11-5T7:22:20Z</time></trkpt>
<trkpt lat="46.10332" lon="7.51886"><ele></ele><time>2015-11-5T7:22:23Z</time></trkpt>
<trkpt lat="46.10334" lon="7.51862"><ele></ele><time>2015-11-5T7:22:26Z</time></trkpt>
<trkpt lat="46.10326" lon="7.51841"><ele></ele><time>2015-11-5T7:22:29Z</time></trkpt>
<trkpt lat="46.1031" lon="7.51846"><ele></ele><time>2015-11-5T7:22:32Z</time></trkpt>
<trkpt lat="46.10308" lon="7.51848"><ele></ele><time>2015-11-5T7:22:35Z</time></trkpt>
<trkpt lat="46.10305" lon="7.51849"><ele></ele><time>2015-11-5T7:22:38Z</time></trkpt>
<trkpt lat="46.10304" lon="7.5185"><ele></ele><time>2015-11-5T7:22:41Z</time></trkpt>
<trkpt lat="46.10304" lon="7.5185"><ele></ele><time>2015-11-5T7:22:44Z</time></trkpt>
<trkpt lat="46.10304" lon="7.5185"><ele></ele><time>2015-11-5T7:22:47Z</time></trkpt>
<trkpt lat="46.10303" lon="7.5185"><ele></ele><time>2015-11-5T7:22:50Z</time></trkpt>
<trkpt lat="46.10286" lon="7.51863"><ele></ele><time>2015-11-5T7:22:53Z</time></trkpt>
<trkpt lat="46.10264" lon="7.51863"><ele></ele><time>2015-11-5T7:22:56Z</time></trkpt>
<trkpt lat="46.10256" lon="7.5186"><ele></ele><time>2015-11-5T7:22:59Z</time></trkpt>
<trkpt lat="46.10229" lon="7.51856"><ele></ele><time>2015-11-5T7:23:2Z</time></trkpt>
<trkpt lat="46.10211" lon="7.51858"><ele></ele><time>2015-11-5T7:23:5Z</time></trkpt>
<trkpt lat="46.10193" lon="7.51872"><ele></ele><time>2015-11-5T7:23:8Z</time></trkpt>
<trkpt lat="46.10186" lon="7.51853"><ele></ele><time>2015-11-5T7:23:11Z</time></trkpt>
<trkpt lat="46.10202" lon="7.51841"><ele></ele><time>2015-11-5T7:23:14Z</time></trkpt>
<trkpt lat="46.10209" lon="7.51838"><ele></ele><time>2015-11-5T7:23:17Z</time></trkpt>
<trkpt lat="46.10232" lon="7.51828"><ele></ele><time>2015-11-5T7:23:20Z</time></trkpt>
<trkpt lat="46.10239" lon="7.51824"><ele></ele><time>2015-11-5T7:23:23Z</time></trkpt>
<trkpt lat="46.1025" lon="7.51802"><ele></ele><time>2015-11-5T7:23:26Z</time></trkpt>
<trkpt lat="46.10252" lon="7.51794"><ele></ele><time>2015-11-5T7:23:29Z</time></trkpt>
<trkpt lat="46.10255" lon="7.51781"><ele></ele><time>2015-11-5T7:23:32Z</time></trkpt>
<trkpt lat="46.10257" lon="7.51776"><ele></ele><time>2015-11-5T7:23:35Z</time></trkpt>
<trkpt lat="46.10257" lon="7.51776"><ele></ele><time>2015-11-5T7:23:38Z</time></trkpt>
<trkpt lat="46.10256" lon="7.51776"><ele></ele><time>2015-11-5T7:23:41Z</time></trkpt>
<trkpt lat="46.10256" lon="7.51776"><ele></ele><time>2015-11-5T7:23:44Z</time></trkpt>
<trkpt lat="46.10256" lon="7.51776"><ele></ele><time>2015-11-5T7:23:47Z</time></trkpt>
<trkpt lat="46.10253" lon="7.51776"><ele></ele><time>2015-11-5T7:23:50Z</time></trkpt>
<trkpt lat="46.10254" lon="7.51777"><ele></ele><time>2015-11-5T7:23:53Z</time></trkpt>
<trkpt lat="46.10254" lon="7.51776"><ele></ele><time>2015-11-5T7:23:56Z</time></trkpt>
<trkpt lat="46.10256" lon="7.51778"><ele></ele><time>2015-11-5T7:23:59Z</time></trkpt>
<trkpt lat="46.10255" lon="7.51777"><ele></ele><time>2015-11-5T7:24:2Z</time></trkpt>
<trkpt lat="46.10255" lon="7.51777"><ele></ele><time>2015-11-5T7:24:5Z</time></trkpt>
<trkpt lat="46.10255" lon="7.51778"><ele></ele><time>2015-11-5T7:24:8Z</time></trkpt>
<trkpt lat="46.10254" lon="7.51778"><ele></ele><time>2015-11-5T7:24:11Z</time></trkpt>
<trkpt lat="46.10254" lon="7.51777"><ele></ele><time>2015-11-5T7:24:14Z</time></trkpt>
<trkpt lat="46.10254" lon="7.51777"><ele></ele><time>2015-11-5T7:24:17Z</time></trkpt>
<trkpt lat="46.10254" lon="7.51777"><ele></ele><time>2015-11-5T7:24:20Z</time></trkpt>
<trkpt lat="46.10253" lon="7.51778"><ele></ele><time>2015-11-5T7:24:23Z</time></trkpt>
<trkpt lat="46.10253" lon="7.51778"><ele></ele><time>2015-11-5T7:24:26Z</time></trkpt>
<trkpt lat="46.10253" lon="7.51778"><ele></ele><time>2015-11-5T7:24:29Z</time></trkpt>
<trkpt lat="46.10253" lon="7.51778"><ele></ele><time>2015-11-5T7:24:32Z</time></trkpt>
<trkpt lat="46.10253" lon="7.51778"><ele></ele><time>2015-11-5T7:24:35Z</time></trkpt>
<trkpt lat="46.10253" lon="7.51777"><ele></ele><time>2015-11-5T7:24:38Z</time></trkpt>
<trkpt lat="46.10253" lon="7.51777"><ele></ele><time>2015-11-5T7:24:41Z</time></trkpt>
<trkpt lat="46.10253" lon="7.51777"><ele></ele><time>2015-11-5T7:24:44Z</time></trkpt>
<trkpt lat="46.10253" lon="7.51777"><ele></ele><time>2015-11-5T7:24:47Z</time></trkpt>
<trkpt lat="46.10253" lon="7.51776"><ele></ele><time>2015-11-5T7:24:50Z</time></trkpt>
<trkpt lat="46.10252" lon="7.51775"><ele></ele><time>2015-11-5T7:24:53Z</time></trkpt>
<trkpt lat="46.10252" lon="7.51775"><ele></ele><time>2015-11-5T7:24:56Z</time></trkpt>
<trkpt lat="46.10252" lon="7.51774"><ele></ele><time>2015-11-5T7:24:59Z</time></trkpt>
<trkpt lat="46.10253" lon="7.51773"><ele></ele><time>2015-11-5T7:25:2Z</time></trkpt>
<trkpt lat="46.10253" lon="7.51775"><ele></ele><time>2015-11-5T7:25:5Z</time></trkpt>
<trkpt lat="46.10254" lon="7.51774"><ele></ele><time>2015-11-5T7:25:8Z</time></trkpt>
<trkpt lat="46.10254" lon="7.51773"><ele></ele><time>2015-11-5T7:25:11Z</time></trkpt>
<trkpt lat="46.10252" lon="7.5177"><ele></ele><time>2015-11-5T7:25:14Z</time></trkpt>
<trkpt lat="46.10252" lon="7.51769"><ele></ele><time>2015-11-5T7:25:17Z</time></trkpt>
<trkpt lat="46.10251" lon="7.51767"><ele></ele><time>2015-11-5T7:25:20Z</time></trkpt>
<trkpt lat="46.10251" lon="7.51766"><ele></ele><time>2015-11-5T7:25:23Z</time></trkpt>
<trkpt lat="46.10251" lon="7.51768"><ele></ele><time>2015-11-5T7:25:26Z</time></trkpt>
<trkpt lat="46.10252" lon="7.51768"><ele></ele><time>2015-11-5T7:25:29Z</time></trkpt>
<trkpt lat="46.10256" lon="7.51767"><ele></ele><time>2015-11-5T7:25:32Z</time></trkpt>
<trkpt lat="46.10273" lon="7.5176"><ele></ele><time>2015-11-5T7:25:35Z</time></trkpt>
<trkpt lat="46.10289" lon="7.51755"><ele></ele><time>2015-11-5T7:25:38Z</time></trkpt>
<trkpt lat="46.10303" lon="7.51739"><ele></ele><time>2015-11-5T7:25:41Z</time></trkpt>
<trkpt lat="46.10319" lon="7.5172"><ele></ele><time>2015-11-5T7:25:44Z</time></trkpt>
<trkpt lat="46.10324" lon="7.51715"><ele></ele><time>2015-11-5T7:25:47Z</time></trkpt>
<trkpt lat="46.1033" lon="7.51714"><ele></ele><time>2015-11-5T7:25:50Z</time></trkpt>
<trkpt lat="46.10352" lon="7.5171"><ele></ele><time>2015-11-5T7:25:53Z</time></trkpt>
<trkpt lat="46.10359" lon="7.5168"><ele></ele><time>2015-11-5T7:25:56Z</time></trkpt>
<trkpt lat="46.10355" lon="7.51664"><ele></ele><time>2015-11-5T7:25:59Z</time></trkpt>
<trkpt lat="46.10354" lon="7.51651"><ele></ele><time>2015-11-5T7:26:2Z</time></trkpt>
<trkpt lat="46.10362" lon="7.51636"><ele></ele><time>2015-11-5T7:26:5Z</time></trkpt>
<trkpt lat="46.10362" lon="7.51636"><ele></ele><time>2015-11-5T7:26:8Z</time></trkpt>
<trkpt lat="46.10363" lon="7.51635"><ele></ele><time>2015-11-5T7:26:11Z</time></trkpt>
<trkpt lat="46.10362" lon="7.51632"><ele></ele><time>2015-11-5T7:26:14Z</time></trkpt>
<trkpt lat="46.1035" lon="7.51609"><ele></ele><time>2015-11-5T7:26:17Z</time></trkpt>
<trkpt lat="46.10334" lon="7.51593"><ele></ele><time>2015-11-5T7:26:20Z</time></trkpt>
<trkpt lat="46.1033" lon="7.51591"><ele></ele><time>2015-11-5T7:26:23Z</time></trkpt>
<trkpt lat="46.10325" lon="7.516"><ele></ele><time>2015-11-5T7:26:26Z</time></trkpt>
<trkpt lat="46.10317" lon="7.5162"><ele></ele><time>2015-11-5T7:26:29Z</time></trkpt>
<trkpt lat="46.10309" lon="7.51637"><ele></ele><time>2015-11-5T7:26:32Z</time></trkpt>
<trkpt lat="46.10301" lon="7.51614"><ele></ele><time>2015-11-5T7:26:35Z</time></trkpt>
<trkpt lat="46.10298" lon="7.51608"><ele></ele><time>2015-11-5T7:26:38Z</time></trkpt>
<trkpt lat="46.1028" lon="7.51603"><ele></ele><time>2015-11-5T7:26:41Z</time></trkpt>
<trkpt lat="46.10276" lon="7.51598"><ele></ele><time>2015-11-5T7:26:44Z</time></trkpt>
<trkpt lat="46.10273" lon="7.51594"><ele></ele><time>2015-11-5T7:26:47Z</time></trkpt>
<trkpt lat="46.1027" lon="7.51591"><ele></ele><time>2015-11-5T7:26:50Z</time></trkpt>
<trkpt lat="46.10261" lon="7.51584"><ele></ele><time>2015-11-5T7:26:53Z</time></trkpt>
<trkpt lat="46.10243" lon="7.51569"><ele></ele><time>2015-11-5T7:26:56Z</time></trkpt>
<trkpt lat="46.1024" lon="7.51567"><ele></ele><time>2015-11-5T7:26:59Z</time></trkpt>
<trkpt lat="46.10222" lon="7.51558"><ele></ele><time>2015-11-5T7:27:2Z</time></trkpt>
<trkpt lat="46.10204" lon="7.51547"><ele></ele><time>2015-11-5T7:27:5Z</time></trkpt>
<trkpt lat="46.10181" lon="7.51545"><ele></ele><time>2015-11-5T7:27:8Z</time></trkpt>
<trkpt lat="46.10171" lon="7.51542"><ele></ele><time>2015-11-5T7:27:11Z</time></trkpt>
<trkpt lat="46.10171" lon="7.5154"><ele></ele><time>2015-11-5T7:27:14Z</time></trkpt>
<trkpt lat="46.1017" lon="7.51536"><ele></ele><time>2015-11-5T7:27:17Z</time></trkpt>
<trkpt lat="46.1017" lon="7.51524"><ele></ele><time>2015-11-5T7:27:20Z</time></trkpt>
<trkpt lat="46.10156" lon="7.51526"><ele></ele><time>2015-11-5T7:27:23Z</time></trkpt>
<trkpt lat="46.10139" lon="7.51538"><ele></ele><time>2015-11-5T7:27:26Z</time></trkpt>
<trkpt lat="46.1012" lon="7.51537"><ele></ele><time>2015-11-5T7:27:29Z</time></trkpt>
<trkpt lat="46.10105" lon="7.51516"><ele></ele><time>2015-11-5T7:27:32Z</time></trkpt>
<trkpt lat="46.101" lon="7.51512"><ele></ele><time>2015-11-5T7:27:35Z</time></trkpt>
<trkpt lat="46.10087" lon="7.51508"><ele></ele><time>2015-11-5T7:27:38Z</time></trkpt>
<trkpt lat="46.10073" lon="7.51527"><ele></ele><time>2015-11-5T7:27:41Z</time></trkpt>
<trkpt lat="46.10065" lon="7.51537"><ele></ele><time>2015-11-5T7:27:44Z</time></trkpt>
<trkpt lat="46.10042" lon="7.51546"><ele></ele><time>2015-11-5T7:27:47Z</time></trkpt>
<trkpt lat="46.10037" lon="7.51546"><ele></ele><time>2015-11-5T7:27:50Z</time></trkpt>
<trkpt lat="46.10032" lon="7.51546"><ele></ele><time>2015-11-5T7:27:53Z</time></trkpt>
<trkpt lat="46.10025" lon="7.51547"><ele></ele><time>2015-11-5T7:27:56Z</time></trkpt>
<trkpt lat="46.10012" lon="7.51539"><ele></ele><time>2015-11-5T7:27:59Z</time></trkpt>
<trkpt lat="46.10011" lon="7.5153"><ele></ele><time>2015-11-5T7:28:2Z</time></trkpt>
<trkpt lat="46.09998" lon="7.51508"><ele></ele><time>2015-11-5T7:28:5Z</time></trkpt>
<trkpt lat="46.09996" lon="7.51504"><ele></ele><time>2015-11-5T7:28:8Z</time></trkpt>
<trkpt lat="46.09995" lon="7.51498"><ele></ele><time>2015-11-5T7:28:11Z</time></trkpt>
<trkpt lat="46.09992" lon="7.51469"><ele></ele><time>2015-11-5T7:28:14Z</time></trkpt>
<trkpt lat="46.09982" lon="7.51443"><ele></ele><time>2015-11-5T7:28:17Z</time></trkpt>
<trkpt lat="46.0998" lon="7.51438"><ele></ele><time>2015-11-5T7:28:20Z</time></trkpt>
<trkpt lat="46.09961" lon="7.51445"><ele></ele><time>2015-11-5T7:28:23Z</time></trkpt>
<trkpt lat="46.09957" lon="7.51449"><ele></ele><time>2015-11-5T7:28:26Z</time></trkpt>
<trkpt lat="46.09936" lon="7.51464"><ele></ele><time>2015-11-5T7:28:29Z</time></trkpt>
<trkpt lat="46.09918" lon="7.51471"><ele></ele><time>2015-11-5T7:28:32Z</time></trkpt>
<trkpt lat="46.099" lon="7.51473"><ele></ele><time>2015-11-5T7:28:35Z</time></trkpt>
<trkpt lat="46.09882" lon="7.51485"><ele></ele><time>2015-11-5T7:28:38Z</time></trkpt>
<trkpt lat="46.09878" lon="7.5149"><ele></ele><time>2015-11-5T7:28:41Z</time></trkpt>
<trkpt lat="46.09873" lon="7.51493"><ele></ele><time>2015-11-5T7:28:44Z</time></trkpt>
<trkpt lat="46.09864" lon="7.51498"><ele></ele><time>2015-11-5T7:28:47Z</time></trkpt>
<trkpt lat="46.09855" lon="7.51505"><ele></ele><time>2015-11-5T7:28:50Z</time></trkpt>
<trkpt lat="46.09842" lon="7.51524"><ele></ele><time>2015-11-5T7:28:53Z</time></trkpt>
<trkpt lat="46.09831" lon="7.51541"><ele></ele><time>2015-11-5T7:28:56Z</time></trkpt>
<trkpt lat="46.09809" lon="7.51557"><ele></ele><time>2015-11-5T7:28:59Z</time></trkpt>
<trkpt lat="46.09785" lon="7.5157"><ele></ele><time>2015-11-5T7:29:2Z</time></trkpt>
<trkpt lat="46.09777" lon="7.51573"><ele></ele><time>2015-11-5T7:29:5Z</time></trkpt>
<trkpt lat="46.09751" lon="7.51577"><ele></ele><time>2015-11-5T7:29:8Z</time></trkpt>
<trkpt lat="46.09735" lon="7.51576"><ele></ele><time>2015-11-5T7:29:11Z</time></trkpt>
<trkpt lat="46.09727" lon="7.51576"><ele></ele><time>2015-11-5T7:29:14Z</time></trkpt>
<trkpt lat="46.09708" lon="7.51578"><ele></ele><time>2015-11-5T7:29:17Z</time></trkpt>
<trkpt lat="46.09688" lon="7.51582"><ele></ele><time>2015-11-5T7:29:20Z</time></trkpt>
<trkpt lat="46.09667" lon="7.51585"><ele></ele><time>2015-11-5T7:29:23Z</time></trkpt>
<trkpt lat="46.09648" lon="7.51589"><ele></ele><time>2015-11-5T7:29:26Z</time></trkpt>
<trkpt lat="46.09639" lon="7.51592"><ele></ele><time>2015-11-5T7:29:29Z</time></trkpt>
<trkpt lat="46.09623" lon="7.51606"><ele></ele><time>2015-11-5T7:29:32Z</time></trkpt>
<trkpt lat="46.09604" lon="7.51627"><ele></ele><time>2015-11-5T7:29:35Z</time></trkpt>
<trkpt lat="46.09585" lon="7.51627"><ele></ele><time>2015-11-5T7:29:38Z</time></trkpt>
<trkpt lat="46.09564" lon="7.51625"><ele></ele><time>2015-11-5T7:29:41Z</time></trkpt>
<trkpt lat="46.09557" lon="7.51624"><ele></ele><time>2015-11-5T7:29:44Z</time></trkpt>
<trkpt lat="46.09544" lon="7.51621"><ele></ele><time>2015-11-5T7:29:47Z</time></trkpt>
<trkpt lat="46.09537" lon="7.51618"><ele></ele><time>2015-11-5T7:29:50Z</time></trkpt>
<trkpt lat="46.0952" lon="7.5161"><ele></ele><time>2015-11-5T7:29:53Z</time></trkpt>
<trkpt lat="46.09506" lon="7.51602"><ele></ele><time>2015-11-5T7:29:56Z</time></trkpt>
<trkpt lat="46.09499" lon="7.51597"><ele></ele><time>2015-11-5T7:29:59Z</time></trkpt>
<trkpt lat="46.0948" lon="7.51588"><ele></ele><time>2015-11-5T7:30:2Z</time></trkpt>
<trkpt lat="46.09462" lon="7.51579"><ele></ele><time>2015-11-5T7:30:5Z</time></trkpt>
<trkpt lat="46.09453" lon="7.51575"><ele></ele><time>2015-11-5T7:30:8Z</time></trkpt>
<trkpt lat="46.09434" lon="7.51572"><ele></ele><time>2015-11-5T7:30:11Z</time></trkpt>
<trkpt lat="46.09416" lon="7.51568"><ele></ele><time>2015-11-5T7:30:14Z</time></trkpt>
<trkpt lat="46.09396" lon="7.51566"><ele></ele><time>2015-11-5T7:30:17Z</time></trkpt>
<trkpt lat="46.09383" lon="7.51567"><ele></ele><time>2015-11-5T7:30:20Z</time></trkpt>
<trkpt lat="46.09381" lon="7.51567"><ele></ele><time>2015-11-5T7:30:23Z</time></trkpt>
<trkpt lat="46.09376" lon="7.51568"><ele></ele><time>2015-11-5T7:30:26Z</time></trkpt>
<trkpt lat="46.09366" lon="7.51571"><ele></ele><time>2015-11-5T7:30:29Z</time></trkpt>
<trkpt lat="46.09348" lon="7.51584"><ele></ele><time>2015-11-5T7:30:32Z</time></trkpt>
<trkpt lat="46.09341" lon="7.51597"><ele></ele><time>2015-11-5T7:30:35Z</time></trkpt>
<trkpt lat="46.09345" lon="7.51589"><ele></ele><time>2015-11-5T7:30:38Z</time></trkpt>
<trkpt lat="46.09349" lon="7.51582"><ele></ele><time>2015-11-5T7:30:41Z</time></trkpt>
<trkpt lat="46.09367" lon="7.51573"><ele></ele><time>2015-11-5T7:30:44Z</time></trkpt>
<trkpt lat="46.09384" lon="7.51568"><ele></ele><time>2015-11-5T7:30:47Z</time></trkpt>
<trkpt lat="46.09394" lon="7.51565"><ele></ele><time>2015-11-5T7:30:50Z</time></trkpt>
<trkpt lat="46.09391" lon="7.51559"><ele></ele><time>2015-11-5T7:30:53Z</time></trkpt>
<trkpt lat="46.09388" lon="7.51559"><ele></ele><time>2015-11-5T7:30:56Z</time></trkpt>
<trkpt lat="46.09385" lon="7.51559"><ele></ele><time>2015-11-5T7:30:59Z</time></trkpt>
<trkpt lat="46.09382" lon="7.51559"><ele></ele><time>2015-11-5T7:31:2Z</time></trkpt>
<trkpt lat="46.09364" lon="7.51561"><ele></ele><time>2015-11-5T7:31:5Z</time></trkpt>
<trkpt lat="46.09358" lon="7.51562"><ele></ele><time>2015-11-5T7:31:8Z</time></trkpt>
<trkpt lat="46.09339" lon="7.51564"><ele></ele><time>2015-11-5T7:31:11Z</time></trkpt>
<trkpt lat="46.09322" lon="7.51579"><ele></ele><time>2015-11-5T7:31:14Z</time></trkpt>
<trkpt lat="46.09312" lon="7.516"><ele></ele><time>2015-11-5T7:31:17Z</time></trkpt>
<trkpt lat="46.09296" lon="7.51612"><ele></ele><time>2015-11-5T7:31:20Z</time></trkpt>
<trkpt lat="46.09284" lon="7.5161"><ele></ele><time>2015-11-5T7:31:23Z</time></trkpt>
<trkpt lat="46.09276" lon="7.51607"><ele></ele><time>2015-11-5T7:31:26Z</time></trkpt>
<trkpt lat="46.09272" lon="7.51605"><ele></ele><time>2015-11-5T7:31:29Z</time></trkpt>
<trkpt lat="46.09263" lon="7.516"><ele></ele><time>2015-11-5T7:31:32Z</time></trkpt>
<trkpt lat="46.09248" lon="7.51583"><ele></ele><time>2015-11-5T7:31:35Z</time></trkpt>
<trkpt lat="46.09231" lon="7.51574"><ele></ele><time>2015-11-5T7:31:38Z</time></trkpt>
<trkpt lat="46.09229" lon="7.51573"><ele></ele><time>2015-11-5T7:31:41Z</time></trkpt>
<trkpt lat="46.0922" lon="7.51575"><ele></ele><time>2015-11-5T7:31:44Z</time></trkpt>
<trkpt lat="46.09214" lon="7.51576"><ele></ele><time>2015-11-5T7:31:47Z</time></trkpt>
<trkpt lat="46.09209" lon="7.51575"><ele></ele><time>2015-11-5T7:31:50Z</time></trkpt>
<trkpt lat="46.09204" lon="7.5158"><ele></ele><time>2015-11-5T7:31:53Z</time></trkpt>
<trkpt lat="46.09202" lon="7.51582"><ele></ele><time>2015-11-5T7:31:56Z</time></trkpt>
<trkpt lat="46.09198" lon="7.51588"><ele></ele><time>2015-11-5T7:31:59Z</time></trkpt>
<trkpt lat="46.09191" lon="7.51592"><ele></ele><time>2015-11-5T7:32:2Z</time></trkpt>
<trkpt lat="46.09185" lon="7.51592"><ele></ele><time>2015-11-5T7:32:5Z</time></trkpt>
<trkpt lat="46.09181" lon="7.51591"><ele></ele><time>2015-11-5T7:32:8Z</time></trkpt>
<trkpt lat="46.09166" lon="7.51587"><ele></ele><time>2015-11-5T7:32:11Z</time></trkpt>
<trkpt lat="46.09148" lon="7.51589"><ele></ele><time>2015-11-5T7:32:14Z</time></trkpt>
<trkpt lat="46.09147" lon="7.51588"><ele></ele><time>2015-11-5T7:32:17Z</time></trkpt>
<trkpt lat="46.09145" lon="7.51589"><ele></ele><time>2015-11-5T7:32:20Z</time></trkpt>
<trkpt lat="46.09142" lon="7.51584"><ele></ele><time>2015-11-5T7:32:23Z</time></trkpt>
<trkpt lat="46.09137" lon="7.51586"><ele></ele><time>2015-11-5T7:32:26Z</time></trkpt>
<trkpt lat="46.09134" lon="7.51587"><ele></ele><time>2015-11-5T7:32:29Z</time></trkpt>
<trkpt lat="46.09131" lon="7.51589"><ele></ele><time>2015-11-5T7:32:32Z</time></trkpt>
<trkpt lat="46.09113" lon="7.51593"><ele></ele><time>2015-11-5T7:32:35Z</time></trkpt>
<trkpt lat="46.09097" lon="7.51595"><ele></ele><time>2015-11-5T7:32:38Z</time></trkpt>
<trkpt lat="46.09085" lon="7.51601"><ele></ele><time>2015-11-5T7:32:41Z</time></trkpt>
<trkpt lat="46.09085" lon="7.51601"><ele></ele><time>2015-11-5T7:32:44Z</time></trkpt>
<trkpt lat="46.09085" lon="7.516"><ele></ele><time>2015-11-5T7:32:47Z</time></trkpt>
<trkpt lat="46.09085" lon="7.516"><ele></ele><time>2015-11-5T7:32:50Z</time></trkpt>
<trkpt lat="46.09085" lon="7.51601"><ele></ele><time>2015-11-5T7:32:53Z</time></trkpt>
<trkpt lat="46.09085" lon="7.51605"><ele></ele><time>2015-11-5T7:32:56Z</time></trkpt>
<trkpt lat="46.09086" lon="7.51606"><ele></ele><time>2015-11-5T7:32:59Z</time></trkpt>
<trkpt lat="46.09085" lon="7.51605"><ele></ele><time>2015-11-5T7:33:2Z</time></trkpt>
<trkpt lat="46.09087" lon="7.51604"><ele></ele><time>2015-11-5T7:33:5Z</time></trkpt>
<trkpt lat="46.09087" lon="7.51605"><ele></ele><time>2015-11-5T7:33:8Z</time></trkpt>
<trkpt lat="46.09071" lon="7.5162"><ele></ele><time>2015-11-5T7:33:11Z</time></trkpt>
<trkpt lat="46.09055" lon="7.51637"><ele></ele><time>2015-11-5T7:33:14Z</time></trkpt>
<trkpt lat="46.09038" lon="7.5165"><ele></ele><time>2015-11-5T7:33:17Z</time></trkpt>
<trkpt lat="46.09033" lon="7.51654"><ele></ele><time>2015-11-5T7:33:20Z</time></trkpt>
<trkpt lat="46.09015" lon="7.51666"><ele></ele><time>2015-11-5T7:33:23Z</time></trkpt>
<trkpt lat="46.09" lon="7.51677"><ele></ele><time>2015-11-5T7:33:26Z</time></trkpt>
<trkpt lat="46.08995" lon="7.51679"><ele></ele><time>2015-11-5T7:33:29Z</time></trkpt>
<trkpt lat="46.08993" lon="7.5168"><ele></ele><time>2015-11-5T7:33:32Z</time></trkpt>
<trkpt lat="46.08977" lon="7.51686"><ele></ele><time>2015-11-5T7:33:35Z</time></trkpt>
<trkpt lat="46.08965" lon="7.51691"><ele></ele><time>2015-11-5T7:33:38Z</time></trkpt>
<trkpt lat="46.08961" lon="7.51691"><ele></ele><time>2015-11-5T7:33:41Z</time></trkpt>
<trkpt lat="46.08953" lon="7.5169"><ele></ele><time>2015-11-5T7:33:44Z</time></trkpt>
<trkpt lat="46.08934" lon="7.51697"><ele></ele><time>2015-11-5T7:33:47Z</time></trkpt>
<trkpt lat="46.08916" lon="7.517"><ele></ele><time>2015-11-5T7:33:50Z</time></trkpt>
<trkpt lat="46.08897" lon="7.51704"><ele></ele><time>2015-11-5T7:33:53Z</time></trkpt>
<trkpt lat="46.08888" lon="7.51707"><ele></ele><time>2015-11-5T7:33:56Z</time></trkpt>
<trkpt lat="46.08876" lon="7.5171"><ele></ele><time>2015-11-5T7:33:59Z</time></trkpt>
<trkpt lat="46.0886" lon="7.51712"><ele></ele><time>2015-11-5T7:34:2Z</time></trkpt>
<trkpt lat="46.08843" lon="7.51721"><ele></ele><time>2015-11-5T7:34:5Z</time></trkpt>
<trkpt lat="46.08825" lon="7.51727"><ele></ele><time>2015-11-5T7:34:8Z</time></trkpt>
<trkpt lat="46.08808" lon="7.5174"><ele></ele><time>2015-11-5T7:34:11Z</time></trkpt>
<trkpt lat="46.08807" lon="7.51741"><ele></ele><time>2015-11-5T7:34:14Z</time></trkpt>
<trkpt lat="46.08798" lon="7.51751"><ele></ele><time>2015-11-5T7:34:17Z</time></trkpt>
<trkpt lat="46.08785" lon="7.51743"><ele></ele><time>2015-11-5T7:34:20Z</time></trkpt>
<trkpt lat="46.08769" lon="7.51746"><ele></ele><time>2015-11-5T7:34:23Z</time></trkpt>
<trkpt lat="46.08757" lon="7.51752"><ele></ele><time>2015-11-5T7:34:26Z</time></trkpt>
<trkpt lat="46.0875" lon="7.51742"><ele></ele><time>2015-11-5T7:34:29Z</time></trkpt>
<trkpt lat="46.08745" lon="7.51735"><ele></ele><time>2015-11-5T7:34:32Z</time></trkpt>
<trkpt lat="46.08738" lon="7.51758"><ele></ele><time>2015-11-5T7:34:35Z</time></trkpt>
<trkpt lat="46.08731" lon="7.51775"><ele></ele><time>2015-11-5T7:34:38Z</time></trkpt>
<trkpt lat="46.08722" lon="7.51799"><ele></ele><time>2015-11-5T7:34:41Z</time></trkpt>
<trkpt lat="46.0872" lon="7.51808"><ele></ele><time>2015-11-5T7:34:44Z</time></trkpt>
<trkpt lat="46.08734" lon="7.51817"><ele></ele><time>2015-11-5T7:34:47Z</time></trkpt>
<trkpt lat="46.08736" lon="7.51822"><ele></ele><time>2015-11-5T7:34:50Z</time></trkpt>
<trkpt lat="46.08733" lon="7.51815"><ele></ele><time>2015-11-5T7:34:53Z</time></trkpt>
<trkpt lat="46.08733" lon="7.51815"><ele></ele><time>2015-11-5T7:34:56Z</time></trkpt>
<trkpt lat="46.08733" lon="7.51816"><ele></ele><time>2015-11-5T7:34:59Z</time></trkpt>
</trkseg></trk></gpx>